CPA315 VHHH-LEMD
Flight info
| Callsign | CPA315 |
|---|---|
| Flight time | N/A |
| Altitude | 27600 |
| Route | BEKOL A461 SHL W22 TEPID W24 OSNOV G586 QP B330 ELKAL W179 RIRKI/K0946S0920 W179 IGNAK/K0946S0890 W179 WFX/K0943S0920 W179 OMBON W195 VIDEK/K0941S0890 W195 LAXAL/K0935S0920 W195 IDOPA W197 ANDIM B215 IBANO G470 AKLAS/K0913S0980 W192 FKG A368 SARIN/K0917F320 N161 ABDUN/K0911F340 N161 GASBI/N0491F340 N161 LEYLA T916 MATAL DCT TABAS DCT REBLO UM11 CRM UM688 EKSUK UL852 NEGEM DCT DOLAP/N0483F360 DCT VEBAR DCT ELTIB DCT BAXON/N0483F350 DCT LUTOR DCT GEKBA/N0483F370 DCT VAMTU DCT KOLON DCT GANGU DCT PADKO DCT DIVKO DCT NILDU DCT NENDA DCT BCN DCT ANTON DCT XIKEN DCT OSLAP DCT SALAS DCT RAMON DCT NEXAS DCT DISVU DCT ADUXO |
| Aircraft | B77W/H-SDE1E2E3FGHIJ2J3J4J5M1RWXY/LB1D1 |
Departure
| Time | 2026-05-07 17:35 |
|---|---|
| Airport | Hong Kong International Airport (VHHH) |
Arrival
| Time | N/A |
|---|---|
| Airport | Adolfo Suárez Madrid–Barajas Airport (LEMD) |
| Time | Latitude | Longitude | Altitude | Speed | Heading |
|---|---|---|---|---|---|
| 2026-05-07 16:57 | 22.31434 | 113.92282 | 37 ft | 0 kts | 43° |
| 2026-05-07 17:20 | 22.31431 | 113.92279 | 37 ft | 3 kts | 43° |
| 2026-05-07 17:20 | 22.31411 | 113.92259 | 37 ft | 4 kts | 43° |
| 2026-05-07 17:20 | 22.31395 | 113.92242 | 37 ft | 3 kts | 41° |
| 2026-05-07 17:21 | 22.31375 | 113.92231 | 37 ft | 4 kts | 341° |
| 2026-05-07 17:21 | 22.31360 | 113.92247 | 37 ft | 4 kts | 296° |
| 2026-05-07 17:21 | 22.31348 | 113.92274 | 37 ft | 4 kts | 296° |
| 2026-05-07 17:21 | 22.31345 | 113.92279 | 37 ft | 0 kts | 296° |
| 2026-05-07 17:26 | 22.31350 | 113.92269 | 37 ft | 7 kts | 296° |
| 2026-05-07 17:26 | 22.31380 | 113.92203 | 37 ft | 10 kts | 296° |
| 2026-05-07 17:26 | 22.31410 | 113.92135 | 37 ft | 10 kts | 296° |
| 2026-05-07 17:27 | 22.31438 | 113.92066 | 37 ft | 10 kts | 281° |
| 2026-05-07 17:27 | 22.31424 | 113.91993 | 37 ft | 10 kts | 248° |
| 2026-05-07 17:27 | 22.31411 | 113.91921 | 37 ft | 10 kts | 288° |
| 2026-05-07 17:27 | 22.31463 | 113.91873 | 37 ft | 10 kts | 302° |
| 2026-05-07 17:28 | 22.31457 | 113.91800 | 37 ft | 10 kts | 253° |
| 2026-05-07 17:28 | 22.31433 | 113.91722 | 37 ft | 15 kts | 252° |
| 2026-05-07 17:28 | 22.31399 | 113.91610 | 37 ft | 16 kts | 251° |
| 2026-05-07 17:28 | 22.31350 | 113.91458 | 37 ft | 26 kts | 251° |
| 2026-05-07 17:29 | 22.31293 | 113.91283 | 37 ft | 24 kts | 250° |
| 2026-05-07 17:29 | 22.31236 | 113.91110 | 37 ft | 24 kts | 250° |
| 2026-05-07 17:29 | 22.31179 | 113.90937 | 37 ft | 24 kts | 250° |
| 2026-05-07 17:29 | 22.31123 | 113.90764 | 37 ft | 24 kts | 251° |
| 2026-05-07 17:30 | 22.31068 | 113.90590 | 36 ft | 24 kts | 251° |
| 2026-05-07 17:30 | 22.31013 | 113.90419 | 37 ft | 24 kts | 251° |
| 2026-05-07 17:30 | 22.30957 | 113.90247 | 37 ft | 23 kts | 251° |
| 2026-05-07 17:30 | 22.30906 | 113.90086 | 37 ft | 23 kts | 251° |
| 2026-05-07 17:31 | 22.30861 | 113.89949 | 37 ft | 18 kts | 250° |
| 2026-05-07 17:31 | 22.30861 | 113.89846 | 37 ft | 12 kts | 311° |
| 2026-05-07 17:31 | 22.30928 | 113.89818 | 37 ft | 7 kts | 341° |
| 2026-05-07 17:31 | 22.30944 | 113.89812 | 37 ft | 0 kts | 341° |
| 2026-05-07 17:32 | 22.30949 | 113.89810 | 37 ft | 1 kts | 341° |
| 2026-05-07 17:33 | 22.30954 | 113.89808 | 37 ft | 1 kts | 341° |
| 2026-05-07 17:33 | 22.30976 | 113.89800 | 36 ft | 4 kts | 341° |
| 2026-05-07 17:33 | 22.31016 | 113.89785 | 34 ft | 7 kts | 341° |
| 2026-05-07 17:33 | 22.31066 | 113.89778 | 34 ft | 7 kts | 18° |
| 2026-05-07 17:34 | 22.31096 | 113.89822 | 34 ft | 8 kts | 65° |
| 2026-05-07 17:34 | 22.31135 | 113.89934 | 35 ft | 40 kts | 70° |
| 2026-05-07 17:34 | 22.31319 | 113.90499 | 36 ft | 119 kts | 71° |
| 2026-05-07 17:34 | 22.31673 | 113.91604 | 37 ft | 192 kts | 70° |
| 2026-05-07 17:35 | 22.32175 | 113.93123 | 291 ft | 230 kts | 70° |
| 2026-05-07 17:35 | 22.32714 | 113.94765 | 1341 ft | 229 kts | 71° |
| 2026-05-07 17:35 | 22.33247 | 113.96376 | 2457 ft | 226 kts | 70° |
| 2026-05-07 17:35 | 22.33722 | 113.98021 | 2773 ft | 237 kts | 79° |
| 2026-05-07 17:36 | 22.33888 | 113.99832 | 3098 ft | 243 kts | 86° |
| 2026-05-07 17:36 | 22.34021 | 114.01655 | 3550 ft | 249 kts | 82° |
| 2026-05-07 17:36 | 22.34316 | 114.03562 | 3669 ft | 266 kts | 80° |
| 2026-05-07 17:36 | 22.34354 | 114.05593 | 3824 ft | 277 kts | 108° |
| 2026-05-07 17:37 | 22.33341 | 114.07357 | 4198 ft | 283 kts | 141° |
| 2026-05-07 17:37 | 22.31603 | 114.08352 | 4701 ft | 287 kts | 165° |
| 2026-05-07 17:37 | 22.29640 | 114.08738 | 5263 ft | 289 kts | 173° |
| 2026-05-07 17:37 | 22.27624 | 114.08811 | 5793 ft | 292 kts | 182° |
| 2026-05-07 17:38 | 22.25585 | 114.08740 | 6398 ft | 294 kts | 181° |
| 2026-05-07 17:38 | 22.23534 | 114.08695 | 6972 ft | 296 kts | 181° |
| 2026-05-07 17:38 | 22.21460 | 114.08667 | 7502 ft | 300 kts | 181° |
| 2026-05-07 17:38 | 22.19372 | 114.08744 | 7932 ft | 303 kts | 168° |
| 2026-05-07 17:39 | 22.17456 | 114.09672 | 7924 ft | 306 kts | 137° |
| 2026-05-07 17:39 | 22.16199 | 114.11492 | 7950 ft | 305 kts | 111° |
| 2026-05-07 17:39 | 22.15718 | 114.13705 | 7938 ft | 304 kts | 94° |
| 2026-05-07 17:39 | 22.15590 | 114.15987 | 7947 ft | 306 kts | 93° |
| 2026-05-07 17:40 | 22.15467 | 114.18286 | 7941 ft | 308 kts | 93° |
| 2026-05-07 17:40 | 22.15468 | 114.20584 | 8007 ft | 308 kts | 77° |
| 2026-05-07 17:40 | 22.16387 | 114.22644 | 8431 ft | 308 kts | 45° |
| 2026-05-07 17:40 | 22.18140 | 114.23915 | 8934 ft | 306 kts | 18° |
| 2026-05-07 17:41 | 22.20172 | 114.24618 | 9302 ft | 310 kts | 19° |
| 2026-05-07 17:41 | 22.22204 | 114.25443 | 9734 ft | 314 kts | 21° |
| 2026-05-07 17:41 | 22.24240 | 114.26317 | 10230 ft | 317 kts | 21° |
| 2026-05-07 17:41 | 22.26339 | 114.27220 | 10376 ft | 334 kts | 21° |
| 2026-05-07 17:42 | 22.28548 | 114.28166 | 10527 ft | 350 kts | 21° |
| 2026-05-07 17:42 | 22.30866 | 114.29154 | 10647 ft | 367 kts | 21° |
| 2026-05-07 17:42 | 22.33283 | 114.30186 | 10946 ft | 377 kts | 21° |
| 2026-05-07 17:42 | 22.35731 | 114.31230 | 11526 ft | 379 kts | 21° |
| 2026-05-07 17:43 | 22.38189 | 114.32278 | 12146 ft | 380 kts | 21° |
| 2026-05-07 17:43 | 22.40662 | 114.33331 | 12691 ft | 384 kts | 21° |
| 2026-05-07 17:43 | 22.43179 | 114.34274 | 13091 ft | 384 kts | 9° |
| 2026-05-07 17:43 | 22.45835 | 114.34277 | 13497 ft | 384 kts | 346° |
| 2026-05-07 17:44 | 22.48291 | 114.33216 | 14071 ft | 381 kts | 326° |
| 2026-05-07 17:44 | 22.50289 | 114.31357 | 14591 ft | 381 kts | 308° |
| 2026-05-07 17:44 | 22.51709 | 114.28944 | 15055 ft | 382 kts | 292° |
| 2026-05-07 17:44 | 22.52371 | 114.26211 | 15407 ft | 383 kts | 278° |
| 2026-05-07 17:45 | 22.52750 | 114.23340 | 15721 ft | 391 kts | 278° |
| 2026-05-07 17:45 | 22.53178 | 114.20382 | 15787 ft | 405 kts | 279° |
| 2026-05-07 17:45 | 22.53671 | 114.17352 | 15895 ft | 411 kts | 283° |
| 2026-05-07 17:45 | 22.54810 | 114.14491 | 16003 ft | 422 kts | 305° |
| 2026-05-07 17:46 | 22.56827 | 114.12171 | 16403 ft | 426 kts | 321° |
| 2026-05-07 17:46 | 22.59362 | 114.10515 | 16867 ft | 427 kts | 333° |
| 2026-05-07 17:46 | 22.62066 | 114.09155 | 17226 ft | 431 kts | 334° |
| 2026-05-07 17:46 | 22.64808 | 114.07812 | 17625 ft | 434 kts | 334° |
| 2026-05-07 17:47 | 22.67568 | 114.06454 | 18066 ft | 437 kts | 334° |
| 2026-05-07 17:47 | 22.70329 | 114.05074 | 18500 ft | 438 kts | 334° |
| 2026-05-07 17:47 | 22.73099 | 114.03672 | 18906 ft | 441 kts | 333° |
| 2026-05-07 17:47 | 22.75883 | 114.02250 | 19299 ft | 443 kts | 333° |
| 2026-05-07 17:48 | 22.78679 | 114.00816 | 19680 ft | 446 kts | 333° |
| 2026-05-07 17:48 | 22.81486 | 113.99372 | 20056 ft | 448 kts | 333° |
| 2026-05-07 17:48 | 22.84312 | 113.97919 | 20429 ft | 450 kts | 333° |
| 2026-05-07 17:48 | 22.87148 | 113.96462 | 20790 ft | 452 kts | 333° |
| 2026-05-07 17:49 | 22.90000 | 113.94996 | 21138 ft | 455 kts | 333° |
| 2026-05-07 17:49 | 22.92861 | 113.93515 | 21473 ft | 457 kts | 333° |
| 2026-05-07 17:49 | 22.95731 | 113.92021 | 21801 ft | 459 kts | 333° |
| 2026-05-07 17:49 | 22.98614 | 113.90517 | 22129 ft | 461 kts | 333° |
| 2026-05-07 17:50 | 23.01511 | 113.89007 | 22439 ft | 463 kts | 333° |
| 2026-05-07 17:50 | 23.04424 | 113.87490 | 22735 ft | 465 kts | 333° |
| 2026-05-07 17:50 | 23.07289 | 113.85855 | 23017 ft | 466 kts | 327° |
| 2026-05-07 17:50 | 23.09982 | 113.83893 | 23294 ft | 467 kts | 322° |
| 2026-05-07 17:51 | 23.12082 | 113.82080 | 23512 ft | 468 kts | 317° |
| 2026-05-07 17:51 | 23.14451 | 113.79646 | 23814 ft | 469 kts | 315° |
| 2026-05-07 17:51 | 23.16789 | 113.77164 | 24077 ft | 471 kts | 315° |
| 2026-05-07 17:51 | 23.19132 | 113.74674 | 24303 ft | 473 kts | 315° |
| 2026-05-07 17:52 | 23.21495 | 113.72168 | 24544 ft | 475 kts | 315° |
| 2026-05-07 17:52 | 23.23869 | 113.69663 | 24791 ft | 477 kts | 315° |
| 2026-05-07 17:52 | 23.26225 | 113.67186 | 25037 ft | 478 kts | 315° |
| 2026-05-07 17:52 | 23.28624 | 113.64668 | 25284 ft | 480 kts | 315° |
| 2026-05-07 17:53 | 23.31060 | 113.62113 | 25513 ft | 481 kts | 315° |
| 2026-05-07 17:53 | 23.33441 | 113.59615 | 25737 ft | 483 kts | 315° |
| 2026-05-07 17:53 | 23.35862 | 113.57074 | 25955 ft | 484 kts | 315° |
| 2026-05-07 17:53 | 23.38291 | 113.54521 | 26178 ft | 486 kts | 315° |
| 2026-05-07 17:54 | 23.40724 | 113.51962 | 26383 ft | 487 kts | 315° |
| 2026-05-07 17:54 | 23.43167 | 113.49391 | 26604 ft | 489 kts | 315° |
| 2026-05-07 17:54 | 23.45615 | 113.46814 | 26789 ft | 490 kts | 315° |
| 2026-05-07 17:54 | 23.48069 | 113.44228 | 26981 ft | 492 kts | 315° |
| 2026-05-07 17:55 | 23.50530 | 113.41637 | 27174 ft | 493 kts | 315° |
| 2026-05-07 17:55 | 23.52994 | 113.39037 | 27345 ft | 494 kts | 315° |
| 2026-05-07 17:55 | 23.55459 | 113.36419 | 27443 ft | 497 kts | 315° |
| 2026-05-07 17:55 | 23.57918 | 113.33771 | 27504 ft | 497 kts | 315° |
| 2026-05-07 17:56 | 23.60379 | 113.31115 | 27538 ft | 499 kts | 315° |
| 2026-05-07 17:56 | 23.62854 | 113.28438 | 27562 ft | 503 kts | 313° |
| 2026-05-07 17:56 | 23.65162 | 113.25557 | 27582 ft | 506 kts | 307° |
| 2026-05-07 17:56 | 23.67192 | 113.22413 | 27614 ft | 508 kts | 302° |
| 2026-05-07 17:57 | 23.68987 | 113.19082 | 27627 ft | 511 kts | 297° |
| 2026-05-07 17:57 | 23.70016 | 113.16712 | 27655 ft | 512 kts | 294° |
| 2026-05-07 17:57 | 23.71885 | 113.11981 | 27707 ft | 514 kts | 293° |
| 2026-05-07 17:57 | 23.73314 | 113.08406 | 27784 ft | 515 kts | 294° |
| 2026-05-07 17:58 | 23.74777 | 113.04838 | 27892 ft | 514 kts | 294° |
| 2026-05-07 17:58 | 23.76514 | 113.01453 | 27881 ft | 513 kts | 308° |
| 2026-05-07 17:58 | 23.79006 | 112.98665 | 27922 ft | 515 kts | 321° |
| 2026-05-07 17:58 | 23.82003 | 112.96528 | 27961 ft | 517 kts | 333° |
| 2026-05-07 17:59 | 23.85382 | 112.95161 | 27993 ft | 520 kts | 344° |
| 2026-05-07 17:59 | 23.88895 | 112.94206 | 28089 ft | 520 kts | 344° |
| 2026-05-07 17:59 | 23.95856 | 112.92007 | 28181 ft | 521 kts | 342° |
| 2026-05-07 18:00 | 24.02799 | 112.89662 | 28327 ft | 522 kts | 341° |
| 2026-05-07 18:00 | 24.06269 | 112.88501 | 28470 ft | 521 kts | 341° |
| 2026-05-07 18:00 | 24.09731 | 112.87349 | 28611 ft | 520 kts | 342° |
| 2026-05-07 18:01 | 24.16654 | 112.85052 | 28760 ft | 520 kts | 342° |
| 2026-05-07 18:01 | 24.23580 | 112.82754 | 28959 ft | 519 kts | 341° |
| 2026-05-07 18:02 | 24.30463 | 112.80471 | 29417 ft | 513 kts | 341° |
| 2026-05-07 18:02 | 24.33881 | 112.79335 | 29580 ft | 513 kts | 341° |
| 2026-05-07 18:03 | 24.40706 | 112.77055 | 29756 ft | 510 kts | 339° |
| 2026-05-07 18:03 | 24.43902 | 112.75399 | 29736 ft | 508 kts | 323° |
| 2026-05-07 18:03 | 24.46515 | 112.72819 | 29779 ft | 506 kts | 308° |
| 2026-05-07 18:03 | 24.48453 | 112.69615 | 29872 ft | 503 kts | 297° |
| 2026-05-07 18:04 | 24.49816 | 112.66081 | 29912 ft | 503 kts | 286° |
| 2026-05-07 18:04 | 24.50406 | 112.62329 | 29988 ft | 498 kts | 275° |
| 2026-05-07 18:04 | 24.50708 | 112.58534 | 29959 ft | 500 kts | 275° |
| 2026-05-07 18:05 | 24.51326 | 112.50909 | 29975 ft | 502 kts | 276° |
| 2026-05-07 18:05 | 24.52012 | 112.43309 | 29987 ft | 505 kts | 276° |
| 2026-05-07 18:06 | 24.52746 | 112.35628 | 29989 ft | 507 kts | 276° |
| 2026-05-07 18:06 | 24.53494 | 112.27865 | 29979 ft | 509 kts | 276° |
| 2026-05-07 18:07 | 24.54236 | 112.20134 | 29995 ft | 510 kts | 276° |
| 2026-05-07 18:07 | 24.54843 | 112.13696 | 29992 ft | 510 kts | 276° |
| 2026-05-07 18:08 | 24.55574 | 112.05941 | 29988 ft | 510 kts | 276° |
| 2026-05-07 18:08 | 24.56299 | 111.98192 | 29995 ft | 509 kts | 276° |
| 2026-05-07 18:09 | 24.57020 | 111.90456 | 30012 ft | 509 kts | 276° |
| 2026-05-07 18:09 | 24.57734 | 111.82735 | 29999 ft | 508 kts | 276° |
| 2026-05-07 18:10 | 24.58444 | 111.75017 | 30010 ft | 507 kts | 276° |
| 2026-05-07 18:10 | 24.59145 | 111.67363 | 30021 ft | 506 kts | 276° |
| 2026-05-07 18:11 | 24.59852 | 111.59616 | 30003 ft | 506 kts | 276° |
| 2026-05-07 18:11 | 24.60545 | 111.51941 | 30005 ft | 505 kts | 276° |
| 2026-05-07 18:12 | 24.61237 | 111.44259 | 30017 ft | 505 kts | 276° |
| 2026-05-07 18:12 | 24.61924 | 111.36578 | 30020 ft | 505 kts | 276° |
| 2026-05-07 18:13 | 24.62608 | 111.28890 | 30019 ft | 506 kts | 276° |
| 2026-05-07 18:13 | 24.63280 | 111.21200 | 30025 ft | 506 kts | 275° |
| 2026-05-07 18:14 | 24.63946 | 111.13512 | 30031 ft | 506 kts | 275° |
| 2026-05-07 18:14 | 24.64606 | 111.05820 | 30028 ft | 505 kts | 275° |
| 2026-05-07 18:15 | 24.65264 | 110.98182 | 30032 ft | 505 kts | 275° |
| 2026-05-07 18:15 | 24.65923 | 110.90447 | 30036 ft | 505 kts | 275° |
| 2026-05-07 18:16 | 24.66644 | 110.82825 | 30028 ft | 503 kts | 281° |
| 2026-05-07 18:16 | 24.67665 | 110.79158 | 30039 ft | 503 kts | 294° |
| 2026-05-07 18:16 | 24.69340 | 110.75722 | 30038 ft | 505 kts | 303° |
| 2026-05-07 18:16 | 24.71500 | 110.72679 | 30036 ft | 505 kts | 314° |
| 2026-05-07 18:17 | 24.74049 | 110.70029 | 30035 ft | 506 kts | 316° |
| 2026-05-07 18:17 | 24.79225 | 110.64768 | 30043 ft | 508 kts | 315° |
| 2026-05-07 18:18 | 24.84366 | 110.59416 | 30043 ft | 509 kts | 315° |
| 2026-05-07 18:18 | 24.89449 | 110.54042 | 30052 ft | 511 kts | 315° |
| 2026-05-07 18:19 | 24.94572 | 110.48614 | 30053 ft | 511 kts | 315° |
| 2026-05-07 18:19 | 24.99699 | 110.43188 | 30040 ft | 510 kts | 315° |
| 2026-05-07 18:20 | 25.04818 | 110.37776 | 30049 ft | 509 kts | 315° |
| 2026-05-07 18:20 | 25.09934 | 110.32383 | 30044 ft | 509 kts | 315° |
| 2026-05-07 18:21 | 25.15036 | 110.26986 | 30048 ft | 507 kts | 315° |
| 2026-05-07 18:21 | 25.20121 | 110.21603 | 30049 ft | 506 kts | 314° |
| 2026-05-07 18:22 | 25.25217 | 110.16252 | 30045 ft | 505 kts | 315° |
| 2026-05-07 18:22 | 25.30314 | 110.10930 | 30048 ft | 504 kts | 315° |
| 2026-05-07 18:23 | 25.35408 | 110.05601 | 30046 ft | 503 kts | 315° |
| 2026-05-07 18:23 | 25.40482 | 110.00276 | 30045 ft | 503 kts | 315° |
| 2026-05-07 18:24 | 25.45555 | 109.94940 | 30058 ft | 503 kts | 315° |
| 2026-05-07 18:24 | 25.50634 | 109.89594 | 30052 ft | 505 kts | 314° |
| 2026-05-07 18:25 | 25.55724 | 109.84230 | 30048 ft | 505 kts | 315° |
| 2026-05-07 18:25 | 25.60808 | 109.78871 | 30051 ft | 505 kts | 314° |
| 2026-05-07 18:26 | 25.65886 | 109.73508 | 30048 ft | 504 kts | 314° |
| 2026-05-07 18:26 | 25.70956 | 109.68144 | 30056 ft | 504 kts | 314° |
| 2026-05-07 18:27 | 25.75729 | 109.62566 | 30053 ft | 500 kts | 304° |
| 2026-05-07 18:27 | 25.79087 | 109.55851 | 30065 ft | 498 kts | 291° |
| 2026-05-07 18:28 | 25.81112 | 109.48466 | 30063 ft | 497 kts | 285° |
| 2026-05-07 18:28 | 25.82965 | 109.41108 | 30062 ft | 499 kts | 285° |
| 2026-05-07 18:29 | 25.84887 | 109.33705 | 30075 ft | 500 kts | 285° |
| 2026-05-07 18:29 | 25.86835 | 109.26286 | 30062 ft | 501 kts | 285° |
| 2026-05-07 18:30 | 25.88784 | 109.18855 | 30075 ft | 501 kts | 285° |
| 2026-05-07 18:30 | 25.90728 | 109.11410 | 30073 ft | 502 kts | 285° |
| 2026-05-07 18:31 | 25.92667 | 109.03972 | 30070 ft | 501 kts | 285° |
| 2026-05-07 18:31 | 25.94623 | 108.96543 | 30076 ft | 501 kts | 285° |
| 2026-05-07 18:32 | 25.96587 | 108.89118 | 30090 ft | 501 kts | 285° |
| 2026-05-07 18:32 | 25.98543 | 108.81687 | 30090 ft | 500 kts | 285° |
| 2026-05-07 18:33 | 26.00492 | 108.74260 | 30100 ft | 501 kts | 285° |
| 2026-05-07 18:33 | 26.02461 | 108.66837 | 30098 ft | 500 kts | 285° |
| 2026-05-07 18:34 | 26.04448 | 108.59423 | 30096 ft | 500 kts | 285° |
| 2026-05-07 18:34 | 26.06429 | 108.52009 | 30099 ft | 500 kts | 285° |
| 2026-05-07 18:35 | 26.08400 | 108.44596 | 30121 ft | 500 kts | 285° |
| 2026-05-07 18:35 | 26.10658 | 108.37271 | 30113 ft | 501 kts | 293° |
| 2026-05-07 18:36 | 26.13713 | 108.30285 | 30129 ft | 503 kts | 295° |
| 2026-05-07 18:36 | 26.16795 | 108.23284 | 30137 ft | 504 kts | 294° |
| 2026-05-07 18:37 | 26.19840 | 108.16261 | 30141 ft | 503 kts | 294° |
| 2026-05-07 18:37 | 26.22864 | 108.09227 | 30155 ft | 503 kts | 294° |
| 2026-05-07 18:38 | 26.25886 | 108.02196 | 30162 ft | 503 kts | 294° |
| 2026-05-07 18:38 | 26.28900 | 107.95167 | 30170 ft | 503 kts | 294° |
| 2026-05-07 18:39 | 26.31914 | 107.88130 | 30168 ft | 503 kts | 294° |
| 2026-05-07 18:39 | 26.34926 | 107.81098 | 30180 ft | 503 kts | 294° |
| 2026-05-07 18:40 | 26.37932 | 107.74054 | 30177 ft | 503 kts | 294° |
| 2026-05-07 18:40 | 26.40932 | 107.67016 | 30191 ft | 503 kts | 294° |
| 2026-05-07 18:41 | 26.43934 | 107.59962 | 30194 ft | 503 kts | 294° |
| 2026-05-07 18:41 | 26.46936 | 107.52900 | 30202 ft | 503 kts | 294° |
| 2026-05-07 18:42 | 26.49948 | 107.45849 | 30202 ft | 503 kts | 294° |
| 2026-05-07 18:42 | 26.52975 | 107.38804 | 30208 ft | 503 kts | 294° |
| 2026-05-07 18:43 | 26.55984 | 107.31749 | 30201 ft | 503 kts | 294° |
| 2026-05-07 18:43 | 26.58950 | 107.24676 | 30209 ft | 503 kts | 293° |
| 2026-05-07 18:44 | 26.61917 | 107.17597 | 30203 ft | 503 kts | 293° |
| 2026-05-07 18:44 | 26.64895 | 107.10530 | 30202 ft | 502 kts | 294° |
| 2026-05-07 18:45 | 26.67882 | 107.03528 | 30212 ft | 502 kts | 294° |
| 2026-05-07 18:45 | 26.70884 | 106.96473 | 30218 ft | 503 kts | 294° |
| 2026-05-07 18:46 | 26.73879 | 106.89403 | 30209 ft | 503 kts | 294° |
| 2026-05-07 18:46 | 26.76939 | 106.82362 | 30208 ft | 504 kts | 298° |
| 2026-05-07 18:47 | 26.81054 | 106.75986 | 30212 ft | 508 kts | 309° |
| 2026-05-07 18:47 | 26.86173 | 106.70520 | 30217 ft | 510 kts | 317° |
| 2026-05-07 18:48 | 26.91564 | 106.65352 | 30222 ft | 510 kts | 317° |
| 2026-05-07 18:48 | 26.96928 | 106.60137 | 30215 ft | 511 kts | 316° |
| 2026-05-07 18:49 | 27.02273 | 106.54884 | 30212 ft | 511 kts | 316° |
| 2026-05-07 18:49 | 27.07622 | 106.49617 | 30212 ft | 511 kts | 316° |
| 2026-05-07 18:50 | 27.12968 | 106.44345 | 30212 ft | 511 kts | 316° |
| 2026-05-07 18:50 | 27.18315 | 106.39068 | 30216 ft | 511 kts | 316° |
| 2026-05-07 18:51 | 27.23669 | 106.33814 | 30208 ft | 511 kts | 316° |
| 2026-05-07 18:51 | 27.28141 | 106.29477 | 30218 ft | 511 kts | 316° |
| 2026-05-07 18:52 | 27.33518 | 106.24261 | 30212 ft | 510 kts | 316° |
| 2026-05-07 18:52 | 27.38879 | 106.19036 | 30210 ft | 510 kts | 316° |
| 2026-05-07 18:53 | 27.44238 | 106.13802 | 30210 ft | 510 kts | 316° |
| 2026-05-07 18:53 | 27.49593 | 106.08566 | 30205 ft | 510 kts | 316° |
| 2026-05-07 18:54 | 27.54951 | 106.03323 | 30201 ft | 510 kts | 316° |
| 2026-05-07 18:54 | 27.60306 | 105.98074 | 30199 ft | 510 kts | 316° |
| 2026-05-07 18:55 | 27.65658 | 105.92819 | 30196 ft | 510 kts | 316° |
| 2026-05-07 18:55 | 27.70795 | 105.87367 | 30196 ft | 504 kts | 306° |
| 2026-05-07 18:56 | 27.74452 | 105.80680 | 30210 ft | 500 kts | 292° |
| 2026-05-07 18:56 | 27.76628 | 105.73255 | 30211 ft | 498 kts | 285° |
| 2026-05-07 18:57 | 27.78664 | 105.65755 | 30201 ft | 501 kts | 286° |
| 2026-05-07 18:57 | 27.81004 | 105.58347 | 30205 ft | 502 kts | 292° |
| 2026-05-07 18:58 | 27.83867 | 105.51141 | 30199 ft | 503 kts | 292° |
| 2026-05-07 18:58 | 27.86675 | 105.43909 | 30201 ft | 503 kts | 291° |
| 2026-05-07 18:59 | 27.89532 | 105.36699 | 30188 ft | 503 kts | 294° |
| 2026-05-07 18:59 | 27.92709 | 105.29642 | 30194 ft | 503 kts | 295° |
| 2026-05-07 19:00 | 27.95891 | 105.22604 | 30193 ft | 502 kts | 297° |
| 2026-05-07 19:00 | 28.00228 | 105.16362 | 30199 ft | 510 kts | 314° |
| 2026-05-07 19:01 | 28.05888 | 105.11582 | 30210 ft | 514 kts | 326° |
| 2026-05-07 19:01 | 28.12087 | 105.07404 | 30183 ft | 515 kts | 326° |
| 2026-05-07 19:02 | 28.18213 | 105.03205 | 30194 ft | 515 kts | 325° |
| 2026-05-07 19:02 | 28.24309 | 104.98947 | 30199 ft | 515 kts | 325° |
| 2026-05-07 19:03 | 28.30403 | 104.94670 | 30191 ft | 515 kts | 325° |
| 2026-05-07 19:03 | 28.36492 | 104.90390 | 30194 ft | 515 kts | 325° |
| 2026-05-07 19:04 | 28.42591 | 104.86114 | 30191 ft | 515 kts | 325° |
| 2026-05-07 19:04 | 28.48692 | 104.81849 | 30191 ft | 515 kts | 325° |
| 2026-05-07 19:05 | 28.54784 | 104.77581 | 30194 ft | 514 kts | 325° |
| 2026-05-07 19:05 | 28.60869 | 104.73308 | 30193 ft | 514 kts | 325° |
| 2026-05-07 19:06 | 28.66954 | 104.69030 | 30180 ft | 514 kts | 325° |
| 2026-05-07 19:06 | 28.76079 | 104.62601 | 30187 ft | 514 kts | 325° |
| 2026-05-07 19:07 | 28.82157 | 104.58310 | 30186 ft | 513 kts | 325° |
| 2026-05-07 19:07 | 28.88226 | 104.54018 | 30184 ft | 513 kts | 325° |
| 2026-05-07 19:08 | 28.94295 | 104.49704 | 30187 ft | 514 kts | 324° |
| 2026-05-07 19:08 | 29.00361 | 104.45384 | 30185 ft | 514 kts | 324° |
| 2026-05-07 19:09 | 29.06427 | 104.41058 | 30186 ft | 514 kts | 324° |
| 2026-05-07 19:09 | 29.12500 | 104.36722 | 30194 ft | 514 kts | 324° |
| 2026-05-07 19:10 | 29.18530 | 104.32411 | 30195 ft | 514 kts | 324° |
| 2026-05-07 19:10 | 29.24727 | 104.28338 | 30183 ft | 517 kts | 336° |
| 2026-05-07 19:11 | 29.28210 | 104.27236 | 30207 ft | 523 kts | 348° |
| 2026-05-07 19:11 | 29.31856 | 104.26900 | 30192 ft | 529 kts | 358° |
| 2026-05-07 19:11 | 29.39182 | 104.28064 | 30202 ft | 534 kts | 6° |
| 2026-05-07 19:12 | 29.46534 | 104.29445 | 30197 ft | 537 kts | 6° |
| 2026-05-07 19:12 | 29.53923 | 104.30744 | 30191 ft | 539 kts | 5° |
| 2026-05-07 19:13 | 29.61352 | 104.32006 | 30181 ft | 540 kts | 5° |
| 2026-05-07 19:13 | 29.68785 | 104.33264 | 30184 ft | 540 kts | 5° |
| 2026-05-07 19:14 | 29.76216 | 104.34531 | 30180 ft | 539 kts | 5° |
| 2026-05-07 19:14 | 29.83631 | 104.35801 | 30183 ft | 538 kts | 5° |
| 2026-05-07 19:15 | 29.91032 | 104.37069 | 30184 ft | 537 kts | 5° |
| 2026-05-07 19:15 | 29.98414 | 104.38336 | 30182 ft | 536 kts | 5° |
| 2026-05-07 19:16 | 30.05789 | 104.39601 | 30166 ft | 536 kts | 5° |
| 2026-05-07 19:16 | 30.13167 | 104.40874 | 30155 ft | 536 kts | 5° |
| 2026-05-07 19:17 | 30.20549 | 104.42156 | 30161 ft | 536 kts | 6° |
| 2026-05-07 19:17 | 30.27926 | 104.43447 | 30155 ft | 536 kts | 6° |
| 2026-05-07 19:18 | 30.35299 | 104.44740 | 30158 ft | 536 kts | 5° |
| 2026-05-07 19:18 | 30.42653 | 104.46041 | 30160 ft | 534 kts | 6° |
| 2026-05-07 19:19 | 30.50003 | 104.47318 | 30162 ft | 535 kts | 5° |
| 2026-05-07 19:19 | 30.57379 | 104.48399 | 30151 ft | 532 kts | 358° |
| 2026-05-07 19:20 | 30.64686 | 104.47628 | 30176 ft | 525 kts | 345° |
| 2026-05-07 19:20 | 30.71612 | 104.45123 | 30166 ft | 521 kts | 337° |
| 2026-05-07 19:21 | 30.78468 | 104.42355 | 30167 ft | 522 kts | 338° |
| 2026-05-07 19:21 | 30.85416 | 104.39886 | 30171 ft | 524 kts | 345° |
| 2026-05-07 19:22 | 30.92660 | 104.38714 | 30175 ft | 529 kts | 355° |
| 2026-05-07 19:22 | 31.00027 | 104.38583 | 30174 ft | 529 kts | 356° |
| 2026-05-07 19:23 | 31.07389 | 104.38466 | 30177 ft | 530 kts | 356° |
| 2026-05-07 19:23 | 31.14739 | 104.38288 | 30174 ft | 527 kts | 355° |
| 2026-05-07 19:24 | 31.22073 | 104.38073 | 30176 ft | 527 kts | 356° |
| 2026-05-07 19:24 | 31.29400 | 104.37820 | 30177 ft | 526 kts | 355° |
| 2026-05-07 19:25 | 31.36711 | 104.37372 | 30176 ft | 526 kts | 354° |
| 2026-05-07 19:25 | 31.44013 | 104.36907 | 30175 ft | 526 kts | 354° |
| 2026-05-07 19:26 | 31.51315 | 104.36475 | 30175 ft | 525 kts | 355° |
| 2026-05-07 19:26 | 31.58619 | 104.36056 | 30175 ft | 526 kts | 355° |
| 2026-05-07 19:27 | 31.65922 | 104.35635 | 30179 ft | 525 kts | 355° |
| 2026-05-07 19:27 | 31.73224 | 104.35208 | 30174 ft | 525 kts | 354° |
| 2026-05-07 19:28 | 31.80518 | 104.34795 | 30174 ft | 525 kts | 355° |
| 2026-05-07 19:28 | 31.87815 | 104.34428 | 30182 ft | 524 kts | 355° |
| 2026-05-07 19:29 | 31.95108 | 104.34063 | 30186 ft | 525 kts | 355° |
| 2026-05-07 19:29 | 32.02403 | 104.33690 | 30185 ft | 525 kts | 355° |
| 2026-05-07 19:30 | 32.09704 | 104.33312 | 30183 ft | 525 kts | 355° |
| 2026-05-07 19:30 | 32.17000 | 104.32940 | 30176 ft | 524 kts | 355° |
| 2026-05-07 19:31 | 32.24283 | 104.32565 | 30182 ft | 524 kts | 355° |
| 2026-05-07 19:31 | 32.31562 | 104.32190 | 30183 ft | 523 kts | 355° |
| 2026-05-07 19:32 | 32.38836 | 104.31812 | 30185 ft | 523 kts | 355° |
| 2026-05-07 19:32 | 32.44881 | 104.31504 | 30193 ft | 524 kts | 355° |
| 2026-05-07 19:33 | 32.52166 | 104.31139 | 30183 ft | 524 kts | 355° |
| 2026-05-07 19:33 | 32.59453 | 104.30771 | 30190 ft | 524 kts | 355° |
| 2026-05-07 19:34 | 32.66751 | 104.30420 | 30190 ft | 525 kts | 355° |
| 2026-05-07 19:34 | 32.74071 | 104.30067 | 30183 ft | 526 kts | 355° |
| 2026-05-07 19:35 | 32.81383 | 104.29722 | 30184 ft | 525 kts | 355° |
| 2026-05-07 19:35 | 32.88671 | 104.29373 | 30186 ft | 523 kts | 355° |
| 2026-05-07 19:36 | 32.95938 | 104.29023 | 30194 ft | 522 kts | 355° |
| 2026-05-07 19:36 | 33.03206 | 104.28674 | 30190 ft | 523 kts | 355° |
| 2026-05-07 19:37 | 33.10480 | 104.28324 | 30190 ft | 523 kts | 355° |
| 2026-05-07 19:37 | 33.17749 | 104.27971 | 30206 ft | 523 kts | 355° |
| 2026-05-07 19:38 | 33.25034 | 104.27617 | 30205 ft | 524 kts | 355° |
| 2026-05-07 19:38 | 33.32309 | 104.27070 | 30185 ft | 523 kts | 348° |
| 2026-05-07 19:39 | 33.39240 | 104.24651 | 30205 ft | 518 kts | 335° |
| 2026-05-07 19:39 | 33.45520 | 104.20523 | 30212 ft | 515 kts | 327° |
| 2026-05-07 19:40 | 33.51701 | 104.16175 | 30212 ft | 515 kts | 328° |
| 2026-05-07 19:40 | 33.58185 | 104.12497 | 30212 ft | 520 kts | 341° |
| 2026-05-07 19:41 | 33.65319 | 104.10993 | 30209 ft | 524 kts | 357° |
| 2026-05-07 19:41 | 33.72623 | 104.11051 | 30216 ft | 525 kts | 359° |
| 2026-05-07 19:42 | 33.79940 | 104.11163 | 30215 ft | 526 kts | 359° |
| 2026-05-07 19:42 | 33.87270 | 104.11205 | 30225 ft | 527 kts | 358° |
| 2026-05-07 19:43 | 33.94607 | 104.11205 | 30216 ft | 527 kts | 358° |
| 2026-05-07 19:43 | 34.01928 | 104.11198 | 30210 ft | 526 kts | 358° |
| 2026-05-07 19:44 | 34.09236 | 104.11193 | 30222 ft | 525 kts | 358° |
| 2026-05-07 19:44 | 34.16525 | 104.11196 | 30217 ft | 523 kts | 358° |
| 2026-05-07 19:45 | 34.23815 | 104.11198 | 30221 ft | 524 kts | 358° |
| 2026-05-07 19:45 | 34.31096 | 104.11200 | 30225 ft | 523 kts | 358° |
| 2026-05-07 19:46 | 34.38384 | 104.11199 | 30226 ft | 524 kts | 358° |
| 2026-05-07 19:46 | 34.45675 | 104.11195 | 30228 ft | 524 kts | 358° |
| 2026-05-07 19:47 | 34.52965 | 104.11196 | 30235 ft | 524 kts | 358° |
| 2026-05-07 19:47 | 34.60211 | 104.11202 | 30243 ft | 524 kts | 358° |
| 2026-05-07 19:48 | 34.67506 | 104.11201 | 30232 ft | 524 kts | 358° |
| 2026-05-07 19:48 | 34.74793 | 104.11195 | 30231 ft | 523 kts | 358° |
| 2026-05-07 19:49 | 34.82062 | 104.11196 | 30242 ft | 522 kts | 358° |
| 2026-05-07 19:49 | 34.89329 | 104.11200 | 30237 ft | 522 kts | 358° |
| 2026-05-07 19:50 | 34.96581 | 104.11203 | 30242 ft | 521 kts | 358° |
| 2026-05-07 19:50 | 35.03821 | 104.11195 | 30238 ft | 521 kts | 358° |
| 2026-05-07 19:51 | 35.11062 | 104.11193 | 30261 ft | 520 kts | 358° |
| 2026-05-07 19:51 | 35.18296 | 104.11201 | 30241 ft | 519 kts | 358° |
| 2026-05-07 19:52 | 35.25521 | 104.11200 | 30265 ft | 519 kts | 358° |
| 2026-05-07 19:52 | 35.32751 | 104.11195 | 30252 ft | 520 kts | 357° |
| 2026-05-07 19:53 | 35.39987 | 104.11195 | 30267 ft | 520 kts | 357° |
| 2026-05-07 19:53 | 35.47212 | 104.11203 | 30265 ft | 519 kts | 357° |
| 2026-05-07 19:54 | 35.54434 | 104.11210 | 30252 ft | 519 kts | 358° |
| 2026-05-07 19:54 | 35.61645 | 104.11235 | 30267 ft | 518 kts | 358° |
| 2026-05-07 19:55 | 35.68802 | 104.11257 | 30253 ft | 517 kts | 358° |
| 2026-05-07 19:55 | 35.75991 | 104.11278 | 30253 ft | 517 kts | 357° |
| 2026-05-07 19:56 | 35.83184 | 104.11285 | 30264 ft | 516 kts | 356° |
| 2026-05-07 19:56 | 35.90330 | 104.10667 | 30273 ft | 514 kts | 352° |
| 2026-05-07 19:57 | 35.97451 | 104.09769 | 30274 ft | 515 kts | 352° |
| 2026-05-07 19:57 | 36.04587 | 104.08940 | 30269 ft | 515 kts | 352° |
| 2026-05-07 19:58 | 36.11726 | 104.08164 | 30269 ft | 515 kts | 352° |
| 2026-05-07 19:58 | 36.18872 | 104.07395 | 30267 ft | 516 kts | 352° |
| 2026-05-07 19:59 | 36.26021 | 104.06613 | 30265 ft | 516 kts | 352° |
| 2026-05-07 19:59 | 36.33158 | 104.05826 | 30268 ft | 515 kts | 352° |
| 2026-05-07 20:00 | 36.40293 | 104.05042 | 30265 ft | 514 kts | 352° |
| 2026-05-07 20:00 | 36.47417 | 104.04263 | 30268 ft | 513 kts | 352° |
| 2026-05-07 20:01 | 36.54527 | 104.03480 | 30259 ft | 511 kts | 351° |
| 2026-05-07 20:01 | 36.57971 | 104.02593 | 30263 ft | 504 kts | 336° |
| 2026-05-07 20:01 | 36.61024 | 104.00547 | 30280 ft | 498 kts | 321° |
| 2026-05-07 20:02 | 36.63578 | 103.97675 | 30268 ft | 495 kts | 309° |
| 2026-05-07 20:02 | 36.65563 | 103.94197 | 30272 ft | 492 kts | 298° |
| 2026-05-07 20:02 | 36.68753 | 103.86637 | 30277 ft | 494 kts | 296° |
| 2026-05-07 20:03 | 36.71934 | 103.79020 | 30271 ft | 496 kts | 297° |
| 2026-05-07 20:03 | 36.75197 | 103.71419 | 30266 ft | 498 kts | 297° |
| 2026-05-07 20:04 | 36.78487 | 103.63822 | 30259 ft | 497 kts | 297° |
| 2026-05-07 20:04 | 36.81767 | 103.56218 | 30273 ft | 497 kts | 297° |
| 2026-05-07 20:05 | 36.85032 | 103.48633 | 30258 ft | 495 kts | 297° |
| 2026-05-07 20:05 | 36.88287 | 103.41060 | 30273 ft | 494 kts | 297° |
| 2026-05-07 20:06 | 36.91531 | 103.33483 | 30266 ft | 494 kts | 297° |
| 2026-05-07 20:06 | 36.94857 | 103.25976 | 30268 ft | 494 kts | 300° |
| 2026-05-07 20:07 | 36.98497 | 103.18758 | 30277 ft | 495 kts | 301° |
| 2026-05-07 20:07 | 37.02194 | 103.11509 | 30265 ft | 494 kts | 301° |
| 2026-05-07 20:08 | 37.05869 | 103.04239 | 30270 ft | 494 kts | 301° |
| 2026-05-07 20:08 | 37.09514 | 102.96963 | 30256 ft | 493 kts | 301° |
| 2026-05-07 20:09 | 37.13150 | 102.89681 | 30271 ft | 493 kts | 301° |
| 2026-05-07 20:10 | 37.18602 | 102.78734 | 30269 ft | 494 kts | 301° |
| 2026-05-07 20:10 | 37.22244 | 102.71421 | 30270 ft | 495 kts | 301° |
| 2026-05-07 20:11 | 37.25883 | 102.64071 | 30267 ft | 496 kts | 301° |
| 2026-05-07 20:11 | 37.29529 | 102.56714 | 30267 ft | 496 kts | 301° |
| 2026-05-07 20:12 | 37.33165 | 102.49344 | 30252 ft | 496 kts | 300° |
| 2026-05-07 20:12 | 37.36104 | 102.41537 | 30249 ft | 495 kts | 290° |
| 2026-05-07 20:13 | 37.38022 | 102.33244 | 30275 ft | 494 kts | 283° |
| 2026-05-07 20:13 | 37.39618 | 102.24860 | 30264 ft | 493 kts | 283° |
| 2026-05-07 20:14 | 37.41247 | 102.16485 | 30260 ft | 493 kts | 284° |
| 2026-05-07 20:14 | 37.42891 | 102.08127 | 30251 ft | 493 kts | 283° |
| 2026-05-07 20:15 | 37.44532 | 101.99748 | 30271 ft | 493 kts | 283° |
| 2026-05-07 20:15 | 37.46146 | 101.91355 | 30250 ft | 494 kts | 283° |
| 2026-05-07 20:16 | 37.47496 | 101.84319 | 30255 ft | 494 kts | 283° |
| 2026-05-07 20:16 | 37.49110 | 101.75918 | 30249 ft | 493 kts | 283° |
| 2026-05-07 20:17 | 37.51090 | 101.67656 | 30258 ft | 494 kts | 291° |
| 2026-05-07 20:17 | 37.54126 | 101.59895 | 30244 ft | 495 kts | 298° |
| 2026-05-07 20:18 | 37.57434 | 101.52292 | 30264 ft | 495 kts | 297° |
| 2026-05-07 20:18 | 37.60705 | 101.44658 | 30253 ft | 495 kts | 297° |
| 2026-05-07 20:19 | 37.63951 | 101.36995 | 30251 ft | 495 kts | 297° |
| 2026-05-07 20:19 | 37.67189 | 101.29318 | 30239 ft | 496 kts | 297° |
| 2026-05-07 20:20 | 37.70435 | 101.21633 | 30235 ft | 496 kts | 297° |
| 2026-05-07 20:20 | 37.73673 | 101.13939 | 30234 ft | 495 kts | 297° |
| 2026-05-07 20:21 | 37.76902 | 101.06241 | 30249 ft | 495 kts | 297° |
| 2026-05-07 20:21 | 37.80124 | 100.98549 | 30246 ft | 495 kts | 297° |
| 2026-05-07 20:22 | 37.83343 | 100.90856 | 30237 ft | 495 kts | 297° |
| 2026-05-07 20:22 | 37.86694 | 100.83253 | 30242 ft | 495 kts | 298° |
| 2026-05-07 20:23 | 37.90113 | 100.75685 | 30241 ft | 496 kts | 299° |
| 2026-05-07 20:23 | 37.93524 | 100.68081 | 30226 ft | 497 kts | 298° |
| 2026-05-07 20:24 | 37.96917 | 100.60448 | 30236 ft | 497 kts | 298° |
| 2026-05-07 20:24 | 38.00301 | 100.52811 | 30229 ft | 496 kts | 298° |
| 2026-05-07 20:25 | 38.03672 | 100.45174 | 30231 ft | 496 kts | 298° |
| 2026-05-07 20:25 | 38.07037 | 100.37533 | 30220 ft | 496 kts | 298° |
| 2026-05-07 20:26 | 38.10399 | 100.29883 | 30212 ft | 496 kts | 298° |
| 2026-05-07 20:26 | 38.13755 | 100.22230 | 30214 ft | 496 kts | 298° |
| 2026-05-07 20:27 | 38.17107 | 100.14566 | 30211 ft | 497 kts | 298° |
| 2026-05-07 20:27 | 38.20460 | 100.06882 | 30213 ft | 497 kts | 298° |
| 2026-05-07 20:28 | 38.23811 | 99.99189 | 30211 ft | 497 kts | 298° |
| 2026-05-07 20:28 | 38.27160 | 99.91475 | 30209 ft | 498 kts | 298° |
| 2026-05-07 20:29 | 38.30503 | 99.83757 | 30208 ft | 497 kts | 298° |
| 2026-05-07 20:29 | 38.33839 | 99.76038 | 30201 ft | 497 kts | 298° |
| 2026-05-07 20:30 | 38.37147 | 99.68363 | 30195 ft | 497 kts | 298° |
| 2026-05-07 20:30 | 38.40470 | 99.60640 | 30194 ft | 497 kts | 298° |
| 2026-05-07 20:31 | 38.43784 | 99.52920 | 30194 ft | 496 kts | 298° |
| 2026-05-07 20:31 | 38.47091 | 99.45196 | 30196 ft | 496 kts | 297° |
| 2026-05-07 20:32 | 38.50386 | 99.37472 | 30197 ft | 495 kts | 297° |
| 2026-05-07 20:32 | 38.53678 | 99.29750 | 30187 ft | 495 kts | 297° |
| 2026-05-07 20:33 | 38.56963 | 99.22021 | 30191 ft | 495 kts | 297° |
| 2026-05-07 20:33 | 38.60240 | 99.14283 | 30192 ft | 495 kts | 297° |
| 2026-05-07 20:34 | 38.63513 | 99.06538 | 30184 ft | 495 kts | 297° |
| 2026-05-07 20:34 | 38.66780 | 98.98790 | 30181 ft | 495 kts | 297° |
| 2026-05-07 20:35 | 38.70048 | 98.91023 | 30177 ft | 496 kts | 297° |
| 2026-05-07 20:35 | 38.73312 | 98.83245 | 30174 ft | 496 kts | 297° |
| 2026-05-07 20:36 | 38.76570 | 98.75464 | 30174 ft | 495 kts | 297° |
| 2026-05-07 20:36 | 38.79820 | 98.67680 | 30171 ft | 495 kts | 297° |
| 2026-05-07 20:37 | 38.83064 | 98.59891 | 30167 ft | 495 kts | 297° |
| 2026-05-07 20:37 | 38.86300 | 98.52103 | 30166 ft | 494 kts | 297° |
| 2026-05-07 20:38 | 38.89532 | 98.44304 | 30162 ft | 495 kts | 297° |
| 2026-05-07 20:38 | 38.92758 | 98.36497 | 30167 ft | 495 kts | 297° |
| 2026-05-07 20:39 | 38.95987 | 98.28665 | 30157 ft | 496 kts | 297° |
| 2026-05-07 20:39 | 38.99210 | 98.20831 | 30157 ft | 496 kts | 296° |
| 2026-05-07 20:40 | 39.02407 | 98.13037 | 30156 ft | 496 kts | 296° |
| 2026-05-07 20:40 | 39.05618 | 98.05188 | 30160 ft | 496 kts | 296° |
| 2026-05-07 20:41 | 39.08829 | 97.97328 | 30153 ft | 496 kts | 296° |
| 2026-05-07 20:41 | 39.12026 | 97.89460 | 30152 ft | 496 kts | 296° |
| 2026-05-07 20:42 | 39.15223 | 97.81593 | 30157 ft | 495 kts | 296° |
| 2026-05-07 20:42 | 39.18415 | 97.73713 | 30149 ft | 497 kts | 296° |
| 2026-05-07 20:43 | 39.21629 | 97.65755 | 30145 ft | 497 kts | 296° |
| 2026-05-07 20:43 | 39.24824 | 97.57846 | 30141 ft | 497 kts | 296° |
| 2026-05-07 20:44 | 39.28026 | 97.49927 | 30140 ft | 498 kts | 296° |
| 2026-05-07 20:44 | 39.31206 | 97.42049 | 30132 ft | 498 kts | 296° |
| 2026-05-07 20:45 | 39.34418 | 97.34048 | 30147 ft | 498 kts | 296° |
| 2026-05-07 20:45 | 39.37584 | 97.26153 | 30133 ft | 498 kts | 296° |
| 2026-05-07 20:46 | 39.40767 | 97.18197 | 30134 ft | 498 kts | 296° |
| 2026-05-07 20:46 | 39.43944 | 97.10226 | 30128 ft | 498 kts | 296° |
| 2026-05-07 20:47 | 39.47118 | 97.02257 | 30128 ft | 498 kts | 296° |
| 2026-05-07 20:47 | 39.50311 | 96.94303 | 30132 ft | 498 kts | 296° |
| 2026-05-07 20:48 | 39.53515 | 96.86335 | 30125 ft | 499 kts | 296° |
| 2026-05-07 20:48 | 39.56712 | 96.78343 | 30119 ft | 500 kts | 295° |
| 2026-05-07 20:49 | 39.59903 | 96.70340 | 30120 ft | 500 kts | 295° |
| 2026-05-07 20:49 | 39.63090 | 96.62330 | 30122 ft | 500 kts | 295° |
| 2026-05-07 20:50 | 39.66268 | 96.54294 | 30121 ft | 500 kts | 295° |
| 2026-05-07 20:50 | 39.69428 | 96.46242 | 30118 ft | 500 kts | 295° |
| 2026-05-07 20:51 | 39.72582 | 96.38185 | 30116 ft | 501 kts | 295° |
| 2026-05-07 20:51 | 39.75739 | 96.30117 | 30116 ft | 501 kts | 295° |
| 2026-05-07 20:52 | 39.78890 | 96.22034 | 30114 ft | 501 kts | 295° |
| 2026-05-07 20:52 | 39.82029 | 96.13935 | 30112 ft | 502 kts | 294° |
| 2026-05-07 20:53 | 39.85176 | 96.05832 | 30113 ft | 502 kts | 294° |
| 2026-05-07 20:53 | 39.88313 | 95.97725 | 30101 ft | 502 kts | 294° |
| 2026-05-07 20:54 | 39.91447 | 95.89598 | 30093 ft | 502 kts | 294° |
| 2026-05-07 20:54 | 39.94567 | 95.81476 | 30094 ft | 502 kts | 294° |
| 2026-05-07 20:55 | 39.97686 | 95.73348 | 30113 ft | 501 kts | 294° |
| 2026-05-07 20:55 | 40.00789 | 95.65226 | 30093 ft | 500 kts | 294° |
| 2026-05-07 20:56 | 40.03891 | 95.57097 | 30101 ft | 501 kts | 294° |
| 2026-05-07 20:56 | 40.06989 | 95.48957 | 30087 ft | 501 kts | 294° |
| 2026-05-07 20:57 | 40.10083 | 95.40805 | 30089 ft | 501 kts | 294° |
| 2026-05-07 20:57 | 40.13168 | 95.32647 | 30090 ft | 501 kts | 294° |
| 2026-05-07 20:58 | 40.16254 | 95.24462 | 30148 ft | 504 kts | 294° |
| 2026-05-07 20:58 | 40.17282 | 95.21738 | 30271 ft | 504 kts | 294° |
| 2026-05-07 20:58 | 40.19344 | 95.16258 | 30648 ft | 501 kts | 294° |
| 2026-05-07 20:58 | 40.20382 | 95.13496 | 30852 ft | 500 kts | 294° |
| 2026-05-07 20:59 | 40.21929 | 95.09434 | 31120 ft | 498 kts | 295° |
| 2026-05-07 20:59 | 40.23480 | 95.05390 | 31359 ft | 497 kts | 295° |
| 2026-05-07 20:59 | 40.25026 | 95.01352 | 31567 ft | 497 kts | 295° |
| 2026-05-07 20:59 | 40.26568 | 94.97308 | 31784 ft | 495 kts | 295° |
| 2026-05-07 21:00 | 40.28102 | 94.93275 | 31936 ft | 495 kts | 295° |
| 2026-05-07 21:00 | 40.31421 | 94.85368 | 32064 ft | 497 kts | 302° |
| 2026-05-07 21:01 | 40.35659 | 94.78180 | 32089 ft | 499 kts | 307° |
| 2026-05-07 21:01 | 40.40024 | 94.71099 | 32084 ft | 498 kts | 307° |
| 2026-05-07 21:02 | 40.44352 | 94.63990 | 32079 ft | 499 kts | 307° |
| 2026-05-07 21:02 | 40.48656 | 94.56848 | 32073 ft | 499 kts | 307° |
| 2026-05-07 21:03 | 40.52953 | 94.49696 | 32074 ft | 498 kts | 306° |
| 2026-05-07 21:03 | 40.57245 | 94.42534 | 32073 ft | 498 kts | 306° |
| 2026-05-07 21:04 | 40.61528 | 94.35375 | 32073 ft | 498 kts | 306° |
| 2026-05-07 21:04 | 40.65807 | 94.28204 | 32076 ft | 498 kts | 306° |
| 2026-05-07 21:05 | 40.70082 | 94.21028 | 32072 ft | 498 kts | 306° |
| 2026-05-07 21:05 | 40.74323 | 94.13886 | 32066 ft | 498 kts | 306° |
| 2026-05-07 21:06 | 40.78589 | 94.06688 | 32064 ft | 498 kts | 306° |
| 2026-05-07 21:06 | 40.82792 | 93.99586 | 32053 ft | 483 kts | 307° |
| 2026-05-07 21:07 | 40.86859 | 93.92692 | 32052 ft | 469 kts | 307° |
| 2026-05-07 21:07 | 40.90808 | 93.85979 | 32050 ft | 457 kts | 307° |
| 2026-05-07 21:08 | 40.94778 | 93.79521 | 32052 ft | 448 kts | 310° |
| 2026-05-07 21:08 | 40.98819 | 93.73359 | 32050 ft | 439 kts | 310° |
| 2026-05-07 21:09 | 41.02783 | 93.67303 | 32052 ft | 431 kts | 310° |
| 2026-05-07 21:09 | 41.06654 | 93.61320 | 32042 ft | 424 kts | 310° |
| 2026-05-07 21:10 | 41.10441 | 93.55424 | 32042 ft | 416 kts | 310° |
| 2026-05-07 21:10 | 41.14160 | 93.49622 | 32042 ft | 409 kts | 310° |
| 2026-05-07 21:11 | 41.17815 | 93.43909 | 32040 ft | 402 kts | 310° |
| 2026-05-07 21:11 | 41.23173 | 93.35505 | 31994 ft | 393 kts | 310° |
| 2026-05-07 21:12 | 41.24938 | 93.32731 | 31867 ft | 394 kts | 310° |
| 2026-05-07 21:12 | 41.26705 | 93.29953 | 31754 ft | 393 kts | 310° |
| 2026-05-07 21:12 | 41.30219 | 93.24425 | 31629 ft | 390 kts | 310° |
| 2026-05-07 21:13 | 41.31970 | 93.21669 | 31520 ft | 390 kts | 310° |
| 2026-05-07 21:13 | 41.33714 | 93.18920 | 31448 ft | 389 kts | 310° |
| 2026-05-07 21:13 | 41.37189 | 93.13426 | 31247 ft | 388 kts | 310° |
| 2026-05-07 21:14 | 41.40650 | 93.07947 | 31121 ft | 385 kts | 310° |
| 2026-05-07 21:14 | 41.42375 | 93.05215 | 31019 ft | 385 kts | 310° |
| 2026-05-07 21:14 | 41.44098 | 93.02484 | 30933 ft | 385 kts | 310° |
| 2026-05-07 21:15 | 41.47530 | 92.97036 | 30780 ft | 383 kts | 310° |
| 2026-05-07 21:15 | 41.50945 | 92.91600 | 30614 ft | 382 kts | 310° |
| 2026-05-07 21:16 | 41.54349 | 92.86168 | 30504 ft | 380 kts | 310° |
| 2026-05-07 21:16 | 41.57750 | 92.80750 | 30320 ft | 380 kts | 310° |
| 2026-05-07 21:17 | 41.61128 | 92.75339 | 30228 ft | 378 kts | 310° |
| 2026-05-07 21:17 | 41.64500 | 92.69931 | 30069 ft | 378 kts | 310° |
| 2026-05-07 21:18 | 41.67860 | 92.64546 | 29970 ft | 377 kts | 310° |
| 2026-05-07 21:18 | 41.71206 | 92.59164 | 29855 ft | 375 kts | 310° |
| 2026-05-07 21:19 | 41.74539 | 92.53792 | 29730 ft | 375 kts | 310° |
| 2026-05-07 21:19 | 41.77861 | 92.48429 | 29639 ft | 373 kts | 310° |
| 2026-05-07 21:20 | 41.81176 | 92.43072 | 29525 ft | 373 kts | 310° |
| 2026-05-07 21:20 | 41.84472 | 92.37731 | 29410 ft | 372 kts | 311° |
| 2026-05-07 21:21 | 41.87765 | 92.32386 | 29309 ft | 371 kts | 310° |
| 2026-05-07 21:21 | 41.91020 | 92.27096 | 29229 ft | 370 kts | 311° |
| 2026-05-07 21:22 | 41.94289 | 92.21770 | 29107 ft | 369 kts | 310° |
| 2026-05-07 21:22 | 41.97553 | 92.16447 | 29021 ft | 369 kts | 311° |
| 2026-05-07 21:23 | 42.00803 | 92.11138 | 28946 ft | 368 kts | 310° |
| 2026-05-07 21:23 | 42.04047 | 92.05828 | 28853 ft | 367 kts | 310° |
| 2026-05-07 21:24 | 42.07277 | 92.00523 | 28777 ft | 366 kts | 310° |
| 2026-05-07 21:24 | 42.10502 | 91.95229 | 28684 ft | 365 kts | 310° |
| 2026-05-07 21:25 | 42.13721 | 91.89931 | 28600 ft | 365 kts | 310° |
| 2026-05-07 21:25 | 42.16927 | 91.84642 | 28508 ft | 364 kts | 310° |
| 2026-05-07 21:26 | 42.20124 | 91.79363 | 28463 ft | 363 kts | 310° |
| 2026-05-07 21:26 | 42.23349 | 91.74124 | 28377 ft | 362 kts | 315° |
| 2026-05-07 21:27 | 42.26994 | 91.69415 | 28304 ft | 361 kts | 318° |
| 2026-05-07 21:27 | 42.30654 | 91.64799 | 28242 ft | 360 kts | 318° |
| 2026-05-07 21:28 | 42.34304 | 91.60163 | 28168 ft | 360 kts | 317° |
| 2026-05-07 21:28 | 42.37933 | 91.55520 | 28128 ft | 359 kts | 317° |
| 2026-05-07 21:29 | 42.41559 | 91.50876 | 28049 ft | 359 kts | 317° |
| 2026-05-07 21:29 | 42.45174 | 91.46231 | 27983 ft | 358 kts | 317° |
| 2026-05-07 21:30 | 42.46978 | 91.43911 | 27938 ft | 358 kts | 317° |
| 2026-05-07 21:30 | 42.48781 | 91.41591 | 27927 ft | 357 kts | 317° |
| 2026-05-07 21:30 | 42.50580 | 91.39270 | 27898 ft | 357 kts | 317° |
| 2026-05-07 21:30 | 42.52379 | 91.36950 | 27872 ft | 356 kts | 317° |
| 2026-05-07 21:31 | 42.54170 | 91.34636 | 27847 ft | 356 kts | 317° |
| 2026-05-07 21:31 | 42.55965 | 91.32318 | 27814 ft | 356 kts | 317° |
| 2026-05-07 21:31 | 42.57756 | 91.30002 | 27772 ft | 356 kts | 317° |
| 2026-05-07 21:31 | 42.59549 | 91.27679 | 27729 ft | 356 kts | 317° |
| 2026-05-07 21:32 | 42.61335 | 91.25363 | 27721 ft | 356 kts | 317° |
| 2026-05-07 21:32 | 42.63125 | 91.23043 | 27700 ft | 355 kts | 317° |
| 2026-05-07 21:32 | 42.64912 | 91.20723 | 27677 ft | 355 kts | 317° |
| 2026-05-07 21:32 | 42.66695 | 91.18409 | 27661 ft | 355 kts | 317° |
| 2026-05-07 21:33 | 42.68477 | 91.16092 | 27629 ft | 354 kts | 317° |
| 2026-05-07 21:33 | 42.70258 | 91.13774 | 27596 ft | 354 kts | 317° |
| 2026-05-07 21:33 | 42.72038 | 91.11456 | 27569 ft | 354 kts | 317° |
| 2026-05-07 21:33 | 42.73816 | 91.09137 | 27541 ft | 354 kts | 317° |
| 2026-05-07 21:34 | 42.75594 | 91.06820 | 27510 ft | 354 kts | 317° |
| 2026-05-07 21:34 | 42.77368 | 91.04504 | 27498 ft | 353 kts | 317° |
| 2026-05-07 21:34 | 42.79138 | 91.02192 | 27458 ft | 353 kts | 317° |
| 2026-05-07 21:34 | 42.80907 | 90.99879 | 27448 ft | 352 kts | 317° |
| 2026-05-07 21:35 | 42.82677 | 90.97563 | 27406 ft | 353 kts | 316° |
| 2026-05-07 21:35 | 42.84444 | 90.95247 | 27389 ft | 352 kts | 317° |
| 2026-05-07 21:35 | 42.86213 | 90.92931 | 27358 ft | 353 kts | 317° |
| 2026-05-07 21:35 | 42.87962 | 90.90594 | 27339 ft | 352 kts | 313° |
| 2026-05-07 21:36 | 42.89533 | 90.88010 | 27270 ft | 354 kts | 306° |
| 2026-05-07 21:36 | 42.90879 | 90.85187 | 27215 ft | 355 kts | 303° |
| 2026-05-07 21:36 | 42.92168 | 90.82337 | 27269 ft | 352 kts | 302° |
| 2026-05-07 21:36 | 42.93448 | 90.79495 | 27267 ft | 352 kts | 302° |
| 2026-05-07 21:37 | 42.94731 | 90.76649 | 27207 ft | 353 kts | 302° |
| 2026-05-07 21:37 | 42.96017 | 90.73799 | 27185 ft | 352 kts | 303° |
| 2026-05-07 21:37 | 42.97304 | 90.70956 | 27169 ft | 352 kts | 303° |
| 2026-05-07 21:37 | 42.98589 | 90.68115 | 27157 ft | 352 kts | 302° |
| 2026-05-07 21:38 | 42.99872 | 90.65275 | 27150 ft | 351 kts | 302° |
| 2026-05-07 21:38 | 43.01155 | 90.62435 | 27120 ft | 351 kts | 302° |
| 2026-05-07 21:38 | 43.02439 | 90.59595 | 27087 ft | 351 kts | 302° |
| 2026-05-07 21:38 | 43.03720 | 90.56758 | 27083 ft | 351 kts | 303° |
| 2026-05-07 21:39 | 43.05004 | 90.53918 | 27052 ft | 351 kts | 302° |
| 2026-05-07 21:39 | 43.05851 | 90.52036 | 27046 ft | 351 kts | 302° |
| 2026-05-07 21:39 | 43.07129 | 90.49195 | 27035 ft | 350 kts | 302° |
| 2026-05-07 21:39 | 43.08838 | 90.45402 | 27023 ft | 350 kts | 302° |
| 2026-05-07 21:40 | 43.10111 | 90.42562 | 27004 ft | 349 kts | 302° |
| 2026-05-07 21:40 | 43.10954 | 90.40685 | 26977 ft | 350 kts | 302° |
| 2026-05-07 21:40 | 43.12230 | 90.37844 | 26936 ft | 350 kts | 302° |
| 2026-05-07 21:40 | 43.13502 | 90.35009 | 26940 ft | 349 kts | 302° |
| 2026-05-07 21:41 | 43.14773 | 90.32173 | 26929 ft | 349 kts | 302° |
| 2026-05-07 21:41 | 43.16042 | 90.29335 | 26898 ft | 350 kts | 302° |
| 2026-05-07 21:41 | 43.17309 | 90.26499 | 26892 ft | 349 kts | 302° |
| 2026-05-07 21:41 | 43.18577 | 90.23662 | 26887 ft | 349 kts | 302° |
| 2026-05-07 21:42 | 43.19842 | 90.20827 | 26850 ft | 349 kts | 302° |
| 2026-05-07 21:42 | 43.21105 | 90.17992 | 26838 ft | 348 kts | 302° |
| 2026-05-07 21:42 | 43.22366 | 90.15163 | 26820 ft | 348 kts | 302° |
| 2026-05-07 21:42 | 43.23632 | 90.12327 | 26796 ft | 348 kts | 302° |
| 2026-05-07 21:43 | 43.24896 | 90.09495 | 26788 ft | 348 kts | 302° |
| 2026-05-07 21:43 | 43.26156 | 90.06666 | 26781 ft | 347 kts | 302° |
| 2026-05-07 21:43 | 43.27417 | 90.03836 | 26768 ft | 347 kts | 302° |
| 2026-05-07 21:43 | 43.28674 | 90.01007 | 26749 ft | 347 kts | 302° |
| 2026-05-07 21:44 | 43.29931 | 89.98178 | 26734 ft | 347 kts | 302° |
| 2026-05-07 21:44 | 43.31190 | 89.95341 | 26703 ft | 348 kts | 302° |
| 2026-05-07 21:44 | 43.32447 | 89.92502 | 26684 ft | 348 kts | 302° |
| 2026-05-07 21:44 | 43.33704 | 89.89666 | 26709 ft | 347 kts | 302° |
| 2026-05-07 21:45 | 43.34957 | 89.86833 | 26697 ft | 347 kts | 302° |
| 2026-05-07 21:45 | 43.36212 | 89.83992 | 26656 ft | 347 kts | 302° |
| 2026-05-07 21:45 | 43.37466 | 89.81151 | 26643 ft | 347 kts | 302° |
| 2026-05-07 21:45 | 43.38716 | 89.78318 | 26648 ft | 346 kts | 302° |
| 2026-05-07 21:46 | 43.39965 | 89.75484 | 26615 ft | 347 kts | 302° |
| 2026-05-07 21:46 | 43.41212 | 89.72648 | 26614 ft | 347 kts | 302° |
| 2026-05-07 21:46 | 43.42460 | 89.69807 | 26569 ft | 347 kts | 302° |
| 2026-05-07 21:46 | 43.43709 | 89.66970 | 26582 ft | 346 kts | 302° |
| 2026-05-07 21:47 | 43.44954 | 89.64133 | 26581 ft | 346 kts | 302° |
| 2026-05-07 21:47 | 43.46199 | 89.61295 | 26571 ft | 347 kts | 302° |
| 2026-05-07 21:47 | 43.47443 | 89.58454 | 26569 ft | 346 kts | 302° |
| 2026-05-07 21:47 | 43.48685 | 89.55611 | 26559 ft | 346 kts | 302° |
| 2026-05-07 21:48 | 43.49927 | 89.52771 | 26553 ft | 346 kts | 302° |
| 2026-05-07 21:48 | 43.51169 | 89.49934 | 26563 ft | 346 kts | 302° |
| 2026-05-07 21:48 | 43.52407 | 89.47095 | 26554 ft | 346 kts | 302° |
| 2026-05-07 21:48 | 43.53647 | 89.44249 | 26528 ft | 346 kts | 301° |
| 2026-05-07 21:49 | 43.54886 | 89.41404 | 26528 ft | 346 kts | 302° |
| 2026-05-07 21:49 | 43.56126 | 89.38564 | 26530 ft | 346 kts | 302° |
| 2026-05-07 21:49 | 43.57379 | 89.35732 | 26513 ft | 346 kts | 302° |
| 2026-05-07 21:49 | 43.58643 | 89.32905 | 26509 ft | 346 kts | 302° |
| 2026-05-07 21:50 | 43.59906 | 89.30080 | 26511 ft | 346 kts | 302° |
| 2026-05-07 21:50 | 43.61167 | 89.27254 | 26512 ft | 346 kts | 302° |
| 2026-05-07 21:50 | 43.62427 | 89.24427 | 26512 ft | 346 kts | 302° |
| 2026-05-07 21:50 | 43.63690 | 89.21592 | 26491 ft | 346 kts | 302° |
| 2026-05-07 21:51 | 43.64951 | 89.18759 | 26496 ft | 346 kts | 302° |
| 2026-05-07 21:51 | 43.66209 | 89.15926 | 26499 ft | 346 kts | 302° |
| 2026-05-07 21:51 | 43.67468 | 89.13085 | 26499 ft | 346 kts | 302° |
| 2026-05-07 21:51 | 43.68725 | 89.10251 | 26483 ft | 346 kts | 302° |
| 2026-05-07 21:52 | 43.69979 | 89.07412 | 26462 ft | 347 kts | 302° |
| 2026-05-07 21:52 | 43.71233 | 89.04570 | 26481 ft | 346 kts | 302° |
| 2026-05-07 21:52 | 43.72486 | 89.01727 | 26465 ft | 346 kts | 302° |
| 2026-05-07 21:52 | 43.73741 | 88.98881 | 26463 ft | 347 kts | 302° |
| 2026-05-07 21:53 | 43.74993 | 88.96039 | 26480 ft | 346 kts | 302° |
| 2026-05-07 21:53 | 43.76243 | 88.93196 | 26449 ft | 347 kts | 302° |
| 2026-05-07 21:53 | 43.77498 | 88.90342 | 26431 ft | 347 kts | 302° |
| 2026-05-07 21:53 | 43.78749 | 88.87498 | 26453 ft | 346 kts | 302° |
| 2026-05-07 21:54 | 43.79996 | 88.84650 | 26442 ft | 347 kts | 302° |
| 2026-05-07 21:54 | 43.81249 | 88.81794 | 26414 ft | 347 kts | 302° |
| 2026-05-07 21:54 | 43.82499 | 88.78939 | 26435 ft | 347 kts | 301° |
| 2026-05-07 21:54 | 43.83747 | 88.76086 | 26445 ft | 346 kts | 301° |
| 2026-05-07 21:55 | 43.84995 | 88.73230 | 26405 ft | 347 kts | 301° |
| 2026-05-07 21:55 | 43.86245 | 88.70371 | 26414 ft | 347 kts | 301° |
| 2026-05-07 21:55 | 43.87491 | 88.67514 | 26411 ft | 346 kts | 301° |
| 2026-05-07 21:55 | 43.88735 | 88.64657 | 26405 ft | 346 kts | 301° |
| 2026-05-07 21:56 | 43.89977 | 88.61799 | 26392 ft | 346 kts | 301° |
| 2026-05-07 21:56 | 43.91220 | 88.58940 | 26398 ft | 346 kts | 301° |
| 2026-05-07 21:56 | 43.92463 | 88.56081 | 26406 ft | 346 kts | 301° |
| 2026-05-07 21:56 | 43.93703 | 88.53223 | 26405 ft | 346 kts | 301° |
| 2026-05-07 21:57 | 43.94942 | 88.50363 | 26399 ft | 346 kts | 301° |
| 2026-05-07 21:57 | 43.96184 | 88.47499 | 26398 ft | 346 kts | 301° |
| 2026-05-07 21:57 | 43.97424 | 88.44636 | 26392 ft | 346 kts | 301° |
| 2026-05-07 21:57 | 43.98665 | 88.41770 | 26395 ft | 346 kts | 301° |
| 2026-05-07 21:58 | 43.99901 | 88.38901 | 26392 ft | 347 kts | 301° |
| 2026-05-07 21:58 | 44.01140 | 88.36030 | 26394 ft | 346 kts | 301° |
| 2026-05-07 21:58 | 44.02375 | 88.33167 | 26450 ft | 345 kts | 301° |
| 2026-05-07 21:58 | 44.03608 | 88.30302 | 26404 ft | 346 kts | 301° |
| 2026-05-07 21:59 | 44.04844 | 88.27427 | 26382 ft | 346 kts | 301° |
| 2026-05-07 21:59 | 44.06080 | 88.24556 | 26395 ft | 346 kts | 301° |
| 2026-05-07 21:59 | 44.07311 | 88.21687 | 26413 ft | 345 kts | 301° |
| 2026-05-07 21:59 | 44.08541 | 88.18815 | 26405 ft | 346 kts | 301° |
| 2026-05-07 22:00 | 44.09770 | 88.15943 | 26407 ft | 345 kts | 301° |
| 2026-05-07 22:00 | 44.11000 | 88.13067 | 26383 ft | 346 kts | 301° |
| 2026-05-07 22:00 | 44.12233 | 88.10187 | 26373 ft | 346 kts | 301° |
| 2026-05-07 22:00 | 44.13462 | 88.07309 | 26391 ft | 346 kts | 301° |
| 2026-05-07 22:01 | 44.14690 | 88.04432 | 26396 ft | 346 kts | 301° |
| 2026-05-07 22:01 | 44.15918 | 88.01554 | 26377 ft | 346 kts | 301° |
| 2026-05-07 22:01 | 44.17151 | 87.98672 | 26381 ft | 346 kts | 302° |
| 2026-05-07 22:01 | 44.18509 | 87.95905 | 26341 ft | 347 kts | 307° |
| 2026-05-07 22:02 | 44.19964 | 87.93224 | 26360 ft | 346 kts | 308° |
| 2026-05-07 22:02 | 44.21432 | 87.90576 | 26391 ft | 345 kts | 308° |
| 2026-05-07 22:02 | 44.22898 | 87.87922 | 26381 ft | 345 kts | 307° |
| 2026-05-07 22:02 | 44.24356 | 87.85259 | 26369 ft | 346 kts | 307° |
| 2026-05-07 22:03 | 44.25807 | 87.82589 | 26397 ft | 344 kts | 307° |
| 2026-05-07 22:03 | 44.27252 | 87.79925 | 26376 ft | 344 kts | 307° |
| 2026-05-07 22:03 | 44.28694 | 87.77250 | 26334 ft | 346 kts | 307° |
| 2026-05-07 22:03 | 44.30136 | 87.74570 | 26347 ft | 345 kts | 307° |
| 2026-05-07 22:04 | 44.31575 | 87.71895 | 26369 ft | 344 kts | 307° |
| 2026-05-07 22:04 | 44.33015 | 87.69219 | 26358 ft | 345 kts | 307° |
| 2026-05-07 22:04 | 44.34464 | 87.66551 | 26356 ft | 345 kts | 307° |
| 2026-05-07 22:04 | 44.35925 | 87.63898 | 26368 ft | 344 kts | 307° |
| 2026-05-07 22:05 | 44.37387 | 87.61249 | 26369 ft | 344 kts | 307° |
| 2026-05-07 22:05 | 44.38846 | 87.58600 | 26359 ft | 344 kts | 307° |
| 2026-05-07 22:05 | 44.40308 | 87.55948 | 26360 ft | 344 kts | 307° |
| 2026-05-07 22:05 | 44.41767 | 87.53296 | 26353 ft | 344 kts | 307° |
| 2026-05-07 22:06 | 44.43224 | 87.50640 | 26347 ft | 344 kts | 307° |
| 2026-05-07 22:06 | 44.44682 | 87.47979 | 26357 ft | 344 kts | 307° |
| 2026-05-07 22:06 | 44.46135 | 87.45321 | 26363 ft | 344 kts | 307° |
| 2026-05-07 22:06 | 44.47590 | 87.42661 | 26367 ft | 344 kts | 307° |
| 2026-05-07 22:07 | 44.49045 | 87.40002 | 26363 ft | 344 kts | 307° |
| 2026-05-07 22:07 | 44.50496 | 87.37341 | 26376 ft | 344 kts | 307° |
| 2026-05-07 22:07 | 44.51946 | 87.34683 | 26389 ft | 344 kts | 307° |
| 2026-05-07 22:07 | 44.53398 | 87.32018 | 26389 ft | 344 kts | 307° |
| 2026-05-07 22:08 | 44.54828 | 87.29390 | 26408 ft | 344 kts | 307° |
| 2026-05-07 22:08 | 44.56298 | 87.26744 | 26404 ft | 344 kts | 308° |
| 2026-05-07 22:08 | 44.57807 | 87.24140 | 26393 ft | 344 kts | 309° |
| 2026-05-07 22:08 | 44.59324 | 87.21547 | 26394 ft | 344 kts | 309° |
| 2026-05-07 22:09 | 44.60839 | 87.18956 | 26415 ft | 343 kts | 309° |
| 2026-05-07 22:09 | 44.62351 | 87.16360 | 26409 ft | 344 kts | 309° |
| 2026-05-07 22:09 | 44.63862 | 87.13756 | 26408 ft | 344 kts | 309° |
| 2026-05-07 22:09 | 44.65372 | 87.11148 | 26412 ft | 344 kts | 309° |
| 2026-05-07 22:10 | 44.66877 | 87.08545 | 26451 ft | 343 kts | 309° |
| 2026-05-07 22:10 | 44.68378 | 87.05939 | 26449 ft | 344 kts | 309° |
| 2026-05-07 22:10 | 44.69880 | 87.03330 | 26444 ft | 344 kts | 309° |
| 2026-05-07 22:10 | 44.71387 | 87.00719 | 26454 ft | 343 kts | 308° |
| 2026-05-07 22:11 | 44.72890 | 86.98110 | 26458 ft | 343 kts | 308° |
| 2026-05-07 22:11 | 44.74394 | 86.95501 | 26454 ft | 344 kts | 308° |
| 2026-05-07 22:11 | 44.75900 | 86.92890 | 26453 ft | 344 kts | 309° |
| 2026-05-07 22:11 | 44.77403 | 86.90273 | 26463 ft | 343 kts | 308° |
| 2026-05-07 22:12 | 44.78905 | 86.87662 | 26467 ft | 343 kts | 308° |
| 2026-05-07 22:12 | 44.80408 | 86.85047 | 26462 ft | 343 kts | 308° |
| 2026-05-07 22:12 | 44.81910 | 86.82433 | 26461 ft | 343 kts | 308° |
| 2026-05-07 22:12 | 44.83411 | 86.79815 | 26466 ft | 343 kts | 308° |
| 2026-05-07 22:13 | 44.84900 | 86.77187 | 26470 ft | 343 kts | 308° |
| 2026-05-07 22:13 | 44.86381 | 86.74553 | 26481 ft | 343 kts | 308° |
| 2026-05-07 22:13 | 44.87862 | 86.71909 | 26490 ft | 343 kts | 308° |
| 2026-05-07 22:13 | 44.89342 | 86.69267 | 26488 ft | 343 kts | 308° |
| 2026-05-07 22:14 | 44.90825 | 86.66625 | 26485 ft | 344 kts | 308° |
| 2026-05-07 22:14 | 44.92305 | 86.63980 | 26501 ft | 343 kts | 308° |
| 2026-05-07 22:14 | 44.93785 | 86.61334 | 26502 ft | 343 kts | 308° |
| 2026-05-07 22:14 | 44.95263 | 86.58687 | 26507 ft | 343 kts | 308° |
| 2026-05-07 22:15 | 44.96739 | 86.56043 | 26525 ft | 343 kts | 308° |
| 2026-05-07 22:15 | 44.98216 | 86.53398 | 26506 ft | 343 kts | 308° |
| 2026-05-07 22:15 | 44.99694 | 86.50751 | 26513 ft | 343 kts | 308° |
| 2026-05-07 22:15 | 45.01169 | 86.48102 | 26546 ft | 343 kts | 308° |
| 2026-05-07 22:16 | 45.02641 | 86.45456 | 26530 ft | 343 kts | 308° |
| 2026-05-07 22:16 | 45.04117 | 86.42803 | 26529 ft | 343 kts | 308° |
| 2026-05-07 22:16 | 45.05592 | 86.40148 | 26547 ft | 343 kts | 308° |
| 2026-05-07 22:16 | 45.07065 | 86.37495 | 26554 ft | 343 kts | 308° |
| 2026-05-07 22:17 | 45.08537 | 86.34839 | 26552 ft | 343 kts | 308° |
| 2026-05-07 22:17 | 45.10011 | 86.32178 | 26562 ft | 343 kts | 308° |
| 2026-05-07 22:17 | 45.11481 | 86.29521 | 26571 ft | 343 kts | 307° |
| 2026-05-07 22:17 | 45.12951 | 86.26864 | 26575 ft | 343 kts | 307° |
| 2026-05-07 22:18 | 45.14419 | 86.24209 | 26582 ft | 343 kts | 307° |
| 2026-05-07 22:18 | 45.17354 | 86.18889 | 26606 ft | 343 kts | 307° |
| 2026-05-07 22:18 | 45.18822 | 86.16230 | 26618 ft | 342 kts | 307° |
| 2026-05-07 22:19 | 45.20289 | 86.13564 | 26635 ft | 343 kts | 307° |
| 2026-05-07 22:19 | 45.21751 | 86.10905 | 26665 ft | 342 kts | 307° |
| 2026-05-07 22:19 | 45.23212 | 86.08244 | 26641 ft | 342 kts | 307° |
| 2026-05-07 22:19 | 45.24678 | 86.05569 | 26635 ft | 343 kts | 307° |
| 2026-05-07 22:20 | 45.26142 | 86.02902 | 26670 ft | 342 kts | 307° |
| 2026-05-07 22:20 | 45.27602 | 86.00238 | 26679 ft | 342 kts | 307° |
| 2026-05-07 22:20 | 45.28570 | 85.98471 | 26673 ft | 342 kts | 307° |
| 2026-05-07 22:20 | 45.30032 | 85.95799 | 26664 ft | 343 kts | 307° |
| 2026-05-07 22:21 | 45.31491 | 85.93129 | 26698 ft | 342 kts | 307° |
| 2026-05-07 22:21 | 45.32950 | 85.90456 | 26708 ft | 342 kts | 307° |
| 2026-05-07 22:21 | 45.34409 | 85.87780 | 26705 ft | 343 kts | 307° |
| 2026-05-07 22:21 | 45.35867 | 85.85102 | 26708 ft | 342 kts | 307° |
| 2026-05-07 22:22 | 45.37325 | 85.82419 | 26712 ft | 342 kts | 307° |
| 2026-05-07 22:22 | 45.38780 | 85.79742 | 26715 ft | 343 kts | 307° |
| 2026-05-07 22:22 | 45.40239 | 85.77063 | 26723 ft | 343 kts | 307° |
| 2026-05-07 22:22 | 45.41696 | 85.74382 | 26731 ft | 342 kts | 307° |
| 2026-05-07 22:23 | 45.43153 | 85.71700 | 26737 ft | 342 kts | 307° |
| 2026-05-07 22:23 | 45.44606 | 85.69015 | 26754 ft | 342 kts | 307° |
| 2026-05-07 22:23 | 45.46060 | 85.66331 | 26748 ft | 342 kts | 307° |
| 2026-05-07 22:23 | 45.47513 | 85.63642 | 26743 ft | 343 kts | 307° |
| 2026-05-07 22:24 | 45.48967 | 85.60950 | 26759 ft | 342 kts | 307° |
| 2026-05-07 22:24 | 45.50415 | 85.58267 | 26784 ft | 341 kts | 307° |
| 2026-05-07 22:24 | 45.51865 | 85.55582 | 26776 ft | 342 kts | 307° |
| 2026-05-07 22:24 | 45.53313 | 85.52893 | 26766 ft | 342 kts | 307° |
| 2026-05-07 22:25 | 45.54762 | 85.50203 | 26774 ft | 342 kts | 307° |
| 2026-05-07 22:25 | 45.56209 | 85.47511 | 26778 ft | 342 kts | 307° |
| 2026-05-07 22:25 | 45.57655 | 85.44819 | 26787 ft | 342 kts | 307° |
| 2026-05-07 22:25 | 45.59102 | 85.42121 | 26792 ft | 342 kts | 307° |
| 2026-05-07 22:26 | 45.60547 | 85.39424 | 26798 ft | 342 kts | 307° |
| 2026-05-07 22:26 | 45.61993 | 85.36724 | 26802 ft | 342 kts | 307° |
| 2026-05-07 22:26 | 45.63438 | 85.34025 | 26794 ft | 342 kts | 307° |
| 2026-05-07 22:26 | 45.64880 | 85.31325 | 26801 ft | 342 kts | 307° |
| 2026-05-07 22:27 | 45.66322 | 85.28625 | 26809 ft | 342 kts | 307° |
| 2026-05-07 22:27 | 45.67764 | 85.25923 | 26816 ft | 342 kts | 307° |
| 2026-05-07 22:27 | 45.69207 | 85.23219 | 26822 ft | 342 kts | 307° |
| 2026-05-07 22:27 | 45.70652 | 85.20509 | 26844 ft | 342 kts | 307° |
| 2026-05-07 22:28 | 45.72101 | 85.17804 | 26871 ft | 342 kts | 307° |
| 2026-05-07 22:28 | 45.73550 | 85.15105 | 26865 ft | 342 kts | 307° |
| 2026-05-07 22:28 | 45.74996 | 85.12403 | 26874 ft | 342 kts | 307° |
| 2026-05-07 22:28 | 45.76441 | 85.09700 | 26889 ft | 342 kts | 307° |
| 2026-05-07 22:29 | 45.77889 | 85.06992 | 26879 ft | 342 kts | 307° |
| 2026-05-07 22:29 | 45.79335 | 85.04283 | 26879 ft | 343 kts | 307° |
| 2026-05-07 22:29 | 45.80781 | 85.01570 | 26892 ft | 342 kts | 307° |
| 2026-05-07 22:29 | 45.82228 | 84.98854 | 26894 ft | 342 kts | 307° |
| 2026-05-07 22:30 | 45.83670 | 84.96140 | 26910 ft | 343 kts | 307° |
| 2026-05-07 22:30 | 45.85116 | 84.93425 | 26920 ft | 342 kts | 307° |
| 2026-05-07 22:30 | 45.86557 | 84.90713 | 26921 ft | 342 kts | 307° |
| 2026-05-07 22:30 | 45.88000 | 84.87987 | 26914 ft | 343 kts | 307° |
| 2026-05-07 22:31 | 45.89442 | 84.85264 | 26932 ft | 342 kts | 307° |
| 2026-05-07 22:31 | 45.90884 | 84.82543 | 26944 ft | 343 kts | 307° |
| 2026-05-07 22:31 | 45.92323 | 84.79820 | 26969 ft | 342 kts | 307° |
| 2026-05-07 22:31 | 45.93762 | 84.77094 | 26986 ft | 342 kts | 307° |
| 2026-05-07 22:32 | 45.95200 | 84.74372 | 26988 ft | 342 kts | 307° |
| 2026-05-07 22:32 | 45.96639 | 84.71647 | 26991 ft | 342 kts | 307° |
| 2026-05-07 22:32 | 45.98075 | 84.68921 | 27010 ft | 342 kts | 307° |
| 2026-05-07 22:32 | 45.99509 | 84.66195 | 27025 ft | 342 kts | 307° |
| 2026-05-07 22:33 | 46.00944 | 84.63467 | 27026 ft | 342 kts | 307° |
| 2026-05-07 22:33 | 46.02379 | 84.60736 | 27061 ft | 341 kts | 307° |
| 2026-05-07 22:33 | 46.03807 | 84.58013 | 27078 ft | 341 kts | 307° |
| 2026-05-07 22:33 | 46.05236 | 84.55288 | 27073 ft | 341 kts | 307° |
| 2026-05-07 22:34 | 46.06648 | 84.52591 | 27076 ft | 342 kts | 307° |
| 2026-05-07 22:34 | 46.08097 | 84.49819 | 27094 ft | 341 kts | 307° |
| 2026-05-07 22:34 | 46.09525 | 84.47087 | 27125 ft | 341 kts | 307° |
| 2026-05-07 22:34 | 46.10953 | 84.44355 | 27122 ft | 342 kts | 307° |
| 2026-05-07 22:35 | 46.12382 | 84.41618 | 27128 ft | 342 kts | 307° |
| 2026-05-07 22:35 | 46.13792 | 84.38913 | 27143 ft | 342 kts | 307° |
| 2026-05-07 22:35 | 46.15216 | 84.36177 | 27167 ft | 341 kts | 307° |
| 2026-05-07 22:35 | 46.16641 | 84.33435 | 27155 ft | 342 kts | 307° |
| 2026-05-07 22:36 | 46.18072 | 84.30684 | 27149 ft | 343 kts | 307° |
| 2026-05-07 22:36 | 46.19497 | 84.27940 | 27180 ft | 342 kts | 307° |
| 2026-05-07 22:36 | 46.20922 | 84.25190 | 27186 ft | 342 kts | 307° |
| 2026-05-07 22:36 | 46.22350 | 84.22435 | 27191 ft | 342 kts | 307° |
| 2026-05-07 22:37 | 46.23776 | 84.19684 | 27200 ft | 342 kts | 307° |
| 2026-05-07 22:37 | 46.25200 | 84.16929 | 27201 ft | 342 kts | 307° |
| 2026-05-07 22:37 | 46.26623 | 84.14174 | 27231 ft | 342 kts | 306° |
| 2026-05-07 22:37 | 46.28043 | 84.11413 | 27232 ft | 342 kts | 306° |
| 2026-05-07 22:38 | 46.29461 | 84.08650 | 27234 ft | 342 kts | 306° |
| 2026-05-07 22:38 | 46.30881 | 84.05879 | 27234 ft | 342 kts | 306° |
| 2026-05-07 22:38 | 46.32295 | 84.03113 | 27244 ft | 342 kts | 306° |
| 2026-05-07 22:38 | 46.33709 | 84.00342 | 27243 ft | 343 kts | 306° |
| 2026-05-07 22:39 | 46.35127 | 83.97565 | 27262 ft | 342 kts | 306° |
| 2026-05-07 22:39 | 46.36540 | 83.94792 | 27290 ft | 342 kts | 306° |
| 2026-05-07 22:39 | 46.37953 | 83.92021 | 27287 ft | 343 kts | 306° |
| 2026-05-07 22:39 | 46.39367 | 83.89242 | 27299 ft | 343 kts | 306° |
| 2026-05-07 22:40 | 46.40780 | 83.86467 | 27321 ft | 342 kts | 306° |
| 2026-05-07 22:40 | 46.42192 | 83.83685 | 27327 ft | 343 kts | 306° |
| 2026-05-07 22:40 | 46.43602 | 83.80906 | 27347 ft | 342 kts | 306° |
| 2026-05-07 22:40 | 46.45012 | 83.78123 | 27356 ft | 342 kts | 306° |
| 2026-05-07 22:41 | 46.46420 | 83.75344 | 27349 ft | 343 kts | 306° |
| 2026-05-07 22:41 | 46.47832 | 83.72557 | 27363 ft | 342 kts | 306° |
| 2026-05-07 22:41 | 46.49239 | 83.69774 | 27387 ft | 342 kts | 306° |
| 2026-05-07 22:41 | 46.50646 | 83.66989 | 27392 ft | 343 kts | 306° |
| 2026-05-07 22:42 | 46.52053 | 83.64201 | 27398 ft | 342 kts | 306° |
| 2026-05-07 22:42 | 46.53458 | 83.61408 | 27397 ft | 342 kts | 306° |
| 2026-05-07 22:42 | 46.54863 | 83.58614 | 27398 ft | 343 kts | 306° |
| 2026-05-07 22:42 | 46.56272 | 83.55819 | 27414 ft | 343 kts | 306° |
| 2026-05-07 22:43 | 46.57676 | 83.53026 | 27428 ft | 342 kts | 306° |
| 2026-05-07 22:43 | 46.59080 | 83.50229 | 27425 ft | 343 kts | 306° |
| 2026-05-07 22:43 | 46.60485 | 83.47426 | 27429 ft | 343 kts | 306° |
| 2026-05-07 22:43 | 46.61887 | 83.44627 | 27469 ft | 342 kts | 306° |
| 2026-05-07 22:44 | 46.63285 | 83.41836 | 27481 ft | 342 kts | 306° |
| 2026-05-07 22:44 | 46.64684 | 83.39038 | 27466 ft | 342 kts | 306° |
| 2026-05-07 22:44 | 46.66071 | 83.36219 | 27483 ft | 342 kts | 304° |
| 2026-05-07 22:44 | 46.67369 | 83.33327 | 27484 ft | 342 kts | 302° |
| 2026-05-07 22:45 | 46.68638 | 83.30389 | 27453 ft | 343 kts | 302° |
| 2026-05-07 22:45 | 46.69899 | 83.27446 | 27502 ft | 342 kts | 302° |
| 2026-05-07 22:45 | 46.71156 | 83.24508 | 27524 ft | 342 kts | 302° |
| 2026-05-07 22:45 | 46.72420 | 83.21564 | 27507 ft | 342 kts | 302° |
| 2026-05-07 22:46 | 46.73686 | 83.18624 | 27513 ft | 342 kts | 302° |
| 2026-05-07 22:46 | 46.74954 | 83.15683 | 27531 ft | 342 kts | 302° |
| 2026-05-07 22:46 | 46.76221 | 83.12745 | 27535 ft | 342 kts | 302° |
| 2026-05-07 22:46 | 46.77489 | 83.09804 | 27539 ft | 342 kts | 302° |
| 2026-05-07 22:47 | 46.78753 | 83.06868 | 27557 ft | 342 kts | 302° |
| 2026-05-07 22:47 | 46.80018 | 83.03927 | 27559 ft | 342 kts | 302° |
| 2026-05-07 22:47 | 46.81284 | 83.00981 | 27559 ft | 343 kts | 302° |
| 2026-05-07 22:47 | 46.82549 | 82.98032 | 27567 ft | 343 kts | 302° |
| 2026-05-07 22:48 | 46.83813 | 82.95082 | 27591 ft | 342 kts | 302° |
| 2026-05-07 22:48 | 46.85070 | 82.92133 | 27601 ft | 342 kts | 300° |
| 2026-05-07 22:48 | 46.86113 | 82.88987 | 27445 ft | 347 kts | 290° |
| 2026-05-07 22:48 | 46.86827 | 82.85626 | 27465 ft | 345 kts | 283° |
| 2026-05-07 22:49 | 46.87250 | 82.82186 | 27574 ft | 342 kts | 279° |
| 2026-05-07 22:49 | 46.87602 | 82.78754 | 27608 ft | 342 kts | 279° |
| 2026-05-07 22:49 | 46.87941 | 82.75307 | 27567 ft | 343 kts | 279° |
| 2026-05-07 22:49 | 46.88280 | 82.71853 | 27570 ft | 344 kts | 279° |
| 2026-05-07 22:50 | 46.88622 | 82.68395 | 27613 ft | 343 kts | 279° |
| 2026-05-07 22:50 | 46.88967 | 82.64950 | 27635 ft | 343 kts | 279° |
| 2026-05-07 22:50 | 46.89315 | 82.61501 | 27631 ft | 343 kts | 279° |
| 2026-05-07 22:50 | 46.89663 | 82.58053 | 27637 ft | 343 kts | 279° |
| 2026-05-07 22:51 | 46.90013 | 82.54598 | 27650 ft | 344 kts | 279° |
| 2026-05-07 22:51 | 46.90362 | 82.51147 | 27670 ft | 343 kts | 279° |
| 2026-05-07 22:51 | 46.90708 | 82.47694 | 27670 ft | 343 kts | 279° |
| 2026-05-07 22:51 | 46.91055 | 82.44240 | 27670 ft | 344 kts | 279° |
| 2026-05-07 22:52 | 46.91399 | 82.40785 | 27695 ft | 343 kts | 279° |
| 2026-05-07 22:52 | 46.91745 | 82.37326 | 27706 ft | 343 kts | 279° |
| 2026-05-07 22:52 | 46.92091 | 82.33871 | 27708 ft | 343 kts | 279° |
| 2026-05-07 22:52 | 46.92434 | 82.30415 | 27700 ft | 344 kts | 279° |
| 2026-05-07 22:53 | 46.92769 | 82.27002 | 27707 ft | 344 kts | 279° |
| 2026-05-07 22:53 | 46.93109 | 82.23545 | 27727 ft | 343 kts | 279° |
| 2026-05-07 22:53 | 46.93448 | 82.20089 | 27748 ft | 343 kts | 279° |
| 2026-05-07 22:53 | 46.93791 | 82.16584 | 27748 ft | 344 kts | 278° |
| 2026-05-07 22:54 | 46.94128 | 82.13121 | 27756 ft | 344 kts | 278° |
| 2026-05-07 22:54 | 46.94465 | 82.09662 | 27766 ft | 343 kts | 278° |
| 2026-05-07 22:54 | 46.94801 | 82.06197 | 27773 ft | 344 kts | 278° |
| 2026-05-07 22:54 | 46.95137 | 82.02737 | 27787 ft | 344 kts | 278° |
| 2026-05-07 22:55 | 46.95471 | 81.99276 | 27805 ft | 344 kts | 278° |
| 2026-05-07 22:55 | 46.95803 | 81.95811 | 27811 ft | 344 kts | 278° |
| 2026-05-07 22:55 | 46.96136 | 81.92345 | 27831 ft | 344 kts | 278° |
| 2026-05-07 22:55 | 46.96461 | 81.88884 | 27839 ft | 343 kts | 278° |
| 2026-05-07 22:56 | 46.96783 | 81.85419 | 27832 ft | 344 kts | 278° |
| 2026-05-07 22:56 | 46.97106 | 81.81949 | 27842 ft | 344 kts | 278° |
| 2026-05-07 22:56 | 46.97427 | 81.78483 | 27868 ft | 343 kts | 278° |
| 2026-05-07 22:56 | 46.97747 | 81.75026 | 27876 ft | 343 kts | 278° |
| 2026-05-07 22:57 | 46.98067 | 81.71559 | 27867 ft | 344 kts | 278° |
| 2026-05-07 22:57 | 46.98381 | 81.68137 | 27865 ft | 344 kts | 278° |
| 2026-05-07 22:57 | 46.98698 | 81.64664 | 27887 ft | 344 kts | 278° |
| 2026-05-07 22:57 | 46.99016 | 81.61192 | 27924 ft | 344 kts | 278° |
| 2026-05-07 22:58 | 46.99330 | 81.57723 | 27936 ft | 344 kts | 278° |
| 2026-05-07 22:58 | 46.99645 | 81.54249 | 27937 ft | 344 kts | 278° |
| 2026-05-07 22:58 | 46.99958 | 81.50779 | 27955 ft | 344 kts | 278° |
| 2026-05-07 22:58 | 47.00271 | 81.47303 | 27967 ft | 344 kts | 278° |
| 2026-05-07 22:59 | 47.00583 | 81.43833 | 27978 ft | 344 kts | 278° |
| 2026-05-07 22:59 | 47.00895 | 81.40359 | 27978 ft | 344 kts | 278° |
| 2026-05-07 22:59 | 47.01204 | 81.36879 | 27990 ft | 344 kts | 278° |
| 2026-05-07 23:00 | 47.01816 | 81.29929 | 28000 ft | 344 kts | 277° |
| 2026-05-07 23:00 | 47.02429 | 81.22978 | 28019 ft | 344 kts | 277° |
| 2026-05-07 23:01 | 47.03038 | 81.16017 | 28037 ft | 344 kts | 277° |
| 2026-05-07 23:01 | 47.03641 | 81.09062 | 28067 ft | 344 kts | 277° |
| 2026-05-07 23:02 | 47.04240 | 81.02098 | 28085 ft | 344 kts | 277° |
| 2026-05-07 23:02 | 47.04838 | 80.95137 | 28103 ft | 344 kts | 277° |
| 2026-05-07 23:03 | 47.05330 | 80.89348 | 28123 ft | 344 kts | 277° |
| 2026-05-07 23:03 | 47.06017 | 80.81213 | 28150 ft | 344 kts | 277° |
| 2026-05-07 23:04 | 47.06503 | 80.75426 | 28167 ft | 344 kts | 277° |
| 2026-05-07 23:04 | 47.07084 | 80.68461 | 28182 ft | 344 kts | 277° |
| 2026-05-07 23:05 | 47.07662 | 80.61494 | 28205 ft | 344 kts | 277° |
| 2026-05-07 23:05 | 47.08234 | 80.54526 | 28221 ft | 344 kts | 277° |
| 2026-05-07 23:06 | 47.08802 | 80.47548 | 28266 ft | 344 kts | 277° |
| 2026-05-07 23:06 | 47.09365 | 80.40569 | 28283 ft | 344 kts | 276° |
| 2026-05-07 23:07 | 47.09927 | 80.33589 | 28282 ft | 344 kts | 276° |
| 2026-05-07 23:07 | 47.10483 | 80.26606 | 28298 ft | 344 kts | 276° |
| 2026-05-07 23:08 | 47.11034 | 80.19626 | 28317 ft | 344 kts | 276° |
| 2026-05-07 23:08 | 47.11582 | 80.12640 | 28334 ft | 344 kts | 276° |
| 2026-05-07 23:09 | 47.12126 | 80.05652 | 28359 ft | 345 kts | 276° |
| 2026-05-07 23:09 | 47.12668 | 79.98612 | 28373 ft | 345 kts | 276° |
| 2026-05-07 23:10 | 47.13199 | 79.91678 | 28419 ft | 344 kts | 276° |
| 2026-05-07 23:10 | 47.13736 | 79.84646 | 28423 ft | 344 kts | 276° |
| 2026-05-07 23:11 | 47.14271 | 79.77703 | 28444 ft | 344 kts | 276° |
| 2026-05-07 23:11 | 47.14802 | 79.70713 | 28465 ft | 344 kts | 276° |
| 2026-05-07 23:12 | 47.15327 | 79.63725 | 28477 ft | 344 kts | 276° |
| 2026-05-07 23:12 | 47.15854 | 79.56732 | 28494 ft | 345 kts | 276° |
| 2026-05-07 23:13 | 47.16381 | 79.49651 | 28273 ft | 358 kts | 276° |
| 2026-05-07 23:13 | 47.16653 | 79.45965 | 28116 ft | 369 kts | 276° |
| 2026-05-07 23:13 | 47.16933 | 79.42156 | 27888 ft | 381 kts | 276° |
| 2026-05-07 23:13 | 47.17218 | 79.38263 | 27915 ft | 385 kts | 276° |
| 2026-05-07 23:14 | 47.17504 | 79.34328 | 27939 ft | 390 kts | 276° |
| 2026-05-07 23:14 | 47.17792 | 79.30352 | 27973 ft | 393 kts | 276° |
| 2026-05-07 23:14 | 47.18083 | 79.26333 | 27998 ft | 397 kts | 276° |
| 2026-05-07 23:15 | 47.18669 | 79.18179 | 28056 ft | 405 kts | 276° |
| 2026-05-07 23:15 | 47.19253 | 79.09877 | 28109 ft | 411 kts | 275° |
| 2026-05-07 23:16 | 47.19836 | 79.01447 | 28154 ft | 417 kts | 275° |
| 2026-05-07 23:16 | 47.20418 | 78.92906 | 28205 ft | 422 kts | 275° |
| 2026-05-07 23:17 | 47.21001 | 78.84266 | 28246 ft | 426 kts | 275° |
| 2026-05-07 23:17 | 47.21582 | 78.75552 | 28277 ft | 430 kts | 275° |
| 2026-05-07 23:18 | 47.22165 | 78.66767 | 28305 ft | 433 kts | 275° |
| 2026-05-07 23:18 | 47.22744 | 78.57927 | 28331 ft | 435 kts | 275° |
| 2026-05-07 23:19 | 47.23319 | 78.49035 | 28351 ft | 438 kts | 275° |
| 2026-05-07 23:19 | 47.23885 | 78.40102 | 28369 ft | 439 kts | 275° |
| 2026-05-07 23:20 | 47.24450 | 78.31138 | 28386 ft | 441 kts | 275° |
| 2026-05-07 23:20 | 47.25011 | 78.22136 | 28399 ft | 442 kts | 275° |
| 2026-05-07 23:21 | 47.25565 | 78.13113 | 28408 ft | 443 kts | 275° |
| 2026-05-07 23:21 | 47.26113 | 78.04059 | 28422 ft | 444 kts | 275° |
| 2026-05-07 23:22 | 47.26655 | 77.94996 | 28442 ft | 445 kts | 275° |
| 2026-05-07 23:22 | 47.27191 | 77.85910 | 28447 ft | 446 kts | 275° |
| 2026-05-07 23:23 | 47.27720 | 77.76811 | 28452 ft | 446 kts | 275° |
| 2026-05-07 23:23 | 47.28241 | 77.67713 | 28460 ft | 445 kts | 275° |
| 2026-05-07 23:24 | 47.28756 | 77.58625 | 28467 ft | 446 kts | 275° |
| 2026-05-07 23:24 | 47.29263 | 77.49525 | 28472 ft | 446 kts | 275° |
| 2026-05-07 23:25 | 47.29765 | 77.40426 | 28483 ft | 446 kts | 275° |
| 2026-05-07 23:25 | 47.30258 | 77.31320 | 28489 ft | 446 kts | 274° |
| 2026-05-07 23:26 | 47.30742 | 77.22208 | 28494 ft | 446 kts | 274° |
| 2026-05-07 23:26 | 47.31223 | 77.13087 | 28502 ft | 446 kts | 274° |
| 2026-05-07 23:27 | 47.32199 | 76.99455 | 28520 ft | 446 kts | 278° |
| 2026-05-07 23:27 | 47.33138 | 76.90423 | 28516 ft | 446 kts | 279° |
| 2026-05-07 23:28 | 47.34074 | 76.81385 | 28536 ft | 446 kts | 278° |
| 2026-05-07 23:28 | 47.34990 | 76.72343 | 28543 ft | 446 kts | 278° |
| 2026-05-07 23:29 | 47.35891 | 76.63295 | 28560 ft | 446 kts | 278° |
| 2026-05-07 23:29 | 47.36781 | 76.54252 | 28574 ft | 446 kts | 278° |
| 2026-05-07 23:30 | 47.37664 | 76.45200 | 28582 ft | 445 kts | 278° |
| 2026-05-07 23:30 | 47.38541 | 76.36150 | 28589 ft | 445 kts | 278° |
| 2026-05-07 23:31 | 47.39410 | 76.27112 | 28598 ft | 445 kts | 278° |
| 2026-05-07 23:31 | 47.40271 | 76.18073 | 28605 ft | 445 kts | 278° |
| 2026-05-07 23:32 | 47.41120 | 76.09091 | 28609 ft | 444 kts | 278° |
| 2026-05-07 23:32 | 47.41966 | 76.00057 | 28619 ft | 444 kts | 278° |
| 2026-05-07 23:33 | 47.42804 | 75.91023 | 28630 ft | 444 kts | 278° |
| 2026-05-07 23:33 | 47.43635 | 75.81999 | 28644 ft | 444 kts | 278° |
| 2026-05-07 23:34 | 47.44460 | 75.72967 | 28650 ft | 443 kts | 278° |
| 2026-05-07 23:34 | 47.45276 | 75.63948 | 28657 ft | 443 kts | 278° |
| 2026-05-07 23:35 | 47.46083 | 75.54919 | 28663 ft | 443 kts | 278° |
| 2026-05-07 23:35 | 47.46884 | 75.45897 | 28665 ft | 443 kts | 278° |
| 2026-05-07 23:36 | 47.47680 | 75.36878 | 28670 ft | 442 kts | 278° |
| 2026-05-07 23:36 | 47.48464 | 75.27864 | 28675 ft | 442 kts | 278° |
| 2026-05-07 23:37 | 47.49243 | 75.18841 | 28680 ft | 442 kts | 278° |
| 2026-05-07 23:37 | 47.50014 | 75.09819 | 28698 ft | 442 kts | 277° |
| 2026-05-07 23:38 | 47.50779 | 75.00789 | 28697 ft | 442 kts | 277° |
| 2026-05-07 23:38 | 47.51537 | 74.91760 | 28712 ft | 442 kts | 277° |
| 2026-05-07 23:39 | 47.52288 | 74.82734 | 28715 ft | 442 kts | 277° |
| 2026-05-07 23:39 | 47.53030 | 74.73703 | 28721 ft | 442 kts | 277° |
| 2026-05-07 23:40 | 47.53765 | 74.64679 | 28730 ft | 442 kts | 277° |
| 2026-05-07 23:40 | 47.54492 | 74.55653 | 28740 ft | 442 kts | 277° |
| 2026-05-07 23:41 | 47.55214 | 74.46628 | 28744 ft | 441 kts | 277° |
| 2026-05-07 23:41 | 47.55928 | 74.37609 | 28754 ft | 441 kts | 277° |
| 2026-05-07 23:42 | 47.56633 | 74.28595 | 28766 ft | 440 kts | 277° |
| 2026-05-07 23:42 | 47.57331 | 74.19590 | 28767 ft | 440 kts | 277° |
| 2026-05-07 23:43 | 47.58022 | 74.10575 | 28779 ft | 440 kts | 277° |
| 2026-05-07 23:43 | 47.58705 | 74.01569 | 28781 ft | 440 kts | 276° |
| 2026-05-07 23:44 | 47.59381 | 73.92562 | 28803 ft | 440 kts | 276° |
| 2026-05-07 23:44 | 47.60048 | 73.83556 | 28805 ft | 439 kts | 276° |
| 2026-05-07 23:45 | 47.60601 | 73.76018 | 28810 ft | 439 kts | 276° |
| 2026-05-07 23:45 | 47.61257 | 73.67023 | 28817 ft | 439 kts | 276° |
| 2026-05-07 23:46 | 47.61908 | 73.58023 | 28826 ft | 439 kts | 276° |
| 2026-05-07 23:46 | 47.62549 | 73.49023 | 28829 ft | 439 kts | 276° |
| 2026-05-07 23:47 | 47.63182 | 73.40022 | 28839 ft | 439 kts | 276° |
| 2026-05-07 23:47 | 47.63808 | 73.31015 | 28852 ft | 439 kts | 276° |
| 2026-05-07 23:48 | 47.64428 | 73.22009 | 28859 ft | 439 kts | 276° |
| 2026-05-07 23:48 | 47.65039 | 73.13004 | 28866 ft | 439 kts | 276° |
| 2026-05-07 23:49 | 47.65643 | 73.03997 | 28873 ft | 439 kts | 276° |
| 2026-05-07 23:49 | 47.66235 | 72.95052 | 28884 ft | 439 kts | 275° |
| 2026-05-07 23:50 | 47.66829 | 72.86041 | 28888 ft | 439 kts | 275° |
| 2026-05-07 23:50 | 47.67415 | 72.77026 | 28897 ft | 439 kts | 275° |
| 2026-05-07 23:51 | 47.67991 | 72.68009 | 28913 ft | 439 kts | 275° |
| 2026-05-07 23:51 | 47.68564 | 72.58942 | 28925 ft | 438 kts | 275° |
| 2026-05-07 23:52 | 47.69124 | 72.49935 | 28941 ft | 438 kts | 275° |
| 2026-05-07 23:52 | 47.69678 | 72.40926 | 28950 ft | 438 kts | 275° |
| 2026-05-07 23:53 | 47.70227 | 72.31924 | 28970 ft | 438 kts | 275° |
| 2026-05-07 23:53 | 47.70764 | 72.22987 | 28973 ft | 438 kts | 275° |
| 2026-05-07 23:54 | 47.71297 | 72.13989 | 28983 ft | 437 kts | 274° |
| 2026-05-07 23:54 | 47.71830 | 72.04945 | 28992 ft | 437 kts | 274° |
| 2026-05-07 23:55 | 47.72338 | 71.96030 | 29004 ft | 436 kts | 274° |
| 2026-05-07 23:55 | 47.72850 | 71.87050 | 29011 ft | 436 kts | 274° |
| 2026-05-07 23:56 | 47.73329 | 71.78011 | 29016 ft | 436 kts | 273° |
| 2026-05-07 23:56 | 47.73699 | 71.69008 | 29021 ft | 436 kts | 272° |
| 2026-05-07 23:57 | 47.74052 | 71.60073 | 29028 ft | 436 kts | 273° |
| 2026-05-07 23:57 | 47.74414 | 71.51068 | 29035 ft | 437 kts | 273° |
| 2026-05-07 23:58 | 47.74771 | 71.42054 | 29040 ft | 437 kts | 272° |
| 2026-05-07 23:58 | 47.75122 | 71.33044 | 29047 ft | 437 kts | 272° |
| 2026-05-07 23:59 | 47.75466 | 71.23967 | 29065 ft | 437 kts | 272° |
| 2026-05-07 23:59 | 47.75805 | 71.15009 | 29072 ft | 437 kts | 272° |
| 2026-05-08 00:00 | 47.76140 | 71.05942 | 29080 ft | 437 kts | 272° |
| 2026-05-08 00:00 | 47.76460 | 70.96985 | 29087 ft | 437 kts | 272° |
| 2026-05-08 00:01 | 47.76775 | 70.87968 | 29099 ft | 437 kts | 272° |
| 2026-05-08 00:01 | 47.77089 | 70.78881 | 29109 ft | 437 kts | 272° |
| 2026-05-08 00:02 | 47.77390 | 70.69864 | 29120 ft | 437 kts | 272° |
| 2026-05-08 00:02 | 47.77687 | 70.60831 | 29134 ft | 438 kts | 272° |
| 2026-05-08 00:03 | 47.77979 | 70.51856 | 29153 ft | 438 kts | 271° |
| 2026-05-08 00:03 | 47.78263 | 70.42761 | 29163 ft | 437 kts | 271° |
| 2026-05-08 00:04 | 47.78536 | 70.33732 | 29176 ft | 437 kts | 271° |
| 2026-05-08 00:04 | 47.78800 | 70.24700 | 29182 ft | 437 kts | 271° |
| 2026-05-08 00:05 | 47.79059 | 70.15728 | 29200 ft | 437 kts | 271° |
| 2026-05-08 00:05 | 47.79314 | 70.06699 | 29212 ft | 436 kts | 271° |
| 2026-05-08 00:06 | 47.79561 | 69.97690 | 29221 ft | 436 kts | 271° |
| 2026-05-08 00:06 | 47.79801 | 69.88618 | 29212 ft | 437 kts | 271° |
| 2026-05-08 00:07 | 47.80033 | 69.79571 | 29227 ft | 439 kts | 270° |
| 2026-05-08 00:07 | 47.80259 | 69.70488 | 29242 ft | 440 kts | 270° |
| 2026-05-08 00:08 | 47.80479 | 69.61384 | 29259 ft | 441 kts | 270° |
| 2026-05-08 00:08 | 47.80691 | 69.52325 | 29274 ft | 442 kts | 270° |
| 2026-05-08 00:09 | 47.80901 | 69.43176 | 29290 ft | 443 kts | 270° |
| 2026-05-08 00:09 | 47.81097 | 69.34026 | 29304 ft | 443 kts | 270° |
| 2026-05-08 00:10 | 47.81290 | 69.24864 | 29315 ft | 443 kts | 270° |
| 2026-05-08 00:10 | 47.81475 | 69.15696 | 29322 ft | 443 kts | 270° |
| 2026-05-08 00:11 | 47.81653 | 69.06526 | 29333 ft | 444 kts | 270° |
| 2026-05-08 00:11 | 47.81823 | 68.97347 | 29340 ft | 444 kts | 270° |
| 2026-05-08 00:12 | 47.81989 | 68.88173 | 29349 ft | 444 kts | 270° |
| 2026-05-08 00:12 | 47.81929 | 68.79006 | 29359 ft | 442 kts | 262° |
| 2026-05-08 00:13 | 47.81081 | 68.69953 | 29370 ft | 442 kts | 260° |
| 2026-05-08 00:13 | 47.80218 | 68.60912 | 29382 ft | 441 kts | 261° |
| 2026-05-08 00:14 | 47.79377 | 68.51871 | 29391 ft | 441 kts | 261° |
| 2026-05-08 00:14 | 47.78536 | 68.42845 | 29398 ft | 441 kts | 261° |
| 2026-05-08 00:15 | 47.77688 | 68.33818 | 29407 ft | 441 kts | 261° |
| 2026-05-08 00:15 | 47.76831 | 68.24794 | 29421 ft | 441 kts | 260° |
| 2026-05-08 00:16 | 47.75968 | 68.15761 | 29426 ft | 441 kts | 260° |
| 2026-05-08 00:16 | 47.75098 | 68.06736 | 29433 ft | 441 kts | 260° |
| 2026-05-08 00:17 | 47.74221 | 67.97720 | 29442 ft | 441 kts | 260° |
| 2026-05-08 00:17 | 47.73339 | 67.88705 | 29451 ft | 441 kts | 260° |
| 2026-05-08 00:18 | 47.72448 | 67.79690 | 29456 ft | 441 kts | 260° |
| 2026-05-08 00:18 | 47.71339 | 67.70749 | 29464 ft | 440 kts | 256° |
| 2026-05-08 00:19 | 47.70010 | 67.61884 | 29471 ft | 440 kts | 256° |
| 2026-05-08 00:19 | 47.68674 | 67.53017 | 29487 ft | 440 kts | 256° |
| 2026-05-08 00:20 | 47.67346 | 67.44153 | 29489 ft | 440 kts | 256° |
| 2026-05-08 00:20 | 47.66016 | 67.35290 | 29498 ft | 440 kts | 256° |
| 2026-05-08 00:21 | 47.64679 | 67.26440 | 29505 ft | 440 kts | 256° |
| 2026-05-08 00:21 | 47.63335 | 67.17582 | 29511 ft | 440 kts | 256° |
| 2026-05-08 00:22 | 47.61987 | 67.08720 | 29519 ft | 441 kts | 255° |
| 2026-05-08 00:22 | 47.60626 | 66.99873 | 29525 ft | 440 kts | 255° |
| 2026-05-08 00:23 | 47.59261 | 66.91034 | 29533 ft | 440 kts | 255° |
| 2026-05-08 00:23 | 47.57890 | 66.82196 | 29542 ft | 440 kts | 255° |
| 2026-05-08 00:24 | 47.56512 | 66.73361 | 29542 ft | 441 kts | 255° |
| 2026-05-08 00:24 | 47.55338 | 66.66021 | 29555 ft | 441 kts | 254° |
| 2026-05-08 00:25 | 47.53877 | 66.57196 | 29566 ft | 441 kts | 254° |
| 2026-05-08 00:25 | 47.52408 | 66.48380 | 29575 ft | 441 kts | 254° |
| 2026-05-08 00:26 | 47.50939 | 66.39559 | 29587 ft | 442 kts | 254° |
| 2026-05-08 00:26 | 47.49465 | 66.30737 | 29594 ft | 442 kts | 254° |
| 2026-05-08 00:27 | 47.47983 | 66.21916 | 29604 ft | 443 kts | 253° |
| 2026-05-08 00:27 | 47.46492 | 66.13088 | 29614 ft | 443 kts | 253° |
| 2026-05-08 00:28 | 47.44998 | 66.04269 | 29622 ft | 443 kts | 253° |
| 2026-05-08 00:28 | 47.43492 | 65.95444 | 29630 ft | 443 kts | 253° |
| 2026-05-08 00:29 | 47.41985 | 65.86638 | 29645 ft | 443 kts | 253° |
| 2026-05-08 00:29 | 47.40492 | 65.77815 | 29653 ft | 443 kts | 254° |
| 2026-05-08 00:30 | 47.39034 | 65.68987 | 29661 ft | 443 kts | 254° |
| 2026-05-08 00:30 | 47.37570 | 65.60174 | 29670 ft | 442 kts | 254° |
| 2026-05-08 00:31 | 47.36094 | 65.51361 | 29679 ft | 442 kts | 254° |
| 2026-05-08 00:31 | 47.34611 | 65.42562 | 29685 ft | 442 kts | 254° |
| 2026-05-08 00:32 | 47.33123 | 65.33778 | 29698 ft | 441 kts | 253° |
| 2026-05-08 00:32 | 47.31631 | 65.25015 | 29703 ft | 441 kts | 253° |
| 2026-05-08 00:33 | 47.30133 | 65.16263 | 29715 ft | 440 kts | 254° |
| 2026-05-08 00:33 | 47.28630 | 65.07518 | 29722 ft | 440 kts | 253° |
| 2026-05-08 00:34 | 47.27121 | 64.98784 | 29727 ft | 440 kts | 253° |
| 2026-05-08 00:34 | 47.25610 | 64.90058 | 29736 ft | 440 kts | 254° |
| 2026-05-08 00:35 | 47.24100 | 64.81329 | 29749 ft | 439 kts | 254° |
| 2026-05-08 00:35 | 47.22585 | 64.72617 | 29759 ft | 439 kts | 253° |
| 2026-05-08 00:36 | 47.21062 | 64.63921 | 29769 ft | 439 kts | 253° |
| 2026-05-08 00:36 | 47.19534 | 64.55227 | 29770 ft | 439 kts | 253° |
| 2026-05-08 00:37 | 47.17999 | 64.46548 | 29780 ft | 438 kts | 253° |
| 2026-05-08 00:38 | 47.15701 | 64.33605 | 29787 ft | 438 kts | 253° |
| 2026-05-08 00:38 | 47.14156 | 64.24956 | 29791 ft | 437 kts | 253° |
| 2026-05-08 00:39 | 47.12603 | 64.16313 | 29798 ft | 437 kts | 253° |
| 2026-05-08 00:39 | 47.11046 | 64.07689 | 29805 ft | 436 kts | 253° |
| 2026-05-08 00:40 | 47.09488 | 63.99084 | 29812 ft | 436 kts | 253° |
| 2026-05-08 00:40 | 47.07923 | 63.90483 | 29818 ft | 436 kts | 253° |
| 2026-05-08 00:41 | 47.06352 | 63.81889 | 29842 ft | 436 kts | 253° |
| 2026-05-08 00:41 | 47.04776 | 63.73306 | 29852 ft | 436 kts | 253° |
| 2026-05-08 00:42 | 47.03192 | 63.64727 | 29859 ft | 436 kts | 253° |
| 2026-05-08 00:42 | 47.01603 | 63.56152 | 29866 ft | 436 kts | 253° |
| 2026-05-08 00:43 | 47.00007 | 63.47585 | 29875 ft | 436 kts | 253° |
| 2026-05-08 00:43 | 46.98404 | 63.39030 | 29885 ft | 436 kts | 253° |
| 2026-05-08 00:44 | 46.96795 | 63.30476 | 29887 ft | 436 kts | 253° |
| 2026-05-08 00:44 | 46.95181 | 63.21927 | 29901 ft | 435 kts | 253° |
| 2026-05-08 00:45 | 46.93560 | 63.13388 | 29913 ft | 435 kts | 253° |
| 2026-05-08 00:45 | 46.91935 | 63.04859 | 29917 ft | 435 kts | 252° |
| 2026-05-08 00:46 | 46.90303 | 62.96334 | 29925 ft | 435 kts | 252° |
| 2026-05-08 00:46 | 46.88665 | 62.87813 | 29933 ft | 435 kts | 252° |
| 2026-05-08 00:47 | 46.87020 | 62.79300 | 29943 ft | 435 kts | 252° |
| 2026-05-08 00:47 | 46.85369 | 62.70782 | 29948 ft | 435 kts | 252° |
| 2026-05-08 00:48 | 46.83714 | 62.62285 | 29960 ft | 435 kts | 252° |
| 2026-05-08 00:48 | 46.82052 | 62.53797 | 29972 ft | 434 kts | 252° |
| 2026-05-08 00:49 | 46.80384 | 62.45322 | 29982 ft | 434 kts | 252° |
| 2026-05-08 00:49 | 46.78711 | 62.36866 | 29988 ft | 434 kts | 252° |
| 2026-05-08 00:50 | 46.77032 | 62.28404 | 30001 ft | 434 kts | 252° |
| 2026-05-08 00:50 | 46.75350 | 62.19956 | 30007 ft | 434 kts | 252° |
| 2026-05-08 00:51 | 46.73661 | 62.11519 | 30025 ft | 433 kts | 252° |
| 2026-05-08 00:51 | 46.71968 | 62.03096 | 30032 ft | 433 kts | 252° |
| 2026-05-08 00:52 | 46.70833 | 61.97468 | 30036 ft | 433 kts | 252° |
| 2026-05-08 00:52 | 46.68433 | 61.85626 | 30194 ft | 452 kts | 252° |
| 2026-05-08 00:53 | 46.66613 | 61.76692 | 30327 ft | 468 kts | 252° |
| 2026-05-08 00:53 | 46.65054 | 61.69063 | 30443 ft | 477 kts | 252° |
| 2026-05-08 00:54 | 46.63466 | 61.61333 | 30750 ft | 481 kts | 252° |
| 2026-05-08 00:54 | 46.62505 | 61.56673 | 31016 ft | 480 kts | 252° |
| 2026-05-08 00:54 | 46.61548 | 61.52026 | 31330 ft | 479 kts | 252° |
| 2026-05-08 00:54 | 46.60592 | 61.47390 | 31615 ft | 479 kts | 252° |
| 2026-05-08 00:55 | 46.59633 | 61.42755 | 31930 ft | 476 kts | 252° |
| 2026-05-08 00:55 | 46.58690 | 61.38210 | 32758 ft | 463 kts | 252° |
| 2026-05-08 00:55 | 46.57766 | 61.33768 | 33419 ft | 457 kts | 252° |
| 2026-05-08 00:55 | 46.56844 | 61.29353 | 33709 ft | 457 kts | 252° |
| 2026-05-08 00:56 | 46.55915 | 61.24920 | 33846 ft | 460 kts | 252° |
| 2026-05-08 00:56 | 46.54038 | 61.15989 | 33954 ft | 463 kts | 252° |
| 2026-05-08 00:57 | 46.52161 | 61.07085 | 33950 ft | 459 kts | 251° |
| 2026-05-08 00:57 | 46.50291 | 60.98237 | 33959 ft | 457 kts | 251° |
| 2026-05-08 00:58 | 46.48420 | 60.89441 | 33960 ft | 456 kts | 251° |
| 2026-05-08 00:58 | 46.46544 | 60.80665 | 33956 ft | 456 kts | 251° |
| 2026-05-08 00:59 | 46.44661 | 60.71885 | 33959 ft | 457 kts | 251° |
| 2026-05-08 00:59 | 46.42767 | 60.63088 | 33949 ft | 458 kts | 251° |
| 2026-05-08 01:00 | 46.40861 | 60.54277 | 33964 ft | 458 kts | 251° |
| 2026-05-08 01:00 | 46.38945 | 60.45456 | 33980 ft | 459 kts | 251° |
| 2026-05-08 01:01 | 46.37022 | 60.36647 | 33983 ft | 459 kts | 251° |
| 2026-05-08 01:01 | 46.35098 | 60.27848 | 33979 ft | 458 kts | 251° |
| 2026-05-08 01:02 | 46.33167 | 60.19065 | 33976 ft | 458 kts | 251° |
| 2026-05-08 01:02 | 46.31229 | 60.10296 | 33971 ft | 457 kts | 251° |
| 2026-05-08 01:03 | 46.29277 | 60.01501 | 33974 ft | 456 kts | 251° |
| 2026-05-08 01:03 | 46.27348 | 59.92834 | 33972 ft | 455 kts | 251° |
| 2026-05-08 01:04 | 46.25389 | 59.84074 | 33972 ft | 455 kts | 251° |
| 2026-05-08 01:04 | 46.23449 | 59.75437 | 33975 ft | 455 kts | 251° |
| 2026-05-08 01:05 | 46.21484 | 59.66731 | 33983 ft | 456 kts | 251° |
| 2026-05-08 01:05 | 46.19497 | 59.58039 | 33979 ft | 456 kts | 250° |
| 2026-05-08 01:06 | 46.17490 | 59.49293 | 33974 ft | 456 kts | 250° |
| 2026-05-08 01:06 | 46.15504 | 59.40660 | 33972 ft | 457 kts | 250° |
| 2026-05-08 01:07 | 46.13495 | 59.31958 | 33973 ft | 458 kts | 250° |
| 2026-05-08 01:07 | 46.11475 | 59.23249 | 33973 ft | 459 kts | 250° |
| 2026-05-08 01:08 | 46.09449 | 59.14535 | 33974 ft | 459 kts | 250° |
| 2026-05-08 01:08 | 46.07413 | 59.05823 | 33971 ft | 459 kts | 250° |
| 2026-05-08 01:09 | 46.05367 | 58.97108 | 33971 ft | 460 kts | 250° |
| 2026-05-08 01:09 | 46.03315 | 58.88390 | 33973 ft | 460 kts | 250° |
| 2026-05-08 01:10 | 46.01254 | 58.79680 | 33974 ft | 460 kts | 250° |
| 2026-05-08 01:10 | 45.99187 | 58.70974 | 33973 ft | 460 kts | 250° |
| 2026-05-08 01:11 | 45.97116 | 58.62282 | 33972 ft | 459 kts | 250° |
| 2026-05-08 01:11 | 45.95044 | 58.53611 | 33968 ft | 458 kts | 250° |
| 2026-05-08 01:12 | 45.92965 | 58.44962 | 33963 ft | 458 kts | 250° |
| 2026-05-08 01:12 | 45.90881 | 58.36326 | 33964 ft | 458 kts | 250° |
| 2026-05-08 01:13 | 45.88791 | 58.27702 | 33961 ft | 457 kts | 250° |
| 2026-05-08 01:13 | 45.86700 | 58.19085 | 33966 ft | 457 kts | 250° |
| 2026-05-08 01:14 | 45.84599 | 58.10470 | 33961 ft | 458 kts | 250° |
| 2026-05-08 01:14 | 45.82486 | 58.01848 | 33965 ft | 458 kts | 250° |
| 2026-05-08 01:15 | 45.80368 | 57.93230 | 33972 ft | 459 kts | 250° |
| 2026-05-08 01:15 | 45.78242 | 57.84599 | 33973 ft | 459 kts | 250° |
| 2026-05-08 01:16 | 45.76106 | 57.75980 | 33975 ft | 459 kts | 249° |
| 2026-05-08 01:16 | 45.73963 | 57.67364 | 33971 ft | 459 kts | 249° |
| 2026-05-08 01:17 | 45.71817 | 57.58762 | 33970 ft | 459 kts | 249° |
| 2026-05-08 01:17 | 45.69665 | 57.50169 | 33974 ft | 459 kts | 249° |
| 2026-05-08 01:18 | 45.67511 | 57.41589 | 33973 ft | 458 kts | 249° |
| 2026-05-08 01:18 | 45.65354 | 57.33029 | 33972 ft | 457 kts | 249° |
| 2026-05-08 01:19 | 45.63189 | 57.24483 | 33972 ft | 457 kts | 249° |
| 2026-05-08 01:19 | 45.61019 | 57.15942 | 33970 ft | 457 kts | 249° |
| 2026-05-08 01:20 | 45.58843 | 57.07403 | 33961 ft | 458 kts | 249° |
| 2026-05-08 01:20 | 45.56663 | 56.98875 | 33953 ft | 458 kts | 249° |
| 2026-05-08 01:21 | 45.54473 | 56.90347 | 33948 ft | 458 kts | 249° |
| 2026-05-08 01:21 | 45.52271 | 56.81822 | 33952 ft | 458 kts | 249° |
| 2026-05-08 01:22 | 45.50069 | 56.73305 | 33954 ft | 458 kts | 249° |
| 2026-05-08 01:22 | 45.47862 | 56.64797 | 33958 ft | 458 kts | 249° |
| 2026-05-08 01:23 | 45.45648 | 56.56308 | 33950 ft | 458 kts | 249° |
| 2026-05-08 01:23 | 45.43426 | 56.47809 | 33954 ft | 458 kts | 249° |
| 2026-05-08 01:24 | 45.41211 | 56.39373 | 33950 ft | 458 kts | 249° |
| 2026-05-08 01:24 | 45.38975 | 56.30879 | 33954 ft | 459 kts | 249° |
| 2026-05-08 01:25 | 45.36727 | 56.22377 | 33959 ft | 459 kts | 249° |
| 2026-05-08 01:25 | 45.34472 | 56.13876 | 33948 ft | 459 kts | 248° |
| 2026-05-08 01:26 | 45.32209 | 56.05386 | 33954 ft | 459 kts | 248° |
| 2026-05-08 01:26 | 45.29946 | 55.96910 | 33948 ft | 459 kts | 248° |
| 2026-05-08 01:27 | 45.27676 | 55.88446 | 33954 ft | 459 kts | 248° |
| 2026-05-08 01:27 | 45.25398 | 55.79983 | 33949 ft | 459 kts | 248° |
| 2026-05-08 01:28 | 45.23117 | 55.71532 | 33956 ft | 458 kts | 248° |
| 2026-05-08 01:28 | 45.20828 | 55.63093 | 33951 ft | 458 kts | 248° |
| 2026-05-08 01:29 | 45.18537 | 55.54665 | 33954 ft | 458 kts | 248° |
| 2026-05-08 01:29 | 45.16237 | 55.46240 | 33957 ft | 458 kts | 248° |
| 2026-05-08 01:30 | 45.13930 | 55.37825 | 33953 ft | 458 kts | 248° |
| 2026-05-08 01:30 | 45.11622 | 55.29412 | 33947 ft | 458 kts | 248° |
| 2026-05-08 01:31 | 45.09063 | 55.21181 | 33944 ft | 457 kts | 239° |
| 2026-05-08 01:31 | 45.05302 | 55.13956 | 33957 ft | 457 kts | 228° |
| 2026-05-08 01:32 | 45.00667 | 55.07800 | 33954 ft | 458 kts | 223° |
| 2026-05-08 01:32 | 44.95935 | 55.01776 | 33953 ft | 458 kts | 223° |
| 2026-05-08 01:33 | 44.91224 | 54.95728 | 33957 ft | 458 kts | 223° |
| 2026-05-08 01:33 | 44.86519 | 54.89659 | 34007 ft | 460 kts | 223° |
| 2026-05-08 01:33 | 44.84158 | 54.86616 | 34283 ft | 460 kts | 223° |
| 2026-05-08 01:34 | 44.81802 | 54.83584 | 34647 ft | 457 kts | 223° |
| 2026-05-08 01:34 | 44.79456 | 54.80570 | 34959 ft | 456 kts | 223° |
| 2026-05-08 01:34 | 44.77111 | 54.77560 | 35230 ft | 456 kts | 223° |
| 2026-05-08 01:34 | 44.74769 | 54.74557 | 35482 ft | 456 kts | 223° |
| 2026-05-08 01:35 | 44.72426 | 54.71556 | 35730 ft | 456 kts | 223° |
| 2026-05-08 01:35 | 44.70842 | 54.69527 | 35850 ft | 456 kts | 223° |
| 2026-05-08 01:35 | 44.67748 | 54.65504 | 35925 ft | 458 kts | 226° |
| 2026-05-08 01:36 | 44.64278 | 54.59903 | 35950 ft | 457 kts | 234° |
| 2026-05-08 01:36 | 44.60684 | 54.52596 | 35959 ft | 453 kts | 236° |
| 2026-05-08 01:37 | 44.57078 | 54.45297 | 35965 ft | 451 kts | 235° |
| 2026-05-08 01:37 | 44.53487 | 54.38096 | 35974 ft | 450 kts | 235° |
| 2026-05-08 01:38 | 44.49890 | 54.30913 | 35976 ft | 450 kts | 235° |
| 2026-05-08 01:38 | 44.46286 | 54.23735 | 35975 ft | 451 kts | 235° |
| 2026-05-08 01:39 | 44.42670 | 54.16553 | 35973 ft | 451 kts | 235° |
| 2026-05-08 01:39 | 44.39047 | 54.09371 | 35974 ft | 452 kts | 235° |
| 2026-05-08 01:40 | 44.35412 | 54.02182 | 35973 ft | 453 kts | 235° |
| 2026-05-08 01:40 | 44.31766 | 53.95004 | 35972 ft | 453 kts | 235° |
| 2026-05-08 01:41 | 44.28119 | 53.87823 | 35980 ft | 454 kts | 235° |
| 2026-05-08 01:41 | 44.24464 | 53.80646 | 35981 ft | 454 kts | 235° |
| 2026-05-08 01:42 | 44.20803 | 53.73478 | 35982 ft | 453 kts | 234° |
| 2026-05-08 01:42 | 44.17139 | 53.66326 | 35981 ft | 453 kts | 234° |
| 2026-05-08 01:43 | 44.13467 | 53.59180 | 35983 ft | 454 kts | 234° |
| 2026-05-08 01:43 | 44.09795 | 53.52039 | 35981 ft | 454 kts | 234° |
| 2026-05-08 01:44 | 44.06116 | 53.44906 | 35990 ft | 454 kts | 234° |
| 2026-05-08 01:44 | 44.02433 | 53.37786 | 35985 ft | 454 kts | 234° |
| 2026-05-08 01:45 | 43.98743 | 53.30666 | 35989 ft | 454 kts | 234° |
| 2026-05-08 01:45 | 43.95046 | 53.23552 | 35990 ft | 454 kts | 234° |
| 2026-05-08 01:46 | 43.91348 | 53.16451 | 35987 ft | 454 kts | 234° |
| 2026-05-08 01:46 | 43.87646 | 53.09359 | 35994 ft | 454 kts | 234° |
| 2026-05-08 01:47 | 43.83942 | 53.02280 | 36020 ft | 454 kts | 234° |
| 2026-05-08 01:47 | 43.80238 | 52.95212 | 36026 ft | 453 kts | 234° |
| 2026-05-08 01:48 | 43.74672 | 52.84614 | 36044 ft | 454 kts | 234° |
| 2026-05-08 01:48 | 43.70946 | 52.77542 | 36053 ft | 455 kts | 234° |
| 2026-05-08 01:49 | 43.67206 | 52.70460 | 36031 ft | 457 kts | 234° |
| 2026-05-08 01:49 | 43.63448 | 52.63381 | 36037 ft | 458 kts | 234° |
| 2026-05-08 01:50 | 43.59666 | 52.56315 | 36037 ft | 458 kts | 234° |
| 2026-05-08 01:50 | 43.55878 | 52.49253 | 36033 ft | 458 kts | 234° |
| 2026-05-08 01:51 | 43.52088 | 52.42194 | 36033 ft | 458 kts | 233° |
| 2026-05-08 01:51 | 43.48287 | 52.35142 | 36034 ft | 459 kts | 233° |
| 2026-05-08 01:52 | 43.44483 | 52.28092 | 36029 ft | 458 kts | 233° |
| 2026-05-08 01:52 | 43.40679 | 52.21052 | 36028 ft | 459 kts | 233° |
| 2026-05-08 01:53 | 43.36866 | 52.14023 | 36027 ft | 458 kts | 233° |
| 2026-05-08 01:53 | 43.33056 | 52.07017 | 36026 ft | 457 kts | 233° |
| 2026-05-08 01:54 | 43.29248 | 52.00029 | 36028 ft | 457 kts | 233° |
| 2026-05-08 01:54 | 43.25442 | 51.93052 | 36032 ft | 457 kts | 233° |
| 2026-05-08 01:55 | 43.21628 | 51.86084 | 36023 ft | 457 kts | 233° |
| 2026-05-08 01:55 | 43.17806 | 51.79118 | 36030 ft | 457 kts | 233° |
| 2026-05-08 01:56 | 43.13979 | 51.72157 | 36029 ft | 457 kts | 233° |
| 2026-05-08 01:56 | 43.10148 | 51.65213 | 36027 ft | 457 kts | 233° |
| 2026-05-08 01:57 | 43.06312 | 51.58271 | 36027 ft | 457 kts | 233° |
| 2026-05-08 01:57 | 43.02477 | 51.51345 | 36028 ft | 457 kts | 233° |
| 2026-05-08 01:58 | 42.98640 | 51.44432 | 36027 ft | 457 kts | 233° |
| 2026-05-08 01:58 | 42.94798 | 51.37531 | 36027 ft | 456 kts | 233° |
| 2026-05-08 01:59 | 42.90958 | 51.30641 | 36029 ft | 456 kts | 233° |
| 2026-05-08 01:59 | 42.87112 | 51.23760 | 36028 ft | 456 kts | 233° |
| 2026-05-08 02:00 | 42.83261 | 51.16886 | 36035 ft | 456 kts | 233° |
| 2026-05-08 02:00 | 42.79406 | 51.10023 | 36031 ft | 456 kts | 233° |
| 2026-05-08 02:01 | 42.75546 | 51.03164 | 36056 ft | 457 kts | 233° |
| 2026-05-08 02:01 | 42.71676 | 50.96308 | 36054 ft | 457 kts | 232° |
| 2026-05-08 02:02 | 42.67803 | 50.89462 | 36058 ft | 457 kts | 232° |
| 2026-05-08 02:02 | 42.63933 | 50.82630 | 36058 ft | 456 kts | 232° |
| 2026-05-08 02:03 | 42.60061 | 50.75810 | 36057 ft | 456 kts | 232° |
| 2026-05-08 02:03 | 42.56186 | 50.69005 | 36060 ft | 455 kts | 232° |
| 2026-05-08 02:04 | 42.52315 | 50.62218 | 36069 ft | 455 kts | 232° |
| 2026-05-08 02:04 | 42.48438 | 50.55439 | 36067 ft | 455 kts | 232° |
| 2026-05-08 02:05 | 42.44558 | 50.48673 | 36062 ft | 455 kts | 232° |
| 2026-05-08 02:05 | 42.40761 | 50.41828 | 36072 ft | 455 kts | 234° |
| 2026-05-08 02:06 | 42.37113 | 50.34839 | 36072 ft | 455 kts | 235° |
| 2026-05-08 02:06 | 42.33464 | 50.27854 | 36072 ft | 455 kts | 234° |
| 2026-05-08 02:07 | 42.29792 | 50.20905 | 36073 ft | 454 kts | 234° |
| 2026-05-08 02:07 | 42.26106 | 50.13973 | 36075 ft | 454 kts | 234° |
| 2026-05-08 02:08 | 42.22417 | 50.07058 | 36082 ft | 453 kts | 234° |
| 2026-05-08 02:08 | 42.18733 | 50.00163 | 36090 ft | 453 kts | 234° |
| 2026-05-08 02:09 | 42.15049 | 49.93282 | 36093 ft | 453 kts | 234° |
| 2026-05-08 02:09 | 42.11359 | 49.86407 | 36092 ft | 453 kts | 234° |
| 2026-05-08 02:10 | 42.07664 | 49.79541 | 36099 ft | 453 kts | 234° |
| 2026-05-08 02:10 | 42.03966 | 49.72676 | 36102 ft | 453 kts | 234° |
| 2026-05-08 02:11 | 42.00259 | 49.65817 | 36105 ft | 453 kts | 234° |
| 2026-05-08 02:11 | 41.96546 | 49.58964 | 36102 ft | 454 kts | 234° |
| 2026-05-08 02:12 | 41.92826 | 49.52106 | 36102 ft | 454 kts | 234° |
| 2026-05-08 02:12 | 41.89100 | 49.45257 | 36099 ft | 454 kts | 234° |
| 2026-05-08 02:13 | 41.85371 | 49.38419 | 36105 ft | 454 kts | 234° |
| 2026-05-08 02:13 | 41.81648 | 49.31597 | 36109 ft | 454 kts | 234° |
| 2026-05-08 02:14 | 41.78621 | 49.25844 | 36080 ft | 455 kts | 236° |
| 2026-05-08 02:14 | 41.75132 | 49.18820 | 36120 ft | 452 kts | 237° |
| 2026-05-08 02:15 | 41.71703 | 49.11756 | 36115 ft | 452 kts | 236° |
| 2026-05-08 02:15 | 41.68229 | 49.04730 | 36109 ft | 453 kts | 236° |
| 2026-05-08 02:16 | 41.64725 | 48.97723 | 36126 ft | 454 kts | 236° |
| 2026-05-08 02:16 | 41.61208 | 48.90711 | 36123 ft | 454 kts | 236° |
| 2026-05-08 02:17 | 41.57689 | 48.83705 | 36118 ft | 454 kts | 236° |
| 2026-05-08 02:17 | 41.54159 | 48.76698 | 36116 ft | 455 kts | 236° |
| 2026-05-08 02:18 | 41.50552 | 48.69773 | 36125 ft | 454 kts | 233° |
| 2026-05-08 02:18 | 41.46706 | 48.63086 | 36130 ft | 454 kts | 232° |
| 2026-05-08 02:19 | 41.42891 | 48.56366 | 36122 ft | 455 kts | 233° |
| 2026-05-08 02:19 | 41.39145 | 48.49577 | 36132 ft | 454 kts | 234° |
| 2026-05-08 02:20 | 41.35452 | 48.42752 | 36123 ft | 454 kts | 234° |
| 2026-05-08 02:20 | 41.31752 | 48.35941 | 36133 ft | 454 kts | 234° |
| 2026-05-08 02:21 | 41.28035 | 48.29139 | 36148 ft | 454 kts | 233° |
| 2026-05-08 02:21 | 41.24312 | 48.22352 | 36158 ft | 453 kts | 233° |
| 2026-05-08 02:22 | 41.20597 | 48.15590 | 36165 ft | 453 kts | 233° |
| 2026-05-08 02:22 | 41.16875 | 48.08827 | 36166 ft | 454 kts | 233° |
| 2026-05-08 02:23 | 41.13208 | 48.02019 | 36167 ft | 454 kts | 238° |
| 2026-05-08 02:23 | 41.10476 | 47.94474 | 36168 ft | 455 kts | 248° |
| 2026-05-08 02:24 | 41.08739 | 47.86378 | 36166 ft | 459 kts | 255° |
| 2026-05-08 02:24 | 41.07330 | 47.78134 | 36163 ft | 459 kts | 255° |
| 2026-05-08 02:25 | 41.05901 | 47.69879 | 36160 ft | 460 kts | 255° |
| 2026-05-08 02:25 | 41.04436 | 47.61626 | 36150 ft | 460 kts | 255° |
| 2026-05-08 02:26 | 41.02955 | 47.53383 | 36157 ft | 460 kts | 255° |
| 2026-05-08 02:26 | 41.01470 | 47.45155 | 36156 ft | 459 kts | 255° |
| 2026-05-08 02:27 | 40.99982 | 47.36939 | 36154 ft | 458 kts | 255° |
| 2026-05-08 02:27 | 40.98489 | 47.28741 | 36158 ft | 458 kts | 255° |
| 2026-05-08 02:28 | 40.96992 | 47.20550 | 36160 ft | 458 kts | 255° |
| 2026-05-08 02:28 | 40.95489 | 47.12356 | 36149 ft | 458 kts | 255° |
| 2026-05-08 02:29 | 40.93979 | 47.04169 | 36146 ft | 459 kts | 254° |
| 2026-05-08 02:29 | 40.92463 | 46.95977 | 36146 ft | 458 kts | 254° |
| 2026-05-08 02:30 | 40.90942 | 46.87785 | 36150 ft | 459 kts | 254° |
| 2026-05-08 02:30 | 40.89589 | 46.79537 | 36155 ft | 461 kts | 261° |
| 2026-05-08 02:31 | 40.88821 | 46.71120 | 36160 ft | 462 kts | 261° |
| 2026-05-08 02:31 | 40.88062 | 46.62691 | 36161 ft | 462 kts | 261° |
| 2026-05-08 02:32 | 40.87276 | 46.54262 | 36154 ft | 463 kts | 261° |
| 2026-05-08 02:32 | 40.86473 | 46.45822 | 36158 ft | 463 kts | 261° |
| 2026-05-08 02:33 | 40.85661 | 46.37395 | 36156 ft | 463 kts | 261° |
| 2026-05-08 02:33 | 40.84842 | 46.28966 | 36159 ft | 463 kts | 261° |
| 2026-05-08 02:34 | 40.84018 | 46.20537 | 36155 ft | 463 kts | 261° |
| 2026-05-08 02:34 | 40.83189 | 46.12118 | 36160 ft | 462 kts | 260° |
| 2026-05-08 02:35 | 40.82353 | 46.03698 | 36163 ft | 462 kts | 260° |
| 2026-05-08 02:35 | 40.81513 | 45.95286 | 36159 ft | 462 kts | 260° |
| 2026-05-08 02:36 | 40.80666 | 45.86876 | 36165 ft | 462 kts | 260° |
| 2026-05-08 02:36 | 40.79812 | 45.78464 | 36170 ft | 463 kts | 260° |
| 2026-05-08 02:37 | 40.78951 | 45.70029 | 36176 ft | 464 kts | 260° |
| 2026-05-08 02:37 | 40.78083 | 45.61585 | 36172 ft | 465 kts | 260° |
| 2026-05-08 02:38 | 40.77216 | 45.53128 | 36172 ft | 466 kts | 262° |
| 2026-05-08 02:38 | 40.77078 | 45.44566 | 36178 ft | 469 kts | 271° |
| 2026-05-08 02:39 | 40.77518 | 45.35973 | 36177 ft | 470 kts | 271° |
| 2026-05-08 02:39 | 40.77937 | 45.27365 | 36174 ft | 470 kts | 271° |
| 2026-05-08 02:40 | 40.78325 | 45.18752 | 36177 ft | 471 kts | 271° |
| 2026-05-08 02:40 | 40.78703 | 45.10133 | 36175 ft | 470 kts | 271° |
| 2026-05-08 02:41 | 40.79073 | 45.01509 | 36171 ft | 471 kts | 271° |
| 2026-05-08 02:41 | 40.79437 | 44.92878 | 36179 ft | 471 kts | 271° |
| 2026-05-08 02:42 | 40.79794 | 44.84246 | 36174 ft | 471 kts | 271° |
| 2026-05-08 02:42 | 40.80144 | 44.75602 | 36172 ft | 472 kts | 271° |
| 2026-05-08 02:43 | 40.80490 | 44.66947 | 36167 ft | 472 kts | 271° |
| 2026-05-08 02:43 | 40.80831 | 44.58294 | 36174 ft | 472 kts | 271° |
| 2026-05-08 02:44 | 40.81166 | 44.49634 | 36167 ft | 473 kts | 271° |
| 2026-05-08 02:44 | 40.81488 | 44.40980 | 36193 ft | 472 kts | 270° |
| 2026-05-08 02:45 | 40.81808 | 44.32330 | 36201 ft | 472 kts | 271° |
| 2026-05-08 02:45 | 40.82124 | 44.23658 | 36200 ft | 473 kts | 270° |
| 2026-05-08 02:46 | 40.82429 | 44.14987 | 36205 ft | 473 kts | 270° |
| 2026-05-08 02:46 | 40.82730 | 44.06306 | 36200 ft | 473 kts | 270° |
| 2026-05-08 02:47 | 40.83022 | 43.97680 | 36216 ft | 474 kts | 270° |
| 2026-05-08 02:47 | 40.83312 | 43.88982 | 36211 ft | 475 kts | 271° |
| 2026-05-08 02:48 | 40.83599 | 43.80253 | 36213 ft | 476 kts | 271° |
| 2026-05-08 02:48 | 40.83899 | 43.71515 | 36212 ft | 477 kts | 271° |
| 2026-05-08 02:49 | 40.84277 | 43.62801 | 36223 ft | 473 kts | 272° |
| 2026-05-08 02:49 | 40.84716 | 43.54147 | 36244 ft | 473 kts | 273° |
| 2026-05-08 02:50 | 40.85246 | 43.45459 | 36227 ft | 476 kts | 273° |
| 2026-05-08 02:50 | 40.85753 | 43.36716 | 36234 ft | 479 kts | 272° |
| 2026-05-08 02:51 | 40.86224 | 43.27911 | 36225 ft | 481 kts | 272° |
| 2026-05-08 02:51 | 40.86698 | 43.19102 | 36234 ft | 481 kts | 272° |
| 2026-05-08 02:52 | 40.87163 | 43.10281 | 36231 ft | 481 kts | 272° |
| 2026-05-08 02:52 | 40.87621 | 43.01466 | 36234 ft | 480 kts | 272° |
| 2026-05-08 02:53 | 40.88064 | 42.92666 | 36234 ft | 479 kts | 272° |
| 2026-05-08 02:53 | 40.88500 | 42.83882 | 36244 ft | 479 kts | 272° |
| 2026-05-08 02:54 | 40.88931 | 42.75110 | 36237 ft | 478 kts | 272° |
| 2026-05-08 02:54 | 40.89357 | 42.66342 | 36232 ft | 478 kts | 272° |
| 2026-05-08 02:55 | 40.89981 | 42.53191 | 36230 ft | 478 kts | 272° |
| 2026-05-08 02:56 | 40.90388 | 42.44426 | 36230 ft | 478 kts | 272° |
| 2026-05-08 02:56 | 40.90725 | 42.37067 | 36226 ft | 479 kts | 272° |
| 2026-05-08 02:57 | 40.91121 | 42.28272 | 36222 ft | 480 kts | 272° |
| 2026-05-08 02:57 | 40.91511 | 42.19461 | 36216 ft | 481 kts | 272° |
| 2026-05-08 02:58 | 40.91897 | 42.10633 | 36219 ft | 481 kts | 272° |
| 2026-05-08 02:58 | 40.92272 | 42.01799 | 36209 ft | 481 kts | 272° |
| 2026-05-08 02:59 | 40.92643 | 41.92964 | 36208 ft | 481 kts | 272° |
| 2026-05-08 02:59 | 40.93010 | 41.84132 | 36216 ft | 481 kts | 272° |
| 2026-05-08 03:00 | 40.93368 | 41.75282 | 36201 ft | 482 kts | 272° |
| 2026-05-08 03:00 | 40.93718 | 41.66433 | 36207 ft | 482 kts | 272° |
| 2026-05-08 03:01 | 40.94062 | 41.57576 | 36204 ft | 483 kts | 272° |
| 2026-05-08 03:01 | 40.94400 | 41.48720 | 36196 ft | 482 kts | 272° |
| 2026-05-08 03:02 | 40.94730 | 41.39856 | 36198 ft | 482 kts | 272° |
| 2026-05-08 03:02 | 40.95052 | 41.31059 | 36184 ft | 482 kts | 272° |
| 2026-05-08 03:03 | 40.95372 | 41.22149 | 36198 ft | 481 kts | 272° |
| 2026-05-08 03:03 | 40.95682 | 41.13356 | 36194 ft | 482 kts | 272° |
| 2026-05-08 03:04 | 40.95986 | 41.04498 | 36182 ft | 482 kts | 272° |
| 2026-05-08 03:04 | 40.96283 | 40.95629 | 36191 ft | 483 kts | 272° |
| 2026-05-08 03:05 | 40.96573 | 40.86760 | 36189 ft | 483 kts | 272° |
| 2026-05-08 03:05 | 40.96853 | 40.77878 | 36188 ft | 483 kts | 272° |
| 2026-05-08 03:06 | 40.97126 | 40.68994 | 36187 ft | 483 kts | 272° |
| 2026-05-08 03:06 | 40.97393 | 40.60098 | 36187 ft | 484 kts | 272° |
| 2026-05-08 03:07 | 40.97653 | 40.51212 | 36190 ft | 483 kts | 272° |
| 2026-05-08 03:07 | 40.97906 | 40.42329 | 36196 ft | 483 kts | 272° |
| 2026-05-08 03:08 | 40.98150 | 40.33455 | 36201 ft | 483 kts | 272° |
| 2026-05-08 03:08 | 40.98391 | 40.24580 | 36202 ft | 482 kts | 272° |
| 2026-05-08 03:09 | 40.98623 | 40.15704 | 36208 ft | 483 kts | 272° |
| 2026-05-08 03:09 | 40.98848 | 40.06827 | 36208 ft | 483 kts | 272° |
| 2026-05-08 03:10 | 40.99068 | 39.97941 | 36214 ft | 483 kts | 272° |
| 2026-05-08 03:10 | 40.99281 | 39.89062 | 36211 ft | 483 kts | 272° |
| 2026-05-08 03:11 | 40.99496 | 39.80180 | 36213 ft | 483 kts | 274° |
| 2026-05-08 03:11 | 41.00232 | 39.71301 | 36222 ft | 482 kts | 278° |
| 2026-05-08 03:12 | 41.01122 | 39.62505 | 36209 ft | 482 kts | 278° |
| 2026-05-08 03:12 | 41.01985 | 39.53696 | 36217 ft | 483 kts | 278° |
| 2026-05-08 03:13 | 41.02814 | 39.44938 | 36212 ft | 483 kts | 277° |
| 2026-05-08 03:13 | 41.03635 | 39.36113 | 36214 ft | 482 kts | 277° |
| 2026-05-08 03:14 | 41.04452 | 39.27289 | 36207 ft | 483 kts | 277° |
| 2026-05-08 03:14 | 41.05265 | 39.18468 | 36200 ft | 482 kts | 277° |
| 2026-05-08 03:15 | 41.06075 | 39.09649 | 36203 ft | 482 kts | 277° |
| 2026-05-08 03:15 | 41.06896 | 39.00849 | 36200 ft | 481 kts | 277° |
| 2026-05-08 03:16 | 41.07712 | 38.92052 | 36201 ft | 481 kts | 277° |
| 2026-05-08 03:16 | 41.08519 | 38.83249 | 36194 ft | 481 kts | 277° |
| 2026-05-08 03:17 | 41.09317 | 38.74445 | 36196 ft | 481 kts | 277° |
| 2026-05-08 03:17 | 41.10094 | 38.65642 | 36195 ft | 481 kts | 277° |
| 2026-05-08 03:18 | 41.10817 | 38.56835 | 36187 ft | 481 kts | 277° |
| 2026-05-08 03:18 | 41.11561 | 38.48013 | 36186 ft | 481 kts | 277° |
| 2026-05-08 03:19 | 41.12306 | 38.39191 | 36182 ft | 481 kts | 277° |
| 2026-05-08 03:19 | 41.13041 | 38.30362 | 36186 ft | 482 kts | 277° |
| 2026-05-08 03:20 | 41.13764 | 38.21524 | 36186 ft | 482 kts | 277° |
| 2026-05-08 03:20 | 41.14477 | 38.12686 | 36186 ft | 482 kts | 277° |
| 2026-05-08 03:21 | 41.15181 | 38.03847 | 36182 ft | 482 kts | 277° |
| 2026-05-08 03:21 | 41.15883 | 37.95000 | 36183 ft | 482 kts | 277° |
| 2026-05-08 03:22 | 41.16581 | 37.86164 | 36183 ft | 481 kts | 277° |
| 2026-05-08 03:22 | 41.17350 | 37.77346 | 36185 ft | 481 kts | 278° |
| 2026-05-08 03:23 | 41.18126 | 37.68540 | 36179 ft | 480 kts | 277° |
| 2026-05-08 03:23 | 41.18864 | 37.59733 | 36176 ft | 480 kts | 276° |
| 2026-05-08 03:24 | 41.19304 | 37.50888 | 36182 ft | 480 kts | 276° |
| 2026-05-08 03:24 | 41.19941 | 37.42082 | 36176 ft | 479 kts | 277° |
| 2026-05-08 03:25 | 41.20623 | 37.33274 | 36166 ft | 479 kts | 277° |
| 2026-05-08 03:25 | 41.21262 | 37.24468 | 36166 ft | 479 kts | 276° |
| 2026-05-08 03:26 | 41.21923 | 37.15667 | 36165 ft | 479 kts | 277° |
| 2026-05-08 03:26 | 41.22628 | 37.06884 | 36165 ft | 478 kts | 277° |
| 2026-05-08 03:27 | 41.23324 | 36.98091 | 36156 ft | 478 kts | 277° |
| 2026-05-08 03:27 | 41.24004 | 36.89308 | 36157 ft | 478 kts | 277° |
| 2026-05-08 03:28 | 41.24677 | 36.80534 | 36156 ft | 477 kts | 277° |
| 2026-05-08 03:28 | 41.25342 | 36.71761 | 36157 ft | 477 kts | 277° |
| 2026-05-08 03:29 | 41.26000 | 36.62981 | 36156 ft | 477 kts | 277° |
| 2026-05-08 03:29 | 41.26653 | 36.54201 | 36160 ft | 477 kts | 277° |
| 2026-05-08 03:30 | 41.27590 | 36.41048 | 36159 ft | 477 kts | 276° |
| 2026-05-08 03:31 | 41.28807 | 36.23493 | 36158 ft | 477 kts | 276° |
| 2026-05-08 03:32 | 41.29706 | 36.10304 | 36154 ft | 477 kts | 276° |
| 2026-05-08 03:32 | 41.30300 | 36.01512 | 36159 ft | 478 kts | 276° |
| 2026-05-08 03:33 | 41.30888 | 35.92720 | 36160 ft | 477 kts | 276° |
| 2026-05-08 03:33 | 41.31462 | 35.83930 | 36157 ft | 477 kts | 276° |
| 2026-05-08 03:34 | 41.32035 | 35.75144 | 36156 ft | 477 kts | 276° |
| 2026-05-08 03:34 | 41.32599 | 35.66365 | 36157 ft | 476 kts | 276° |
| 2026-05-08 03:35 | 41.33155 | 35.57599 | 36155 ft | 475 kts | 276° |
| 2026-05-08 03:35 | 41.33702 | 35.48839 | 36152 ft | 474 kts | 276° |
| 2026-05-08 03:36 | 41.34244 | 35.40097 | 36158 ft | 474 kts | 276° |
| 2026-05-08 03:36 | 41.34783 | 35.31349 | 36160 ft | 474 kts | 276° |
| 2026-05-08 03:37 | 41.35310 | 35.22603 | 36161 ft | 474 kts | 276° |
| 2026-05-08 03:37 | 41.35745 | 35.15331 | 36161 ft | 474 kts | 276° |
| 2026-05-08 03:38 | 41.36260 | 35.06584 | 36170 ft | 474 kts | 276° |
| 2026-05-08 03:38 | 41.36769 | 34.97839 | 36166 ft | 473 kts | 276° |
| 2026-05-08 03:39 | 41.37272 | 34.89102 | 36170 ft | 473 kts | 276° |
| 2026-05-08 03:39 | 41.37769 | 34.80361 | 36168 ft | 473 kts | 276° |
| 2026-05-08 03:40 | 41.38256 | 34.71617 | 36165 ft | 473 kts | 276° |
| 2026-05-08 03:40 | 41.38737 | 34.62880 | 36165 ft | 473 kts | 276° |
| 2026-05-08 03:41 | 41.39214 | 34.54148 | 36169 ft | 473 kts | 276° |
| 2026-05-08 03:41 | 41.39683 | 34.45417 | 36166 ft | 473 kts | 276° |
| 2026-05-08 03:42 | 41.40196 | 34.36692 | 36170 ft | 471 kts | 279° |
| 2026-05-08 03:42 | 41.41622 | 34.28210 | 36171 ft | 469 kts | 290° |
| 2026-05-08 03:43 | 41.43810 | 34.20039 | 36176 ft | 469 kts | 291° |
| 2026-05-08 03:43 | 41.45942 | 34.11820 | 36174 ft | 470 kts | 290° |
| 2026-05-08 03:44 | 41.48060 | 34.03577 | 36179 ft | 470 kts | 290° |
| 2026-05-08 03:44 | 41.50179 | 33.95325 | 36179 ft | 470 kts | 290° |
| 2026-05-08 03:45 | 41.52292 | 33.87074 | 36178 ft | 470 kts | 290° |
| 2026-05-08 03:45 | 41.54395 | 33.78828 | 36193 ft | 470 kts | 290° |
| 2026-05-08 03:46 | 41.56494 | 33.70572 | 36185 ft | 470 kts | 290° |
| 2026-05-08 03:46 | 41.58589 | 33.62307 | 36186 ft | 470 kts | 290° |
| 2026-05-08 03:47 | 41.60661 | 33.54032 | 36184 ft | 470 kts | 289° |
| 2026-05-08 03:47 | 41.62717 | 33.45761 | 36184 ft | 468 kts | 290° |
| 2026-05-08 03:48 | 41.64803 | 33.37518 | 36188 ft | 468 kts | 290° |
| 2026-05-08 03:48 | 41.66881 | 33.29266 | 36180 ft | 468 kts | 290° |
| 2026-05-08 03:49 | 41.68946 | 33.21011 | 36181 ft | 468 kts | 290° |
| 2026-05-08 03:49 | 41.71003 | 33.12756 | 36185 ft | 467 kts | 290° |
| 2026-05-08 03:50 | 41.73040 | 33.04562 | 36184 ft | 467 kts | 289° |
| 2026-05-08 03:50 | 41.75064 | 32.96302 | 36185 ft | 467 kts | 289° |
| 2026-05-08 03:51 | 41.77065 | 32.88041 | 36191 ft | 466 kts | 289° |
| 2026-05-08 03:51 | 41.79067 | 32.79772 | 36183 ft | 466 kts | 289° |
| 2026-05-08 03:52 | 41.81071 | 32.71514 | 36182 ft | 466 kts | 289° |
| 2026-05-08 03:52 | 41.83102 | 32.63271 | 36178 ft | 466 kts | 289° |
| 2026-05-08 03:53 | 41.85126 | 32.55021 | 36174 ft | 466 kts | 289° |
| 2026-05-08 03:53 | 41.87138 | 32.46775 | 36174 ft | 465 kts | 289° |
| 2026-05-08 03:54 | 41.89092 | 32.38498 | 36178 ft | 465 kts | 288° |
| 2026-05-08 03:54 | 41.91039 | 32.30232 | 36177 ft | 464 kts | 289° |
| 2026-05-08 03:55 | 41.93016 | 32.21980 | 36167 ft | 464 kts | 289° |
| 2026-05-08 03:55 | 41.94982 | 32.13708 | 36167 ft | 464 kts | 289° |
| 2026-05-08 03:56 | 41.96939 | 32.05440 | 36166 ft | 464 kts | 289° |
| 2026-05-08 03:56 | 41.98887 | 31.97174 | 36166 ft | 464 kts | 289° |
| 2026-05-08 03:57 | 42.00833 | 31.88893 | 36167 ft | 464 kts | 289° |
| 2026-05-08 03:57 | 42.02773 | 31.80614 | 36167 ft | 465 kts | 289° |
| 2026-05-08 03:58 | 42.04706 | 31.72308 | 36155 ft | 465 kts | 289° |
| 2026-05-08 03:58 | 42.06637 | 31.64006 | 36154 ft | 464 kts | 289° |
| 2026-05-08 03:59 | 42.08556 | 31.55703 | 36148 ft | 465 kts | 288° |
| 2026-05-08 03:59 | 42.10471 | 31.47385 | 36146 ft | 465 kts | 288° |
| 2026-05-08 04:00 | 42.12387 | 31.39060 | 36150 ft | 466 kts | 288° |
| 2026-05-08 04:00 | 42.14301 | 31.30718 | 36151 ft | 466 kts | 288° |
| 2026-05-08 04:01 | 42.16215 | 31.22365 | 36147 ft | 467 kts | 288° |
| 2026-05-08 04:01 | 42.18122 | 31.14003 | 36147 ft | 467 kts | 288° |
| 2026-05-08 04:02 | 42.20024 | 31.05639 | 36132 ft | 467 kts | 288° |
| 2026-05-08 04:02 | 42.21919 | 30.97267 | 36139 ft | 466 kts | 288° |
| 2026-05-08 04:03 | 42.23807 | 30.88900 | 36134 ft | 466 kts | 288° |
| 2026-05-08 04:03 | 42.26623 | 30.76348 | 36145 ft | 466 kts | 288° |
| 2026-05-08 04:04 | 42.28492 | 30.67973 | 36145 ft | 466 kts | 287° |
| 2026-05-08 04:04 | 42.30354 | 30.59589 | 36127 ft | 466 kts | 287° |
| 2026-05-08 04:05 | 42.32210 | 30.51215 | 36131 ft | 466 kts | 287° |
| 2026-05-08 04:05 | 42.34075 | 30.42777 | 36146 ft | 466 kts | 287° |
| 2026-05-08 04:06 | 42.35919 | 30.34383 | 36131 ft | 465 kts | 287° |
| 2026-05-08 04:06 | 42.37745 | 30.26050 | 36130 ft | 466 kts | 287° |
| 2026-05-08 04:07 | 42.39578 | 30.17646 | 36125 ft | 465 kts | 287° |
| 2026-05-08 04:07 | 42.41402 | 30.09245 | 36131 ft | 466 kts | 287° |
| 2026-05-08 04:08 | 42.43221 | 30.00837 | 36129 ft | 466 kts | 287° |
| 2026-05-08 04:08 | 42.45037 | 29.92423 | 36127 ft | 466 kts | 287° |
| 2026-05-08 04:09 | 42.46743 | 29.83951 | 36105 ft | 466 kts | 283° |
| 2026-05-08 04:09 | 42.48129 | 29.75370 | 36101 ft | 466 kts | 283° |
| 2026-05-08 04:10 | 42.49470 | 29.66781 | 36100 ft | 466 kts | 283° |
| 2026-05-08 04:10 | 42.50826 | 29.58144 | 36103 ft | 465 kts | 283° |
| 2026-05-08 04:11 | 42.52179 | 29.49573 | 36100 ft | 465 kts | 283° |
| 2026-05-08 04:11 | 42.53521 | 29.41054 | 36102 ft | 465 kts | 283° |
| 2026-05-08 04:12 | 42.54869 | 29.32469 | 36102 ft | 465 kts | 283° |
| 2026-05-08 04:12 | 42.56118 | 29.24464 | 36102 ft | 465 kts | 282° |
| 2026-05-08 04:13 | 42.57452 | 29.15874 | 36103 ft | 466 kts | 282° |
| 2026-05-08 04:13 | 42.58780 | 29.07271 | 36102 ft | 466 kts | 282° |
| 2026-05-08 04:14 | 42.60110 | 28.98607 | 36093 ft | 466 kts | 282° |
| 2026-05-08 04:14 | 42.61427 | 28.89992 | 36092 ft | 466 kts | 282° |
| 2026-05-08 04:15 | 42.62737 | 28.81379 | 36094 ft | 466 kts | 282° |
| 2026-05-08 04:15 | 42.64039 | 28.72762 | 36093 ft | 466 kts | 282° |
| 2026-05-08 04:16 | 42.65333 | 28.64149 | 36091 ft | 465 kts | 282° |
| 2026-05-08 04:16 | 42.66622 | 28.55533 | 36094 ft | 465 kts | 282° |
| 2026-05-08 04:17 | 42.67895 | 28.46974 | 36091 ft | 465 kts | 282° |
| 2026-05-08 04:17 | 42.69178 | 28.38310 | 36092 ft | 465 kts | 282° |
| 2026-05-08 04:18 | 42.70435 | 28.29757 | 36093 ft | 465 kts | 282° |
| 2026-05-08 04:18 | 42.71695 | 28.21139 | 36093 ft | 464 kts | 282° |
| 2026-05-08 04:19 | 42.72944 | 28.12523 | 36091 ft | 465 kts | 282° |
| 2026-05-08 04:19 | 42.74200 | 28.03885 | 36098 ft | 466 kts | 282° |
| 2026-05-08 04:20 | 42.75443 | 27.95248 | 36092 ft | 465 kts | 281° |
| 2026-05-08 04:20 | 42.76678 | 27.86611 | 36092 ft | 464 kts | 281° |
| 2026-05-08 04:21 | 42.77900 | 27.78001 | 36091 ft | 463 kts | 281° |
| 2026-05-08 04:21 | 42.79118 | 27.69400 | 36092 ft | 463 kts | 281° |
| 2026-05-08 04:22 | 42.80326 | 27.60800 | 36094 ft | 462 kts | 281° |
| 2026-05-08 04:22 | 42.81531 | 27.52197 | 36093 ft | 463 kts | 281° |
| 2026-05-08 04:23 | 42.82727 | 27.43583 | 36094 ft | 463 kts | 281° |
| 2026-05-08 04:23 | 42.83914 | 27.34957 | 36096 ft | 463 kts | 281° |
| 2026-05-08 04:24 | 42.85099 | 27.26328 | 36094 ft | 463 kts | 281° |
| 2026-05-08 04:24 | 42.86278 | 27.17712 | 36093 ft | 463 kts | 281° |
| 2026-05-08 04:25 | 42.87449 | 27.09075 | 36091 ft | 463 kts | 281° |
| 2026-05-08 04:25 | 42.88616 | 27.00459 | 36089 ft | 462 kts | 281° |
| 2026-05-08 04:26 | 42.89778 | 26.91842 | 36090 ft | 462 kts | 281° |
| 2026-05-08 04:26 | 42.90927 | 26.83229 | 36095 ft | 461 kts | 281° |
| 2026-05-08 04:27 | 42.92066 | 26.74627 | 36092 ft | 461 kts | 281° |
| 2026-05-08 04:27 | 42.93200 | 26.66013 | 36088 ft | 461 kts | 280° |
| 2026-05-08 04:28 | 42.94328 | 26.57405 | 36078 ft | 460 kts | 280° |
| 2026-05-08 04:28 | 42.95456 | 26.48749 | 36084 ft | 460 kts | 280° |
| 2026-05-08 04:29 | 42.96569 | 26.40148 | 36084 ft | 460 kts | 280° |
| 2026-05-08 04:29 | 42.97674 | 26.31551 | 36082 ft | 459 kts | 280° |
| 2026-05-08 04:30 | 42.98772 | 26.22959 | 36084 ft | 460 kts | 280° |
| 2026-05-08 04:30 | 42.99859 | 26.14408 | 36081 ft | 460 kts | 280° |
| 2026-05-08 04:31 | 43.00954 | 26.05744 | 36077 ft | 459 kts | 280° |
| 2026-05-08 04:31 | 43.02031 | 25.97145 | 36075 ft | 459 kts | 280° |
| 2026-05-08 04:32 | 43.03103 | 25.88539 | 36073 ft | 459 kts | 280° |
| 2026-05-08 04:32 | 43.04168 | 25.79941 | 36069 ft | 458 kts | 280° |
| 2026-05-08 04:33 | 43.05226 | 25.71353 | 36071 ft | 458 kts | 280° |
| 2026-05-08 04:33 | 43.06276 | 25.62775 | 36075 ft | 458 kts | 279° |
| 2026-05-08 04:34 | 43.07319 | 25.54190 | 36077 ft | 457 kts | 279° |
| 2026-05-08 04:34 | 43.08181 | 25.47054 | 36075 ft | 457 kts | 279° |
| 2026-05-08 04:35 | 43.09211 | 25.38469 | 36074 ft | 457 kts | 279° |
| 2026-05-08 04:35 | 43.10234 | 25.29884 | 36074 ft | 457 kts | 279° |
| 2026-05-08 04:36 | 43.11255 | 25.21279 | 36077 ft | 458 kts | 279° |
| 2026-05-08 04:36 | 43.12268 | 25.12669 | 36074 ft | 458 kts | 279° |
| 2026-05-08 04:37 | 43.13273 | 25.04061 | 36075 ft | 458 kts | 279° |
| 2026-05-08 04:37 | 43.14272 | 24.95455 | 36072 ft | 457 kts | 279° |
| 2026-05-08 04:38 | 43.15266 | 24.86851 | 36072 ft | 457 kts | 279° |
| 2026-05-08 04:38 | 43.16252 | 24.78248 | 36072 ft | 457 kts | 279° |
| 2026-05-08 04:39 | 43.17231 | 24.69643 | 36071 ft | 457 kts | 279° |
| 2026-05-08 04:39 | 43.18201 | 24.61041 | 36089 ft | 456 kts | 279° |
| 2026-05-08 04:40 | 43.19165 | 24.52442 | 36094 ft | 456 kts | 279° |
| 2026-05-08 04:40 | 43.20122 | 24.43848 | 36094 ft | 456 kts | 279° |
| 2026-05-08 04:41 | 43.21073 | 24.35251 | 36092 ft | 456 kts | 278° |
| 2026-05-08 04:41 | 43.22020 | 24.26643 | 36092 ft | 457 kts | 278° |
| 2026-05-08 04:42 | 43.22959 | 24.18035 | 36092 ft | 456 kts | 278° |
| 2026-05-08 04:42 | 43.23893 | 24.09423 | 36094 ft | 457 kts | 278° |
| 2026-05-08 04:43 | 43.24821 | 24.00805 | 36097 ft | 457 kts | 278° |
| 2026-05-08 04:43 | 43.25736 | 23.92192 | 36104 ft | 456 kts | 278° |
| 2026-05-08 04:44 | 43.26649 | 23.83558 | 36109 ft | 459 kts | 278° |
| 2026-05-08 04:44 | 43.27561 | 23.74901 | 36098 ft | 458 kts | 278° |
| 2026-05-08 04:45 | 43.28463 | 23.66266 | 36099 ft | 456 kts | 278° |
| 2026-05-08 04:45 | 43.29353 | 23.57656 | 36103 ft | 455 kts | 278° |
| 2026-05-08 04:46 | 43.30239 | 23.49058 | 36100 ft | 455 kts | 278° |
| 2026-05-08 04:46 | 43.31115 | 23.40465 | 36103 ft | 455 kts | 278° |
| 2026-05-08 04:47 | 43.31984 | 23.31863 | 36106 ft | 455 kts | 278° |
| 2026-05-08 04:47 | 43.32848 | 23.23259 | 36109 ft | 455 kts | 277° |
| 2026-05-08 04:48 | 43.33708 | 23.14636 | 36101 ft | 456 kts | 277° |
| 2026-05-08 04:48 | 43.34562 | 23.06008 | 36099 ft | 456 kts | 277° |
| 2026-05-08 04:49 | 43.35409 | 22.97374 | 36102 ft | 457 kts | 277° |
| 2026-05-08 04:49 | 43.36252 | 22.88722 | 36104 ft | 457 kts | 277° |
| 2026-05-08 04:50 | 43.37092 | 22.80050 | 36086 ft | 458 kts | 278° |
| 2026-05-08 04:50 | 43.38531 | 22.71536 | 36092 ft | 458 kts | 287° |
| 2026-05-08 04:51 | 43.40487 | 22.63203 | 36097 ft | 458 kts | 287° |
| 2026-05-08 04:51 | 43.42437 | 22.54849 | 36090 ft | 459 kts | 287° |
| 2026-05-08 04:52 | 43.44363 | 22.46472 | 36080 ft | 460 kts | 287° |
| 2026-05-08 04:52 | 43.46275 | 22.38072 | 36085 ft | 460 kts | 286° |
| 2026-05-08 04:53 | 43.48178 | 22.29674 | 36079 ft | 460 kts | 286° |
| 2026-05-08 04:53 | 43.50075 | 22.21268 | 36081 ft | 459 kts | 286° |
| 2026-05-08 04:54 | 43.51965 | 22.12867 | 36083 ft | 459 kts | 286° |
| 2026-05-08 04:54 | 43.53850 | 22.04454 | 36071 ft | 459 kts | 286° |
| 2026-05-08 04:55 | 43.55729 | 21.96038 | 36075 ft | 459 kts | 286° |
| 2026-05-08 04:55 | 43.57600 | 21.87615 | 36073 ft | 460 kts | 286° |
| 2026-05-08 04:56 | 43.59468 | 21.79185 | 36076 ft | 460 kts | 286° |
| 2026-05-08 04:56 | 43.61331 | 21.70738 | 36076 ft | 460 kts | 286° |
| 2026-05-08 04:57 | 43.63187 | 21.62282 | 36070 ft | 460 kts | 285° |
| 2026-05-08 04:57 | 43.65038 | 21.53817 | 36083 ft | 460 kts | 285° |
| 2026-05-08 04:58 | 43.66882 | 21.45373 | 36085 ft | 459 kts | 285° |
| 2026-05-08 04:58 | 43.68718 | 21.36913 | 36080 ft | 459 kts | 285° |
| 2026-05-08 04:59 | 43.70545 | 21.28463 | 36087 ft | 459 kts | 285° |
| 2026-05-08 04:59 | 43.72365 | 21.20006 | 36084 ft | 459 kts | 285° |
| 2026-05-08 05:00 | 43.74178 | 21.11553 | 36083 ft | 459 kts | 285° |
| 2026-05-08 05:00 | 43.75983 | 21.03093 | 36075 ft | 459 kts | 285° |
| 2026-05-08 05:01 | 43.77785 | 20.94632 | 36075 ft | 458 kts | 285° |
| 2026-05-08 05:01 | 43.79580 | 20.86169 | 36073 ft | 459 kts | 285° |
| 2026-05-08 05:02 | 43.81369 | 20.77698 | 36075 ft | 459 kts | 285° |
| 2026-05-08 05:02 | 43.83149 | 20.69217 | 36075 ft | 458 kts | 285° |
| 2026-05-08 05:03 | 43.84921 | 20.60740 | 36073 ft | 458 kts | 285° |
| 2026-05-08 05:03 | 43.86690 | 20.52257 | 36075 ft | 458 kts | 285° |
| 2026-05-08 05:04 | 43.88451 | 20.43775 | 36075 ft | 457 kts | 285° |
| 2026-05-08 05:04 | 43.90190 | 20.35351 | 36076 ft | 458 kts | 284° |
| 2026-05-08 05:05 | 43.91938 | 20.26869 | 36073 ft | 458 kts | 284° |
| 2026-05-08 05:05 | 43.93680 | 20.18367 | 36071 ft | 458 kts | 284° |
| 2026-05-08 05:06 | 43.95417 | 20.09862 | 36073 ft | 458 kts | 284° |
| 2026-05-08 05:06 | 43.97161 | 20.01284 | 36080 ft | 459 kts | 284° |
| 2026-05-08 05:07 | 43.98885 | 19.92761 | 36083 ft | 459 kts | 284° |
| 2026-05-08 05:07 | 44.00603 | 19.84232 | 36085 ft | 459 kts | 284° |
| 2026-05-08 05:08 | 44.02317 | 19.75695 | 36085 ft | 459 kts | 284° |
| 2026-05-08 05:08 | 44.04022 | 19.67155 | 36090 ft | 458 kts | 284° |
| 2026-05-08 05:09 | 44.05710 | 19.58670 | 36079 ft | 458 kts | 284° |
| 2026-05-08 05:09 | 44.07402 | 19.50135 | 36090 ft | 457 kts | 284° |
| 2026-05-08 05:10 | 44.09933 | 19.37278 | 36097 ft | 458 kts | 284° |
| 2026-05-08 05:11 | 44.11605 | 19.28737 | 36095 ft | 458 kts | 284° |
| 2026-05-08 05:11 | 44.13273 | 19.20181 | 36096 ft | 457 kts | 283° |
| 2026-05-08 05:12 | 44.14298 | 19.11531 | 36106 ft | 455 kts | 275° |
| 2026-05-08 05:12 | 44.14965 | 19.02699 | 36106 ft | 456 kts | 275° |
| 2026-05-08 05:13 | 44.15634 | 18.93914 | 36096 ft | 456 kts | 275° |
| 2026-05-08 05:13 | 44.16316 | 18.85134 | 36094 ft | 456 kts | 275° |
| 2026-05-08 05:14 | 44.16884 | 18.77840 | 36104 ft | 456 kts | 275° |
| 2026-05-08 05:14 | 44.17673 | 18.67630 | 36100 ft | 456 kts | 275° |
| 2026-05-08 05:15 | 44.18343 | 18.58851 | 36104 ft | 456 kts | 275° |
| 2026-05-08 05:15 | 44.19007 | 18.50063 | 36106 ft | 456 kts | 275° |
| 2026-05-08 05:16 | 44.19558 | 18.42696 | 36095 ft | 457 kts | 275° |
| 2026-05-08 05:16 | 44.20209 | 18.33908 | 36102 ft | 456 kts | 275° |
| 2026-05-08 05:17 | 44.20854 | 18.25123 | 36102 ft | 456 kts | 275° |
| 2026-05-08 05:17 | 44.21490 | 18.16332 | 36099 ft | 456 kts | 275° |
| 2026-05-08 05:18 | 44.22120 | 18.07540 | 36097 ft | 456 kts | 275° |
| 2026-05-08 05:18 | 44.22745 | 17.98742 | 36090 ft | 456 kts | 274° |
| 2026-05-08 05:19 | 44.23362 | 17.89951 | 36096 ft | 456 kts | 274° |
| 2026-05-08 05:19 | 44.23970 | 17.81205 | 36095 ft | 456 kts | 274° |
| 2026-05-08 05:20 | 44.24576 | 17.72343 | 36088 ft | 456 kts | 274° |
| 2026-05-08 05:20 | 44.25173 | 17.63549 | 36101 ft | 456 kts | 274° |
| 2026-05-08 05:21 | 44.25759 | 17.54798 | 36085 ft | 456 kts | 274° |
| 2026-05-08 05:21 | 44.26346 | 17.45933 | 36082 ft | 456 kts | 274° |
| 2026-05-08 05:22 | 44.26922 | 17.37125 | 36076 ft | 456 kts | 274° |
| 2026-05-08 05:22 | 44.27494 | 17.28309 | 36090 ft | 456 kts | 274° |
| 2026-05-08 05:23 | 44.28056 | 17.19504 | 36065 ft | 456 kts | 274° |
| 2026-05-08 05:23 | 44.28613 | 17.10696 | 36056 ft | 456 kts | 274° |
| 2026-05-08 05:24 | 44.29162 | 17.01884 | 36053 ft | 456 kts | 274° |
| 2026-05-08 05:24 | 44.29703 | 16.93075 | 36050 ft | 456 kts | 274° |
| 2026-05-08 05:25 | 44.30242 | 16.84257 | 36057 ft | 456 kts | 274° |
| 2026-05-08 05:25 | 44.30731 | 16.75433 | 36058 ft | 456 kts | 272° |
| 2026-05-08 05:26 | 44.31134 | 16.66609 | 36065 ft | 456 kts | 272° |
| 2026-05-08 05:26 | 44.31527 | 16.57772 | 36060 ft | 456 kts | 272° |
| 2026-05-08 05:27 | 44.31925 | 16.48919 | 36054 ft | 457 kts | 272° |
| 2026-05-08 05:27 | 44.32319 | 16.40074 | 36053 ft | 456 kts | 272° |
| 2026-05-08 05:28 | 44.32708 | 16.31299 | 36050 ft | 456 kts | 272° |
| 2026-05-08 05:28 | 44.33093 | 16.22449 | 36043 ft | 457 kts | 272° |
| 2026-05-08 05:29 | 44.33471 | 16.13591 | 36048 ft | 457 kts | 272° |
| 2026-05-08 05:29 | 44.33841 | 16.04733 | 36036 ft | 457 kts | 272° |
| 2026-05-08 05:30 | 44.34202 | 15.95865 | 36033 ft | 457 kts | 272° |
| 2026-05-08 05:30 | 44.34557 | 15.86992 | 36032 ft | 458 kts | 272° |
| 2026-05-08 05:31 | 44.34906 | 15.78114 | 36025 ft | 458 kts | 272° |
| 2026-05-08 05:31 | 44.35250 | 15.69241 | 36021 ft | 458 kts | 272° |
| 2026-05-08 05:32 | 44.35587 | 15.60362 | 36028 ft | 457 kts | 271° |
| 2026-05-08 05:32 | 44.35917 | 15.51490 | 36027 ft | 457 kts | 271° |
| 2026-05-08 05:33 | 44.36236 | 15.42634 | 36028 ft | 457 kts | 271° |
| 2026-05-08 05:33 | 44.36557 | 15.33760 | 36029 ft | 457 kts | 271° |
| 2026-05-08 05:34 | 44.36863 | 15.24884 | 36029 ft | 458 kts | 271° |
| 2026-05-08 05:34 | 44.37165 | 15.15993 | 36025 ft | 458 kts | 271° |
| 2026-05-08 05:35 | 44.37458 | 15.07112 | 36027 ft | 457 kts | 271° |
| 2026-05-08 05:35 | 44.37745 | 14.98239 | 36031 ft | 456 kts | 271° |
| 2026-05-08 05:36 | 44.38019 | 14.89389 | 36027 ft | 456 kts | 271° |
| 2026-05-08 05:36 | 44.38299 | 14.80529 | 36057 ft | 458 kts | 271° |
| 2026-05-08 05:36 | 44.38435 | 14.76070 | 36266 ft | 460 kts | 271° |
| 2026-05-08 05:37 | 44.38569 | 14.71608 | 36579 ft | 459 kts | 271° |
| 2026-05-08 05:37 | 44.38700 | 14.67174 | 37038 ft | 454 kts | 271° |
| 2026-05-08 05:37 | 44.38827 | 14.62803 | 37561 ft | 447 kts | 271° |
| 2026-05-08 05:37 | 44.38953 | 14.58461 | 37876 ft | 446 kts | 271° |
| 2026-05-08 05:38 | 44.39075 | 14.54118 | 37951 ft | 449 kts | 271° |
| 2026-05-08 05:38 | 44.39315 | 14.45359 | 38035 ft | 451 kts | 271° |
| 2026-05-08 05:39 | 44.39551 | 14.36610 | 38030 ft | 449 kts | 270° |
| 2026-05-08 05:39 | 44.39781 | 14.27919 | 38033 ft | 446 kts | 270° |
| 2026-05-08 05:40 | 44.40001 | 14.19260 | 38037 ft | 446 kts | 270° |
| 2026-05-08 05:40 | 44.40215 | 14.10598 | 38039 ft | 446 kts | 270° |
| 2026-05-08 05:41 | 44.40423 | 14.01922 | 38039 ft | 447 kts | 270° |
| 2026-05-08 05:41 | 44.40623 | 13.93224 | 38037 ft | 448 kts | 270° |
| 2026-05-08 05:42 | 44.40820 | 13.84519 | 38038 ft | 449 kts | 270° |
| 2026-05-08 05:42 | 44.41010 | 13.75782 | 38038 ft | 450 kts | 270° |
| 2026-05-08 05:43 | 44.41192 | 13.67041 | 38038 ft | 450 kts | 270° |
| 2026-05-08 05:43 | 44.41368 | 13.58273 | 38036 ft | 451 kts | 270° |
| 2026-05-08 05:44 | 44.41540 | 13.49504 | 38038 ft | 451 kts | 270° |
| 2026-05-08 05:44 | 44.41771 | 13.40736 | 38037 ft | 451 kts | 272° |
| 2026-05-08 05:45 | 44.42166 | 13.31979 | 38035 ft | 451 kts | 272° |
| 2026-05-08 05:45 | 44.42567 | 13.23217 | 38026 ft | 451 kts | 272° |
| 2026-05-08 05:46 | 44.42940 | 13.14460 | 38029 ft | 451 kts | 272° |
| 2026-05-08 05:46 | 44.43295 | 13.05699 | 38030 ft | 451 kts | 272° |
| 2026-05-08 05:47 | 44.43640 | 12.96942 | 38026 ft | 450 kts | 271° |
| 2026-05-08 05:47 | 44.43978 | 12.88184 | 38027 ft | 451 kts | 271° |
| 2026-05-08 05:48 | 44.44312 | 12.79420 | 38027 ft | 451 kts | 271° |
| 2026-05-08 05:48 | 44.44638 | 12.70642 | 38027 ft | 452 kts | 271° |
| 2026-05-08 05:49 | 44.44957 | 12.61856 | 38024 ft | 452 kts | 271° |
| 2026-05-08 05:49 | 44.45272 | 12.53065 | 38027 ft | 452 kts | 271° |
| 2026-05-08 05:50 | 44.45577 | 12.44268 | 38017 ft | 453 kts | 271° |
| 2026-05-08 05:50 | 44.45879 | 12.35460 | 38020 ft | 453 kts | 271° |
| 2026-05-08 05:51 | 44.46173 | 12.26649 | 38019 ft | 453 kts | 271° |
| 2026-05-08 05:51 | 44.46460 | 12.17831 | 38017 ft | 453 kts | 271° |
| 2026-05-08 05:52 | 44.46739 | 12.09013 | 38018 ft | 453 kts | 271° |
| 2026-05-08 05:52 | 44.47014 | 12.00200 | 38030 ft | 453 kts | 271° |
| 2026-05-08 05:53 | 44.47283 | 11.91376 | 38027 ft | 453 kts | 271° |
| 2026-05-08 05:53 | 44.47541 | 11.82574 | 38032 ft | 453 kts | 271° |
| 2026-05-08 05:54 | 44.47794 | 11.73757 | 38031 ft | 453 kts | 271° |
| 2026-05-08 05:54 | 44.48041 | 11.64939 | 38030 ft | 453 kts | 271° |
| 2026-05-08 05:55 | 44.48280 | 11.56122 | 38038 ft | 453 kts | 271° |
| 2026-05-08 05:55 | 44.48515 | 11.47290 | 38044 ft | 454 kts | 271° |
| 2026-05-08 05:56 | 44.48742 | 11.38464 | 38046 ft | 454 kts | 270° |
| 2026-05-08 05:56 | 44.48571 | 11.29651 | 38053 ft | 452 kts | 265° |
| 2026-05-08 05:57 | 44.48212 | 11.22344 | 38046 ft | 453 kts | 265° |
| 2026-05-08 05:57 | 44.47770 | 11.13543 | 38047 ft | 453 kts | 265° |
| 2026-05-08 05:58 | 44.47340 | 11.04730 | 38046 ft | 454 kts | 265° |
| 2026-05-08 05:58 | 44.46915 | 10.95913 | 38045 ft | 454 kts | 265° |
| 2026-05-08 05:59 | 44.46486 | 10.87111 | 38053 ft | 453 kts | 265° |
| 2026-05-08 05:59 | 44.46047 | 10.78306 | 38056 ft | 453 kts | 265° |
| 2026-05-08 06:00 | 44.45602 | 10.69504 | 38053 ft | 454 kts | 265° |
| 2026-05-08 06:00 | 44.45152 | 10.60698 | 38053 ft | 454 kts | 265° |
| 2026-05-08 06:01 | 44.44694 | 10.51892 | 38058 ft | 454 kts | 264° |
| 2026-05-08 06:01 | 44.44229 | 10.43090 | 38056 ft | 453 kts | 264° |
| 2026-05-08 06:02 | 44.43757 | 10.34289 | 38045 ft | 454 kts | 264° |
| 2026-05-08 06:02 | 44.43276 | 10.25478 | 38042 ft | 454 kts | 264° |
| 2026-05-08 06:03 | 44.42790 | 10.16664 | 38033 ft | 454 kts | 264° |
| 2026-05-08 06:03 | 44.42297 | 10.07846 | 38025 ft | 455 kts | 264° |
| 2026-05-08 06:04 | 44.41796 | 9.99023 | 38015 ft | 455 kts | 264° |
| 2026-05-08 06:04 | 44.41290 | 9.90208 | 38008 ft | 455 kts | 264° |
| 2026-05-08 06:05 | 44.40775 | 9.81386 | 37992 ft | 455 kts | 264° |
| 2026-05-08 06:05 | 44.40253 | 9.72576 | 37995 ft | 455 kts | 264° |
| 2026-05-08 06:06 | 44.39726 | 9.63762 | 37989 ft | 455 kts | 264° |
| 2026-05-08 06:06 | 44.39194 | 9.54957 | 37985 ft | 455 kts | 264° |
| 2026-05-08 06:07 | 44.38652 | 9.46136 | 37997 ft | 456 kts | 264° |
| 2026-05-08 06:07 | 44.38100 | 9.37290 | 37993 ft | 457 kts | 264° |
| 2026-05-08 06:08 | 44.37544 | 9.28430 | 37997 ft | 458 kts | 263° |
| 2026-05-08 06:08 | 44.36977 | 9.19547 | 37992 ft | 459 kts | 263° |
| 2026-05-08 06:09 | 44.36401 | 9.10649 | 37993 ft | 460 kts | 263° |
| 2026-05-08 06:09 | 44.35821 | 9.01752 | 37988 ft | 460 kts | 263° |
| 2026-05-08 06:10 | 44.35234 | 8.92859 | 37993 ft | 460 kts | 263° |
| 2026-05-08 06:10 | 44.34640 | 8.83975 | 37991 ft | 459 kts | 263° |
| 2026-05-08 06:11 | 44.34038 | 8.75102 | 37990 ft | 459 kts | 263° |
| 2026-05-08 06:11 | 44.33431 | 8.66241 | 37990 ft | 458 kts | 263° |
| 2026-05-08 06:12 | 44.32818 | 8.57385 | 37994 ft | 458 kts | 263° |
| 2026-05-08 06:12 | 44.32199 | 8.48547 | 38002 ft | 457 kts | 263° |
| 2026-05-08 06:13 | 44.31573 | 8.39709 | 38000 ft | 458 kts | 263° |
| 2026-05-08 06:13 | 44.30938 | 8.30859 | 38003 ft | 458 kts | 263° |
| 2026-05-08 06:14 | 44.30302 | 8.22068 | 37998 ft | 458 kts | 263° |
| 2026-05-08 06:14 | 44.29649 | 8.13152 | 38004 ft | 459 kts | 263° |
| 2026-05-08 06:15 | 44.28998 | 8.04354 | 38003 ft | 459 kts | 263° |
| 2026-05-08 06:15 | 44.28332 | 7.95448 | 38008 ft | 458 kts | 263° |
| 2026-05-08 06:16 | 44.27665 | 7.86602 | 38012 ft | 458 kts | 263° |
| 2026-05-08 06:16 | 44.27158 | 7.82234 | 38006 ft | 455 kts | 252° |
| 2026-05-08 06:16 | 44.25959 | 7.78171 | 38028 ft | 453 kts | 240° |
| 2026-05-08 06:17 | 44.19575 | 7.68588 | 38020 ft | 454 kts | 221° |
| 2026-05-08 06:17 | 44.14828 | 7.62752 | 38028 ft | 455 kts | 225° |
| 2026-05-08 06:18 | 44.10585 | 7.56198 | 38024 ft | 457 kts | 230° |
| 2026-05-08 06:18 | 44.06439 | 7.49490 | 38021 ft | 458 kts | 229° |
| 2026-05-08 06:19 | 44.02259 | 7.42787 | 38018 ft | 459 kts | 229° |
| 2026-05-08 06:19 | 43.98058 | 7.36100 | 38018 ft | 460 kts | 229° |
| 2026-05-08 06:20 | 43.93847 | 7.29419 | 38011 ft | 459 kts | 229° |
| 2026-05-08 06:20 | 43.89639 | 7.22758 | 37999 ft | 459 kts | 229° |
| 2026-05-08 06:21 | 43.85434 | 7.16114 | 38000 ft | 458 kts | 229° |
| 2026-05-08 06:21 | 43.81230 | 7.09485 | 37993 ft | 458 kts | 229° |
| 2026-05-08 06:22 | 43.77026 | 7.02871 | 37999 ft | 457 kts | 229° |
| 2026-05-08 06:22 | 43.73085 | 6.96000 | 38003 ft | 456 kts | 237° |
| 2026-05-08 06:23 | 43.70062 | 6.88309 | 37998 ft | 456 kts | 247° |
| 2026-05-08 06:23 | 43.67680 | 6.80192 | 37998 ft | 456 kts | 248° |
| 2026-05-08 06:24 | 43.65320 | 6.72049 | 37998 ft | 457 kts | 248° |
| 2026-05-08 06:24 | 43.62927 | 6.63913 | 38001 ft | 458 kts | 248° |
| 2026-05-08 06:25 | 43.60509 | 6.55774 | 38006 ft | 458 kts | 248° |
| 2026-05-08 06:25 | 43.58080 | 6.47639 | 38010 ft | 459 kts | 247° |
| 2026-05-08 06:26 | 43.55646 | 6.39503 | 38006 ft | 459 kts | 247° |
| 2026-05-08 06:26 | 43.53205 | 6.31371 | 38018 ft | 459 kts | 247° |
| 2026-05-08 06:27 | 43.50758 | 6.23245 | 38021 ft | 459 kts | 247° |
| 2026-05-08 06:27 | 43.48304 | 6.15121 | 38020 ft | 459 kts | 247° |
| 2026-05-08 06:28 | 43.45843 | 6.06996 | 38018 ft | 460 kts | 247° |
| 2026-05-08 06:28 | 43.43380 | 5.98885 | 38020 ft | 460 kts | 247° |
| 2026-05-08 06:29 | 43.40912 | 5.90777 | 37998 ft | 460 kts | 247° |
| 2026-05-08 06:29 | 43.38437 | 5.82670 | 37991 ft | 459 kts | 247° |
| 2026-05-08 06:30 | 43.35961 | 5.74587 | 37986 ft | 458 kts | 247° |
| 2026-05-08 06:30 | 43.33486 | 5.66535 | 38003 ft | 457 kts | 247° |
| 2026-05-08 06:31 | 43.31012 | 5.58498 | 38000 ft | 457 kts | 247° |
| 2026-05-08 06:31 | 43.28548 | 5.50527 | 38002 ft | 456 kts | 247° |
| 2026-05-08 06:32 | 43.26046 | 5.42457 | 38003 ft | 457 kts | 247° |
| 2026-05-08 06:32 | 43.23573 | 5.34498 | 37997 ft | 457 kts | 247° |
| 2026-05-08 06:33 | 43.21069 | 5.26501 | 38000 ft | 456 kts | 247° |
| 2026-05-08 06:33 | 43.18556 | 5.18522 | 38001 ft | 456 kts | 247° |
| 2026-05-08 06:34 | 43.16037 | 5.10544 | 38000 ft | 456 kts | 247° |
| 2026-05-08 06:34 | 43.13517 | 5.02578 | 38000 ft | 456 kts | 247° |
| 2026-05-08 06:35 | 43.10992 | 4.94618 | 38000 ft | 456 kts | 247° |
| 2026-05-08 06:35 | 43.08465 | 4.86673 | 38012 ft | 455 kts | 247° |
| 2026-05-08 06:36 | 43.05523 | 4.79032 | 38019 ft | 456 kts | 236° |
| 2026-05-08 06:36 | 43.01399 | 4.72458 | 38014 ft | 458 kts | 224° |
| 2026-05-08 06:37 | 42.96611 | 4.66695 | 38021 ft | 459 kts | 223° |
| 2026-05-08 06:37 | 42.91788 | 4.60986 | 38017 ft | 459 kts | 223° |
| 2026-05-08 06:38 | 42.86988 | 4.55258 | 38018 ft | 458 kts | 223° |
| 2026-05-08 06:38 | 42.82204 | 4.49517 | 38019 ft | 458 kts | 224° |
| 2026-05-08 06:39 | 42.77419 | 4.43776 | 38020 ft | 458 kts | 224° |
| 2026-05-08 06:39 | 42.73413 | 4.38981 | 38018 ft | 458 kts | 224° |
| 2026-05-08 06:40 | 42.68626 | 4.33268 | 38020 ft | 458 kts | 224° |
| 2026-05-08 06:40 | 42.63842 | 4.27567 | 38016 ft | 457 kts | 224° |
| 2026-05-08 06:41 | 42.59064 | 4.21888 | 38016 ft | 457 kts | 224° |
| 2026-05-08 06:41 | 42.54288 | 4.16223 | 38014 ft | 456 kts | 224° |
| 2026-05-08 06:42 | 42.49514 | 4.10572 | 38008 ft | 455 kts | 224° |
| 2026-05-08 06:42 | 42.44746 | 4.04937 | 38009 ft | 454 kts | 224° |
| 2026-05-08 06:43 | 42.39982 | 3.99320 | 38009 ft | 454 kts | 224° |
| 2026-05-08 06:43 | 42.35221 | 3.93717 | 38011 ft | 453 kts | 224° |
| 2026-05-08 06:44 | 42.30464 | 3.88131 | 38002 ft | 453 kts | 224° |
| 2026-05-08 06:44 | 42.25897 | 3.82329 | 38004 ft | 449 kts | 231° |
| 2026-05-08 06:45 | 42.22120 | 3.75666 | 38003 ft | 446 kts | 237° |
| 2026-05-08 06:45 | 42.18552 | 3.68811 | 38002 ft | 447 kts | 237° |
| 2026-05-08 06:46 | 42.14959 | 3.61963 | 38002 ft | 448 kts | 237° |
| 2026-05-08 06:46 | 42.11345 | 3.55121 | 38001 ft | 448 kts | 237° |
| 2026-05-08 06:47 | 42.07719 | 3.48282 | 38000 ft | 449 kts | 237° |
| 2026-05-08 06:47 | 42.04082 | 3.41442 | 38001 ft | 449 kts | 237° |
| 2026-05-08 06:48 | 42.00441 | 3.34611 | 37999 ft | 449 kts | 237° |
| 2026-05-08 06:48 | 41.96802 | 3.27793 | 38006 ft | 448 kts | 237° |
| 2026-05-08 06:49 | 41.93170 | 3.21003 | 37998 ft | 447 kts | 237° |
| 2026-05-08 06:49 | 41.89544 | 3.14240 | 37996 ft | 446 kts | 237° |
| 2026-05-08 06:50 | 41.85927 | 3.07511 | 37993 ft | 444 kts | 237° |
| 2026-05-08 06:50 | 41.82338 | 3.00848 | 37992 ft | 443 kts | 237° |
| 2026-05-08 06:51 | 41.78709 | 2.94124 | 37988 ft | 442 kts | 236° |
| 2026-05-08 06:51 | 41.75128 | 2.87504 | 37990 ft | 441 kts | 236° |
| 2026-05-08 06:52 | 41.71528 | 2.80861 | 37991 ft | 441 kts | 236° |
| 2026-05-08 06:52 | 41.67922 | 2.74233 | 37993 ft | 440 kts | 236° |
| 2026-05-08 06:53 | 41.64186 | 2.67736 | 37999 ft | 441 kts | 234° |
| 2026-05-08 06:53 | 41.60391 | 2.61297 | 38000 ft | 441 kts | 234° |
| 2026-05-08 06:54 | 41.56581 | 2.54803 | 37999 ft | 441 kts | 234° |
| 2026-05-08 06:54 | 41.52805 | 2.48350 | 38000 ft | 441 kts | 234° |
| 2026-05-08 06:55 | 41.49024 | 2.41894 | 38000 ft | 441 kts | 234° |
| 2026-05-08 06:55 | 41.45242 | 2.35449 | 37991 ft | 441 kts | 234° |
| 2026-05-08 06:56 | 41.41456 | 2.29016 | 37990 ft | 441 kts | 234° |
| 2026-05-08 06:56 | 41.37671 | 2.22593 | 37991 ft | 441 kts | 234° |
| 2026-05-08 06:57 | 41.33886 | 2.16177 | 37991 ft | 440 kts | 235° |
| 2026-05-08 06:57 | 41.30997 | 2.09086 | 37999 ft | 436 kts | 250° |
| 2026-05-08 06:58 | 41.29512 | 2.01317 | 37996 ft | 434 kts | 262° |
| 2026-05-08 06:58 | 41.28670 | 1.93361 | 37991 ft | 435 kts | 262° |
| 2026-05-08 06:59 | 41.27801 | 1.85405 | 37996 ft | 435 kts | 261° |
| 2026-05-08 06:59 | 41.26894 | 1.77506 | 37989 ft | 435 kts | 261° |
| 2026-05-08 07:00 | 41.25971 | 1.69552 | 37994 ft | 436 kts | 261° |
| 2026-05-08 07:00 | 41.25033 | 1.61598 | 37992 ft | 436 kts | 261° |
| 2026-05-08 07:01 | 41.24077 | 1.53587 | 37978 ft | 436 kts | 261° |
| 2026-05-08 07:01 | 41.23123 | 1.45640 | 37980 ft | 436 kts | 261° |
| 2026-05-08 07:02 | 41.22166 | 1.37692 | 37977 ft | 436 kts | 261° |
| 2026-05-08 07:02 | 41.21203 | 1.29743 | 37975 ft | 436 kts | 261° |
| 2026-05-08 07:03 | 41.20237 | 1.21805 | 37978 ft | 435 kts | 261° |
| 2026-05-08 07:03 | 41.19267 | 1.13884 | 37966 ft | 434 kts | 260° |
| 2026-05-08 07:04 | 41.18295 | 1.05969 | 37969 ft | 434 kts | 260° |
| 2026-05-08 07:04 | 41.17321 | 0.98064 | 37969 ft | 434 kts | 260° |
| 2026-05-08 07:05 | 41.16342 | 0.90161 | 37967 ft | 434 kts | 260° |
| 2026-05-08 07:05 | 41.15356 | 0.82255 | 37978 ft | 435 kts | 260° |
| 2026-05-08 07:06 | 41.14362 | 0.74334 | 37961 ft | 435 kts | 260° |
| 2026-05-08 07:06 | 41.13363 | 0.66404 | 37974 ft | 436 kts | 260° |
| 2026-05-08 07:07 | 41.12366 | 0.58465 | 37977 ft | 436 kts | 260° |
| 2026-05-08 07:07 | 41.11370 | 0.50527 | 37981 ft | 437 kts | 260° |
| 2026-05-08 07:08 | 41.10358 | 0.42596 | 37994 ft | 436 kts | 259° |
| 2026-05-08 07:08 | 41.09323 | 0.34665 | 37993 ft | 437 kts | 259° |
| 2026-05-08 07:09 | 41.08283 | 0.26739 | 37999 ft | 436 kts | 259° |
| 2026-05-08 07:09 | 41.07240 | 0.18818 | 37999 ft | 436 kts | 259° |